<?xml version="1.0" encoding="UTF-8" standalone="no" ?>
<gpx xmlns="http://www.topografix.com/GPX/1/1" xmlns:xsi="http://www.w3.org/2001/XMLSchema-instance" xsi:schemaLocation="http://www.topografix.com/GPX/1/1 http://www.topografix.com/GPX/1/1/gpx.xsd" version="1.1" creator="VisuGPX - https://www.visugpx.com">
  <metadata>
    <name>Bersend, col du Pré</name>
    <desc><![CDATA[Séjour [i]Raquette au Bersend[/i] proposé par [url=http://benb.eu.org]Bassée en Balade[/url].]]></desc>
  </metadata>
  <trk>
    <name><![CDATA[MARS-04-12 17:21:39]]></name>
    <trkseg>
      <trkpt lat="45.70649" lon="6.57891">
        <ele>1132.09</ele>
        <time>2012-03-04T08:24:48Z</time>
      </trkpt>
      <trkpt lat="45.70648" lon="6.5789">
        <ele>1129.21</ele>
        <time>2012-03-04T08:25:07Z</time>
      </trkpt>
      <trkpt lat="45.70648" lon="6.5789">
        <ele>1132.09</ele>
        <time>2012-03-04T08:25:08Z</time>
      </trkpt>
      <trkpt lat="45.70648" lon="6.5789">
        <ele>1128.24</ele>
        <time>2012-03-04T08:25:19Z</time>
      </trkpt>
      <trkpt lat="45.70648" lon="6.5789">
        <ele>1131.61</ele>
        <time>2012-03-04T08:25:20Z</time>
      </trkpt>
      <trkpt lat="45.70647" lon="6.5789">
        <ele>1131.61</ele>
        <time>2012-03-04T08:25:34Z</time>
      </trkpt>
      <trkpt lat="45.70641" lon="6.57886">
        <ele>1133.53</ele>
        <time>2012-03-04T08:25:57Z</time>
      </trkpt>
      <trkpt lat="45.70641" lon="6.57886">
        <ele>1130.65</ele>
        <time>2012-03-04T08:26:20Z</time>
      </trkpt>
      <trkpt lat="45.70641" lon="6.57886">
        <ele>1135.94</ele>
        <time>2012-03-04T08:26:21Z</time>
      </trkpt>
      <trkpt lat="45.70641" lon="6.57886">
        <ele>1133.53</ele>
        <time>2012-03-04T08:26:22Z</time>
      </trkpt>
      <trkpt lat="45.70633" lon="6.57882">
        <ele>1134.49</ele>
        <time>2012-03-04T08:26:34Z</time>
      </trkpt>
      <trkpt lat="45.7062" lon="6.57878">
        <ele>1137.38</ele>
        <time>2012-03-04T08:26:52Z</time>
      </trkpt>
      <trkpt lat="45.7061" lon="6.57872">
        <ele>1138.34</ele>
        <time>2012-03-04T08:27:07Z</time>
      </trkpt>
      <trkpt lat="45.70598" lon="6.57868">
        <ele>1140.74</ele>
        <time>2012-03-04T08:27:24Z</time>
      </trkpt>
      <trkpt lat="45.70591" lon="6.57864">
        <ele>1143.14</ele>
        <time>2012-03-04T08:27:39Z</time>
      </trkpt>
      <trkpt lat="45.70583" lon="6.57859">
        <ele>1146.03</ele>
        <time>2012-03-04T08:27:56Z</time>
      </trkpt>
      <trkpt lat="45.70575" lon="6.57856">
        <ele>1148.91</ele>
        <time>2012-03-04T08:28:13Z</time>
      </trkpt>
      <trkpt lat="45.70567" lon="6.57858">
        <ele>1150.35</ele>
        <time>2012-03-04T08:28:31Z</time>
      </trkpt>
      <trkpt lat="45.70565" lon="6.57858">
        <ele>1152.76</ele>
        <time>2012-03-04T08:28:46Z</time>
      </trkpt>
      <trkpt lat="45.70566" lon="6.57857">
        <ele>1152.28</ele>
        <time>2012-03-04T08:29:21Z</time>
      </trkpt>
      <trkpt lat="45.70565" lon="6.57857">
        <ele>1152.76</ele>
        <time>2012-03-04T08:30:00Z</time>
      </trkpt>
      <trkpt lat="45.70562" lon="6.5786">
        <ele>1153.24</ele>
        <time>2012-03-04T08:30:38Z</time>
      </trkpt>
      <trkpt lat="45.70563" lon="6.57859">
        <ele>1152.76</ele>
        <time>2012-03-04T08:30:57Z</time>
      </trkpt>
      <trkpt lat="45.70562" lon="6.5786">
        <ele>1152.76</ele>
        <time>2012-03-04T08:31:30Z</time>
      </trkpt>
      <trkpt lat="45.70562" lon="6.57859">
        <ele>1152.28</ele>
        <time>2012-03-04T08:31:44Z</time>
      </trkpt>
      <trkpt lat="45.70561" lon="6.57861">
        <ele>1153.24</ele>
        <time>2012-03-04T08:32:19Z</time>
      </trkpt>
      <trkpt lat="45.70563" lon="6.57862">
        <ele>1152.28</ele>
        <time>2012-03-04T08:32:22Z</time>
      </trkpt>
      <trkpt lat="45.70562" lon="6.57863">
        <ele>1152.28</ele>
        <time>2012-03-04T08:32:48Z</time>
      </trkpt>
      <trkpt lat="45.70561" lon="6.57866">
        <ele>1153.72</ele>
        <time>2012-03-04T08:32:51Z</time>
      </trkpt>
      <trkpt lat="45.70558" lon="6.5787">
        <ele>1155.16</ele>
        <time>2012-03-04T08:32:56Z</time>
      </trkpt>
      <trkpt lat="45.70557" lon="6.57874">
        <ele>1154.2</ele>
        <time>2012-03-04T08:32:59Z</time>
      </trkpt>
      <trkpt lat="45.70554" lon="6.57879">
        <ele>1154.2</ele>
        <time>2012-03-04T08:33:05Z</time>
      </trkpt>
      <trkpt lat="45.70545" lon="6.57896">
        <ele>1158.53</ele>
        <time>2012-03-04T08:33:23Z</time>
      </trkpt>
      <trkpt lat="45.70543" lon="6.57898">
        <ele>1155.16</ele>
        <time>2012-03-04T08:33:26Z</time>
      </trkpt>
      <trkpt lat="45.7054" lon="6.57901">
        <ele>1157.56</ele>
        <time>2012-03-04T08:33:29Z</time>
      </trkpt>
      <trkpt lat="45.70532" lon="6.57908">
        <ele>1158.53</ele>
        <time>2012-03-04T08:33:44Z</time>
      </trkpt>
      <trkpt lat="45.70531" lon="6.57909">
        <ele>1158.53</ele>
        <time>2012-03-04T08:33:45Z</time>
      </trkpt>
      <trkpt lat="45.70522" lon="6.57919">
        <ele>1159.97</ele>
        <time>2012-03-04T08:34:00Z</time>
      </trkpt>
      <trkpt lat="45.70511" lon="6.57935">
        <ele>1161.89</ele>
        <time>2012-03-04T08:34:18Z</time>
      </trkpt>
      <trkpt lat="45.70504" lon="6.57949">
        <ele>1162.85</ele>
        <time>2012-03-04T08:34:33Z</time>
      </trkpt>
      <trkpt lat="45.70502" lon="6.57953">
        <ele>1163.33</ele>
        <time>2012-03-04T08:34:37Z</time>
      </trkpt>
      <trkpt lat="45.70499" lon="6.57968">
        <ele>1165.26</ele>
        <time>2012-03-04T08:34:49Z</time>
      </trkpt>
      <trkpt lat="45.70496" lon="6.57985">
        <ele>1166.22</ele>
        <time>2012-03-04T08:35:06Z</time>
      </trkpt>
      <trkpt lat="45.70495" lon="6.57994">
        <ele>1167.66</ele>
        <time>2012-03-04T08:35:12Z</time>
      </trkpt>
      <trkpt lat="45.70495" lon="6.57998">
        <ele>1168.14</ele>
        <time>2012-03-04T08:35:16Z</time>
      </trkpt>
      <trkpt lat="45.7049" lon="6.58014">
        <ele>1169.58</ele>
        <time>2012-03-04T08:35:32Z</time>
      </trkpt>
      <trkpt lat="45.70487" lon="6.58019">
        <ele>1171.02</ele>
        <time>2012-03-04T08:35:39Z</time>
      </trkpt>
      <trkpt lat="45.70483" lon="6.58025">
        <ele>1171.98</ele>
        <time>2012-03-04T08:35:46Z</time>
      </trkpt>
      <trkpt lat="45.70471" lon="6.58037">
        <ele>1172.47</ele>
        <time>2012-03-04T08:36:01Z</time>
      </trkpt>
      <trkpt lat="45.70466" lon="6.58056">
        <ele>1174.87</ele>
        <time>2012-03-04T08:36:19Z</time>
      </trkpt>
      <trkpt lat="45.70463" lon="6.58067">
        <ele>1175.83</ele>
        <time>2012-03-04T08:36:28Z</time>
      </trkpt>
      <trkpt lat="45.70455" lon="6.58081">
        <ele>1178.23</ele>
        <time>2012-03-04T08:36:40Z</time>
      </trkpt>
      <trkpt lat="45.70443" lon="6.58085">
        <ele>1178.71</ele>
        <time>2012-03-04T08:36:57Z</time>
      </trkpt>
      <trkpt lat="45.70434" lon="6.5809">
        <ele>1181.6</ele>
        <time>2012-03-04T08:37:11Z</time>
      </trkpt>
      <trkpt lat="45.70434" lon="6.5809">
        <ele>1180.64</ele>
        <time>2012-03-04T08:37:12Z</time>
      </trkpt>
      <trkpt lat="45.70433" lon="6.58089">
        <ele>1180.16</ele>
        <time>2012-03-04T08:37:14Z</time>
      </trkpt>
      <trkpt lat="45.70426" lon="6.58087">
        <ele>1181.6</ele>
        <time>2012-03-04T08:37:34Z</time>
      </trkpt>
      <trkpt lat="45.70417" lon="6.58083">
        <ele>1183.04</ele>
        <time>2012-03-04T08:38:13Z</time>
      </trkpt>
      <trkpt lat="45.70413" lon="6.58087">
        <ele>1185.44</ele>
        <time>2012-03-04T08:38:32Z</time>
      </trkpt>
      <trkpt lat="45.70408" lon="6.5809">
        <ele>1186.88</ele>
        <time>2012-03-04T08:39:08Z</time>
      </trkpt>
      <trkpt lat="45.70406" lon="6.58089">
        <ele>1187.85</ele>
        <time>2012-03-04T08:39:28Z</time>
      </trkpt>
      <trkpt lat="45.70399" lon="6.5809">
        <ele>1190.25</ele>
        <time>2012-03-04T08:39:50Z</time>
      </trkpt>
      <trkpt lat="45.70389" lon="6.581">
        <ele>1191.21</ele>
        <time>2012-03-04T08:40:06Z</time>
      </trkpt>
      <trkpt lat="45.70388" lon="6.58103">
        <ele>1193.13</ele>
        <time>2012-03-04T08:40:23Z</time>
      </trkpt>
      <trkpt lat="45.70386" lon="6.58094">
        <ele>1195.06</ele>
        <time>2012-03-04T08:40:38Z</time>
      </trkpt>
      <trkpt lat="45.70385" lon="6.58077">
        <ele>1195.54</ele>
        <time>2012-03-04T08:40:56Z</time>
      </trkpt>
      <trkpt lat="45.70385" lon="6.58066">
        <ele>1197.46</ele>
        <time>2012-03-04T08:41:14Z</time>
      </trkpt>
      <trkpt lat="45.70382" lon="6.58053">
        <ele>1199.38</ele>
        <time>2012-03-04T08:41:30Z</time>
      </trkpt>
      <trkpt lat="45.70383" lon="6.58042">
        <ele>1200.82</ele>
        <time>2012-03-04T08:41:46Z</time>
      </trkpt>
      <trkpt lat="45.70385" lon="6.58036">
        <ele>1202.75</ele>
        <time>2012-03-04T08:42:08Z</time>
      </trkpt>
      <trkpt lat="45.70385" lon="6.58033">
        <ele>1204.19</ele>
        <time>2012-03-04T08:42:24Z</time>
      </trkpt>
      <trkpt lat="45.7038" lon="6.58036">
        <ele>1205.63</ele>
        <time>2012-03-04T08:42:38Z</time>
      </trkpt>
      <trkpt lat="45.70376" lon="6.58044">
        <ele>1208.03</ele>
        <time>2012-03-04T08:42:56Z</time>
      </trkpt>
      <trkpt lat="45.70372" lon="6.5804">
        <ele>1209.48</ele>
        <time>2012-03-04T08:43:12Z</time>
      </trkpt>
      <trkpt lat="45.70368" lon="6.58031">
        <ele>1211.4</ele>
        <time>2012-03-04T08:43:29Z</time>
      </trkpt>
      <trkpt lat="45.70368" lon="6.58028">
        <ele>1212.36</ele>
        <time>2012-03-04T08:43:53Z</time>
      </trkpt>
      <trkpt lat="45.70368" lon="6.58017">
        <ele>1213.32</ele>
        <time>2012-03-04T08:44:42Z</time>
      </trkpt>
      <trkpt lat="45.70371" lon="6.5801">
        <ele>1214.28</ele>
        <time>2012-03-04T08:44:52Z</time>
      </trkpt>
      <trkpt lat="45.70375" lon="6.57993">
        <ele>1215.24</ele>
        <time>2012-03-04T08:45:11Z</time>
      </trkpt>
      <trkpt lat="45.70384" lon="6.57986">
        <ele>1217.17</ele>
        <time>2012-03-04T08:45:31Z</time>
      </trkpt>
      <trkpt lat="45.70389" lon="6.57974">
        <ele>1219.09</ele>
        <time>2012-03-04T08:45:49Z</time>
      </trkpt>
      <trkpt lat="45.70391" lon="6.57956">
        <ele>1221.01</ele>
        <time>2012-03-04T08:46:10Z</time>
      </trkpt>
      <trkpt lat="45.70393" lon="6.57945">
        <ele>1222.93</ele>
        <time>2012-03-04T08:46:28Z</time>
      </trkpt>
      <trkpt lat="45.70394" lon="6.57934">
        <ele>1225.34</ele>
        <time>2012-03-04T08:46:54Z</time>
      </trkpt>
      <trkpt lat="45.70393" lon="6.57932">
        <ele>1227.74</ele>
        <time>2012-03-04T08:47:18Z</time>
      </trkpt>
      <trkpt lat="45.70383" lon="6.57925">
        <ele>1231.11</ele>
        <time>2012-03-04T08:47:45Z</time>
      </trkpt>
      <trkpt lat="45.70381" lon="6.57928">
        <ele>1233.51</ele>
        <time>2012-03-04T08:48:16Z</time>
      </trkpt>
      <trkpt lat="45.70379" lon="6.57935">
        <ele>1234.95</ele>
        <time>2012-03-04T08:48:38Z</time>
      </trkpt>
      <trkpt lat="45.70379" lon="6.57935">
        <ele>1234.95</ele>
        <time>2012-03-04T08:49:32Z</time>
      </trkpt>
      <trkpt lat="45.70379" lon="6.57936">
        <ele>1234.47</ele>
        <time>2012-03-04T08:50:18Z</time>
      </trkpt>
      <trkpt lat="45.70376" lon="6.57941">
        <ele>1234.95</ele>
        <time>2012-03-04T08:50:23Z</time>
      </trkpt>
      <trkpt lat="45.70371" lon="6.57952">
        <ele>1236.39</ele>
        <time>2012-03-04T08:50:39Z</time>
      </trkpt>
      <trkpt lat="45.70368" lon="6.57957">
        <ele>1236.87</ele>
        <time>2012-03-04T08:51:09Z</time>
      </trkpt>
      <trkpt lat="45.70363" lon="6.57964">
        <ele>1237.83</ele>
        <time>2012-03-04T08:51:28Z</time>
      </trkpt>
      <trkpt lat="45.70351" lon="6.57965">
        <ele>1239.76</ele>
        <time>2012-03-04T08:51:45Z</time>
      </trkpt>
      <trkpt lat="45.70353" lon="6.5795">
        <ele>1242.16</ele>
        <time>2012-03-04T08:52:06Z</time>
      </trkpt>
      <trkpt lat="45.70358" lon="6.57943">
        <ele>1244.08</ele>
        <time>2012-03-04T08:52:26Z</time>
      </trkpt>
      <trkpt lat="45.70356" lon="6.57933">
        <ele>1245.53</ele>
        <time>2012-03-04T08:52:44Z</time>
      </trkpt>
      <trkpt lat="45.70357" lon="6.57938">
        <ele>1245.53</ele>
        <time>2012-03-04T08:53:03Z</time>
      </trkpt>
      <trkpt lat="45.70355" lon="6.57938">
        <ele>1246.01</ele>
        <time>2012-03-04T08:53:25Z</time>
      </trkpt>
      <trkpt lat="45.70357" lon="6.57938">
        <ele>1245.04</ele>
        <time>2012-03-04T08:53:48Z</time>
      </trkpt>
      <trkpt lat="45.70357" lon="6.57936">
        <ele>1246.01</ele>
        <time>2012-03-04T08:58:41Z</time>
      </trkpt>
      <trkpt lat="45.70357" lon="6.57937">
        <ele>1245.53</ele>
        <time>2012-03-04T08:59:09Z</time>
      </trkpt>
      <trkpt lat="45.70355" lon="6.57937">
        <ele>1245.53</ele>
        <time>2012-03-04T08:59:31Z</time>
      </trkpt>
      <trkpt lat="45.70355" lon="6.57939">
        <ele>1246.01</ele>
        <time>2012-03-04T09:00:01Z</time>
      </trkpt>
      <trkpt lat="45.70348" lon="6.57944">
        <ele>1248.41</ele>
        <time>2012-03-04T09:00:17Z</time>
      </trkpt>
      <trkpt lat="45.70341" lon="6.57943">
        <ele>1249.85</ele>
        <time>2012-03-04T09:00:33Z</time>
      </trkpt>
      <trkpt lat="45.70341" lon="6.57941">
        <ele>1251.29</ele>
        <time>2012-03-04T09:01:02Z</time>
      </trkpt>
      <trkpt lat="45.70342" lon="6.57933">
        <ele>1252.74</ele>
        <time>2012-03-04T09:01:26Z</time>
      </trkpt>
      <trkpt lat="45.70341" lon="6.57915">
        <ele>1255.62</ele>
        <time>2012-03-04T09:01:45Z</time>
      </trkpt>
      <trkpt lat="45.70342" lon="6.57906">
        <ele>1257.54</ele>
        <time>2012-03-04T09:02:10Z</time>
      </trkpt>
      <trkpt lat="45.70342" lon="6.57889">
        <ele>1259.46</ele>
        <time>2012-03-04T09:02:24Z</time>
      </trkpt>
      <trkpt lat="45.7034" lon="6.5788">
        <ele>1260.43</ele>
        <time>2012-03-04T09:02:45Z</time>
      </trkpt>
      <trkpt lat="45.70342" lon="6.57872">
        <ele>1262.35</ele>
        <time>2012-03-04T09:03:02Z</time>
      </trkpt>
      <trkpt lat="45.70342" lon="6.57869">
        <ele>1264.75</ele>
        <time>2012-03-04T09:03:30Z</time>
      </trkpt>
      <trkpt lat="45.70349" lon="6.57859">
        <ele>1265.71</ele>
        <time>2012-03-04T09:03:50Z</time>
      </trkpt>
      <trkpt lat="45.70351" lon="6.57843">
        <ele>1267.64</ele>
        <time>2012-03-04T09:04:12Z</time>
      </trkpt>
      <trkpt lat="45.70349" lon="6.57827">
        <ele>1269.56</ele>
        <time>2012-03-04T09:04:31Z</time>
      </trkpt>
      <trkpt lat="45.70348" lon="6.57816">
        <ele>1271</ele>
        <time>2012-03-04T09:04:50Z</time>
      </trkpt>
      <trkpt lat="45.70348" lon="6.57803">
        <ele>1273.4</ele>
        <time>2012-03-04T09:05:15Z</time>
      </trkpt>
      <trkpt lat="45.70348" lon="6.5779">
        <ele>1274.36</ele>
        <time>2012-03-04T09:05:32Z</time>
      </trkpt>
      <trkpt lat="45.70348" lon="6.5778">
        <ele>1275.81</ele>
        <time>2012-03-04T09:05:48Z</time>
      </trkpt>
      <trkpt lat="45.70351" lon="6.57772">
        <ele>1277.73</ele>
        <time>2012-03-04T09:06:09Z</time>
      </trkpt>
      <trkpt lat="45.70349" lon="6.5776">
        <ele>1278.69</ele>
        <time>2012-03-04T09:06:34Z</time>
      </trkpt>
      <trkpt lat="45.7035" lon="6.57748">
        <ele>1281.09</ele>
        <time>2012-03-04T09:06:55Z</time>
      </trkpt>
      <trkpt lat="45.70346" lon="6.57731">
        <ele>1282.54</ele>
        <time>2012-03-04T09:07:13Z</time>
      </trkpt>
      <trkpt lat="45.70347" lon="6.57732">
        <ele>1284.94</ele>
        <time>2012-03-04T09:07:35Z</time>
      </trkpt>
      <trkpt lat="45.70346" lon="6.57738">
        <ele>1285.42</ele>
        <time>2012-03-04T09:07:54Z</time>
      </trkpt>
      <trkpt lat="45.70345" lon="6.57747">
        <ele>1287.82</ele>
        <time>2012-03-04T09:08:12Z</time>
      </trkpt>
      <trkpt lat="45.70343" lon="6.57753">
        <ele>1291.19</ele>
        <time>2012-03-04T09:08:35Z</time>
      </trkpt>
      <trkpt lat="45.7034" lon="6.57754">
        <ele>1291.19</ele>
        <time>2012-03-04T09:08:59Z</time>
      </trkpt>
      <trkpt lat="45.70339" lon="6.57752">
        <ele>1291.19</ele>
        <time>2012-03-04T09:09:16Z</time>
      </trkpt>
      <trkpt lat="45.7034" lon="6.57761">
        <ele>1290.23</ele>
        <time>2012-03-04T09:09:42Z</time>
      </trkpt>
      <trkpt lat="45.7034" lon="6.57767">
        <ele>1290.23</ele>
        <time>2012-03-04T09:10:23Z</time>
      </trkpt>
      <trkpt lat="45.70335" lon="6.57777">
        <ele>1290.23</ele>
        <time>2012-03-04T09:10:42Z</time>
      </trkpt>
      <trkpt lat="45.70333" lon="6.57782">
        <ele>1291.67</ele>
        <time>2012-03-04T09:11:00Z</time>
      </trkpt>
      <trkpt lat="45.7033" lon="6.57791">
        <ele>1293.11</ele>
        <time>2012-03-04T09:11:14Z</time>
      </trkpt>
      <trkpt lat="45.70327" lon="6.57799">
        <ele>1294.55</ele>
        <time>2012-03-04T09:11:27Z</time>
      </trkpt>
      <trkpt lat="45.70323" lon="6.57803">
        <ele>1294.55</ele>
        <time>2012-03-04T09:11:42Z</time>
      </trkpt>
      <trkpt lat="45.70318" lon="6.57809">
        <ele>1297.44</ele>
        <time>2012-03-04T09:12:05Z</time>
      </trkpt>
      <trkpt lat="45.70314" lon="6.57819">
        <ele>1298.88</ele>
        <time>2012-03-04T09:12:19Z</time>
      </trkpt>
      <trkpt lat="45.70312" lon="6.57825">
        <ele>1300.32</ele>
        <time>2012-03-04T09:12:36Z</time>
      </trkpt>
      <trkpt lat="45.70306" lon="6.57835">
        <ele>1301.76</ele>
        <time>2012-03-04T09:12:53Z</time>
      </trkpt>
      <trkpt lat="45.70302" lon="6.57839">
        <ele>1303.69</ele>
        <time>2012-03-04T09:13:11Z</time>
      </trkpt>
      <trkpt lat="45.70298" lon="6.57839">
        <ele>1305.13</ele>
        <time>2012-03-04T09:13:27Z</time>
      </trkpt>
      <trkpt lat="45.70296" lon="6.57826">
        <ele>1307.05</ele>
        <time>2012-03-04T09:13:50Z</time>
      </trkpt>
      <trkpt lat="45.70298" lon="6.5781">
        <ele>1309.45</ele>
        <time>2012-03-04T09:14:11Z</time>
      </trkpt>
      <trkpt lat="45.70297" lon="6.57796">
        <ele>1310.41</ele>
        <time>2012-03-04T09:14:29Z</time>
      </trkpt>
      <trkpt lat="45.703" lon="6.57784">
        <ele>1311.86</ele>
        <time>2012-03-04T09:14:49Z</time>
      </trkpt>
      <trkpt lat="45.70299" lon="6.57772">
        <ele>1312.82</ele>
        <time>2012-03-04T09:15:05Z</time>
      </trkpt>
      <trkpt lat="45.70299" lon="6.57769">
        <ele>1313.3</ele>
        <time>2012-03-04T09:15:24Z</time>
      </trkpt>
      <trkpt lat="45.703" lon="6.57769">
        <ele>1313.3</ele>
        <time>2012-03-04T09:16:50Z</time>
      </trkpt>
      <trkpt lat="45.70303" lon="6.57762">
        <ele>1314.74</ele>
        <time>2012-03-04T09:17:17Z</time>
      </trkpt>
      <trkpt lat="45.70304" lon="6.57755">
        <ele>1315.22</ele>
        <time>2012-03-04T09:17:31Z</time>
      </trkpt>
      <trkpt lat="45.70303" lon="6.57747">
        <ele>1317.14</ele>
        <time>2012-03-04T09:17:48Z</time>
      </trkpt>
      <trkpt lat="45.70302" lon="6.57741">
        <ele>1319.07</ele>
        <time>2012-03-04T09:18:05Z</time>
      </trkpt>
      <trkpt lat="45.70299" lon="6.57738">
        <ele>1320.03</ele>
        <time>2012-03-04T09:18:16Z</time>
      </trkpt>
      <trkpt lat="45.70295" lon="6.57734">
        <ele>1319.07</ele>
        <time>2012-03-04T09:18:34Z</time>
      </trkpt>
      <trkpt lat="45.70295" lon="6.57733">
        <ele>1319.55</ele>
        <time>2012-03-04T09:19:27Z</time>
      </trkpt>
      <trkpt lat="45.70297" lon="6.57731">
        <ele>1319.55</ele>
        <time>2012-03-04T09:20:29Z</time>
      </trkpt>
      <trkpt lat="45.70298" lon="6.57731">
        <ele>1319.55</ele>
        <time>2012-03-04T09:21:05Z</time>
      </trkpt>
      <trkpt lat="45.70296" lon="6.57732">
        <ele>1319.55</ele>
        <time>2012-03-04T09:21:31Z</time>
      </trkpt>
      <trkpt lat="45.70296" lon="6.57738">
        <ele>1320.51</ele>
        <time>2012-03-04T09:21:55Z</time>
      </trkpt>
      <trkpt lat="45.70293" lon="6.5775">
        <ele>1321.95</ele>
        <time>2012-03-04T09:22:09Z</time>
      </trkpt>
      <trkpt lat="45.70291" lon="6.57758">
        <ele>1322.43</ele>
        <time>2012-03-04T09:22:16Z</time>
      </trkpt>
      <trkpt lat="45.70286" lon="6.57774">
        <ele>1323.87</ele>
        <time>2012-03-04T09:22:33Z</time>
      </trkpt>
      <trkpt lat="45.7028" lon="6.57788">
        <ele>1324.83</ele>
        <time>2012-03-04T09:22:48Z</time>
      </trkpt>
      <trkpt lat="45.70274" lon="6.57802">
        <ele>1326.76</ele>
        <time>2012-03-04T09:23:06Z</time>
      </trkpt>
      <trkpt lat="45.70271" lon="6.57809">
        <ele>1328.2</ele>
        <time>2012-03-04T09:23:16Z</time>
      </trkpt>
      <trkpt lat="45.70264" lon="6.57823">
        <ele>1329.64</ele>
        <time>2012-03-04T09:23:31Z</time>
      </trkpt>
      <trkpt lat="45.70262" lon="6.5782">
        <ele>1328.68</ele>
        <time>2012-03-04T09:23:52Z</time>
      </trkpt>
      <trkpt lat="45.70262" lon="6.57809">
        <ele>1332.04</ele>
        <time>2012-03-04T09:24:05Z</time>
      </trkpt>
      <trkpt lat="45.70263" lon="6.57795">
        <ele>1333.01</ele>
        <time>2012-03-04T09:24:22Z</time>
      </trkpt>
      <trkpt lat="45.70266" lon="6.5778">
        <ele>1334.45</ele>
        <time>2012-03-04T09:24:39Z</time>
      </trkpt>
      <trkpt lat="45.70268" lon="6.57762">
        <ele>1335.89</ele>
        <time>2012-03-04T09:24:58Z</time>
      </trkpt>
      <trkpt lat="45.70266" lon="6.57747">
        <ele>1337.81</ele>
        <time>2012-03-04T09:25:14Z</time>
      </trkpt>
      <trkpt lat="45.70266" lon="6.57736">
        <ele>1340.22</ele>
        <time>2012-03-04T09:25:30Z</time>
      </trkpt>
      <trkpt lat="45.70264" lon="6.5774">
        <ele>1341.18</ele>
        <time>2012-03-04T09:25:50Z</time>
      </trkpt>
      <trkpt lat="45.70261" lon="6.57744">
        <ele>1342.62</ele>
        <time>2012-03-04T09:26:11Z</time>
      </trkpt>
      <trkpt lat="45.70258" lon="6.57746">
        <ele>1343.58</ele>
        <time>2012-03-04T09:26:32Z</time>
      </trkpt>
      <trkpt lat="45.70255" lon="6.57758">
        <ele>1345.5</ele>
        <time>2012-03-04T09:26:46Z</time>
      </trkpt>
      <trkpt lat="45.70249" lon="6.57766">
        <ele>1346.94</ele>
        <time>2012-03-04T09:27:02Z</time>
      </trkpt>
      <trkpt lat="45.70244" lon="6.57776">
        <ele>1349.35</ele>
        <time>2012-03-04T09:27:16Z</time>
      </trkpt>
      <trkpt lat="45.70241" lon="6.57782">
        <ele>1350.31</ele>
        <time>2012-03-04T09:27:29Z</time>
      </trkpt>
      <trkpt lat="45.70235" lon="6.57792">
        <ele>1352.23</ele>
        <time>2012-03-04T09:27:45Z</time>
      </trkpt>
      <trkpt lat="45.70229" lon="6.57796">
        <ele>1353.67</ele>
        <time>2012-03-04T09:28:01Z</time>
      </trkpt>
      <trkpt lat="45.70222" lon="6.57804">
        <ele>1355.6</ele>
        <time>2012-03-04T09:28:17Z</time>
      </trkpt>
      <trkpt lat="45.70218" lon="6.57807">
        <ele>1356.08</ele>
        <time>2012-03-04T09:28:26Z</time>
      </trkpt>
      <trkpt lat="45.70212" lon="6.57813">
        <ele>1358</ele>
        <time>2012-03-04T09:28:40Z</time>
      </trkpt>
      <trkpt lat="45.70212" lon="6.57814">
        <ele>1358</ele>
        <time>2012-03-04T09:28:42Z</time>
      </trkpt>
      <trkpt lat="45.70209" lon="6.57824">
        <ele>1359.92</ele>
        <time>2012-03-04T09:29:00Z</time>
      </trkpt>
      <trkpt lat="45.70204" lon="6.57826">
        <ele>1361.36</ele>
        <time>2012-03-04T09:29:17Z</time>
      </trkpt>
      <trkpt lat="45.70205" lon="6.57817">
        <ele>1363.77</ele>
        <time>2012-03-04T09:29:34Z</time>
      </trkpt>
      <trkpt lat="45.702" lon="6.57814">
        <ele>1364.73</ele>
        <time>2012-03-04T09:29:58Z</time>
      </trkpt>
      <trkpt lat="45.70197" lon="6.5782">
        <ele>1366.65</ele>
        <time>2012-03-04T09:30:17Z</time>
      </trkpt>
      <trkpt lat="45.70196" lon="6.57825">
        <ele>1367.13</ele>
        <time>2012-03-04T09:30:44Z</time>
      </trkpt>
      <trkpt lat="45.70196" lon="6.57825">
        <ele>1367.61</ele>
        <time>2012-03-04T09:30:45Z</time>
      </trkpt>
      <trkpt lat="45.70191" lon="6.57816">
        <ele>1369.05</ele>
        <time>2012-03-04T09:30:58Z</time>
      </trkpt>
      <trkpt lat="45.70194" lon="6.57799">
        <ele>1370.02</ele>
        <time>2012-03-04T09:31:18Z</time>
      </trkpt>
      <trkpt lat="45.70198" lon="6.57782">
        <ele>1371.46</ele>
        <time>2012-03-04T09:31:34Z</time>
      </trkpt>
      <trkpt lat="45.70197" lon="6.57779">
        <ele>1371.46</ele>
        <time>2012-03-04T09:31:41Z</time>
      </trkpt>
      <trkpt lat="45.70201" lon="6.57761">
        <ele>1373.38</ele>
        <time>2012-03-04T09:31:59Z</time>
      </trkpt>
      <trkpt lat="45.70203" lon="6.57752">
        <ele>1373.86</ele>
        <time>2012-03-04T09:32:07Z</time>
      </trkpt>
      <trkpt lat="45.70205" lon="6.57747">
        <ele>1373.86</ele>
        <time>2012-03-04T09:32:13Z</time>
      </trkpt>
      <trkpt lat="45.70205" lon="6.57741">
        <ele>1373.86</ele>
        <time>2012-03-04T09:32:17Z</time>
      </trkpt>
      <trkpt lat="45.70208" lon="6.57724">
        <ele>1374.82</ele>
        <time>2012-03-04T09:32:33Z</time>
      </trkpt>
      <trkpt lat="45.70207" lon="6.57711">
        <ele>1374.34</ele>
        <time>2012-03-04T09:32:50Z</time>
      </trkpt>
      <trkpt lat="45.70207" lon="6.57712">
        <ele>1374.82</ele>
        <time>2012-03-04T09:33:41Z</time>
      </trkpt>
      <trkpt lat="45.70206" lon="6.57722">
        <ele>1374.82</ele>
        <time>2012-03-04T09:34:06Z</time>
      </trkpt>
      <trkpt lat="45.70204" lon="6.57725">
        <ele>1375.3</ele>
        <time>2012-03-04T09:34:27Z</time>
      </trkpt>
      <trkpt lat="45.702" lon="6.57742">
        <ele>1376.75</ele>
        <time>2012-03-04T09:34:43Z</time>
      </trkpt>
      <trkpt lat="45.70199" lon="6.57748">
        <ele>1376.26</ele>
        <time>2012-03-04T09:34:47Z</time>
      </trkpt>
      <trkpt lat="45.70195" lon="6.57762">
        <ele>1377.71</ele>
        <time>2012-03-04T09:35:00Z</time>
      </trkpt>
      <trkpt lat="45.70189" lon="6.57775">
        <ele>1378.19</ele>
        <time>2012-03-04T09:35:15Z</time>
      </trkpt>
      <trkpt lat="45.70188" lon="6.57778">
        <ele>1378.67</ele>
        <time>2012-03-04T09:35:20Z</time>
      </trkpt>
      <trkpt lat="45.70183" lon="6.57786">
        <ele>1379.63</ele>
        <time>2012-03-04T09:35:35Z</time>
      </trkpt>
      <trkpt lat="45.7018" lon="6.5778">
        <ele>1380.59</ele>
        <time>2012-03-04T09:35:51Z</time>
      </trkpt>
      <trkpt lat="45.70181" lon="6.57771">
        <ele>1382.03</ele>
        <time>2012-03-04T09:36:10Z</time>
      </trkpt>
      <trkpt lat="45.7018" lon="6.5777">
        <ele>1383.96</ele>
        <time>2012-03-04T09:36:28Z</time>
      </trkpt>
      <trkpt lat="45.70177" lon="6.57774">
        <ele>1384.92</ele>
        <time>2012-03-04T09:36:45Z</time>
      </trkpt>
      <trkpt lat="45.7017" lon="6.57788">
        <ele>1386.36</ele>
        <time>2012-03-04T09:37:02Z</time>
      </trkpt>
      <trkpt lat="45.70167" lon="6.57799">
        <ele>1388.76</ele>
        <time>2012-03-04T09:37:18Z</time>
      </trkpt>
      <trkpt lat="45.70162" lon="6.57807">
        <ele>1389.24</ele>
        <time>2012-03-04T09:37:35Z</time>
      </trkpt>
      <trkpt lat="45.70152" lon="6.57818">
        <ele>1390.68</ele>
        <time>2012-03-04T09:37:53Z</time>
      </trkpt>
      <trkpt lat="45.70146" lon="6.57827">
        <ele>1392.61</ele>
        <time>2012-03-04T09:38:09Z</time>
      </trkpt>
      <trkpt lat="45.70141" lon="6.5784">
        <ele>1395.01</ele>
        <time>2012-03-04T09:38:24Z</time>
      </trkpt>
      <trkpt lat="45.70137" lon="6.57844">
        <ele>1396.45</ele>
        <time>2012-03-04T09:38:38Z</time>
      </trkpt>
      <trkpt lat="45.70136" lon="6.57842">
        <ele>1398.37</ele>
        <time>2012-03-04T09:39:02Z</time>
      </trkpt>
      <trkpt lat="45.70135" lon="6.57815">
        <ele>1400.3</ele>
        <time>2012-03-04T09:39:22Z</time>
      </trkpt>
      <trkpt lat="45.70135" lon="6.57804">
        <ele>1402.7</ele>
        <time>2012-03-04T09:39:45Z</time>
      </trkpt>
      <trkpt lat="45.70136" lon="6.57787">
        <ele>1404.14</ele>
        <time>2012-03-04T09:40:01Z</time>
      </trkpt>
      <trkpt lat="45.70136" lon="6.57779">
        <ele>1406.07</ele>
        <time>2012-03-04T09:40:18Z</time>
      </trkpt>
      <trkpt lat="45.70136" lon="6.5777">
        <ele>1406.07</ele>
        <time>2012-03-04T09:40:34Z</time>
      </trkpt>
      <trkpt lat="45.70138" lon="6.57758">
        <ele>1408.47</ele>
        <time>2012-03-04T09:40:54Z</time>
      </trkpt>
      <trkpt lat="45.70139" lon="6.57746">
        <ele>1408.95</ele>
        <time>2012-03-04T09:41:10Z</time>
      </trkpt>
      <trkpt lat="45.70143" lon="6.57734">
        <ele>1411.35</ele>
        <time>2012-03-04T09:41:30Z</time>
      </trkpt>
      <trkpt lat="45.70143" lon="6.57726">
        <ele>1411.83</ele>
        <time>2012-03-04T09:41:49Z</time>
      </trkpt>
      <trkpt lat="45.70136" lon="6.57724">
        <ele>1413.28</ele>
        <time>2012-03-04T09:42:11Z</time>
      </trkpt>
      <trkpt lat="45.70131" lon="6.57734">
        <ele>1415.2</ele>
        <time>2012-03-04T09:42:29Z</time>
      </trkpt>
      <trkpt lat="45.70127" lon="6.57741">
        <ele>1417.6</ele>
        <time>2012-03-04T09:42:45Z</time>
      </trkpt>
      <trkpt lat="45.7012" lon="6.57752">
        <ele>1419.04</ele>
        <time>2012-03-04T09:43:01Z</time>
      </trkpt>
      <trkpt lat="45.70116" lon="6.57758">
        <ele>1420.97</ele>
        <time>2012-03-04T09:43:16Z</time>
      </trkpt>
      <trkpt lat="45.70109" lon="6.57767">
        <ele>1422.41</ele>
        <time>2012-03-04T09:43:37Z</time>
      </trkpt>
      <trkpt lat="45.70108" lon="6.57771">
        <ele>1421.93</ele>
        <time>2012-03-04T09:43:56Z</time>
      </trkpt>
      <trkpt lat="45.70109" lon="6.57761">
        <ele>1422.89</ele>
        <time>2012-03-04T09:44:21Z</time>
      </trkpt>
      <trkpt lat="45.70109" lon="6.57759">
        <ele>1422.89</ele>
        <time>2012-03-04T09:45:02Z</time>
      </trkpt>
      <trkpt lat="45.70108" lon="6.57765">
        <ele>1422.41</ele>
        <time>2012-03-04T09:46:08Z</time>
      </trkpt>
      <trkpt lat="45.70107" lon="6.57768">
        <ele>1422.89</ele>
        <time>2012-03-04T09:46:41Z</time>
      </trkpt>
      <trkpt lat="45.70103" lon="6.57778">
        <ele>1424.33</ele>
        <time>2012-03-04T09:46:58Z</time>
      </trkpt>
      <trkpt lat="45.70098" lon="6.57789">
        <ele>1426.25</ele>
        <time>2012-03-04T09:47:13Z</time>
      </trkpt>
      <trkpt lat="45.70095" lon="6.57798">
        <ele>1427.21</ele>
        <time>2012-03-04T09:47:27Z</time>
      </trkpt>
      <trkpt lat="45.70091" lon="6.57807">
        <ele>1429.62</ele>
        <time>2012-03-04T09:47:41Z</time>
      </trkpt>
      <trkpt lat="45.70085" lon="6.57817">
        <ele>1430.1</ele>
        <time>2012-03-04T09:47:57Z</time>
      </trkpt>
      <trkpt lat="45.70079" lon="6.57824">
        <ele>1432.02</ele>
        <time>2012-03-04T09:48:14Z</time>
      </trkpt>
      <trkpt lat="45.70078" lon="6.57827">
        <ele>1432.98</ele>
        <time>2012-03-04T09:48:31Z</time>
      </trkpt>
      <trkpt lat="45.70072" lon="6.57841">
        <ele>1434.42</ele>
        <time>2012-03-04T09:48:49Z</time>
      </trkpt>
      <trkpt lat="45.70069" lon="6.57851">
        <ele>1435.87</ele>
        <time>2012-03-04T09:49:03Z</time>
      </trkpt>
      <trkpt lat="45.70066" lon="6.57862">
        <ele>1437.31</ele>
        <time>2012-03-04T09:49:18Z</time>
      </trkpt>
      <trkpt lat="45.70057" lon="6.57875">
        <ele>1439.71</ele>
        <time>2012-03-04T09:49:37Z</time>
      </trkpt>
      <trkpt lat="45.70052" lon="6.57884">
        <ele>1441.63</ele>
        <time>2012-03-04T09:49:55Z</time>
      </trkpt>
      <trkpt lat="45.7005" lon="6.57888">
        <ele>1443.08</ele>
        <time>2012-03-04T09:50:12Z</time>
      </trkpt>
      <trkpt lat="45.70049" lon="6.57891">
        <ele>1444.04</ele>
        <time>2012-03-04T09:50:30Z</time>
      </trkpt>
      <trkpt lat="45.70042" lon="6.57905">
        <ele>1446.44</ele>
        <time>2012-03-04T09:50:49Z</time>
      </trkpt>
      <trkpt lat="45.70038" lon="6.57912">
        <ele>1445.96</ele>
        <time>2012-03-04T09:51:06Z</time>
      </trkpt>
      <trkpt lat="45.70033" lon="6.57921">
        <ele>1447.88</ele>
        <time>2012-03-04T09:51:26Z</time>
      </trkpt>
      <trkpt lat="45.70027" lon="6.57932">
        <ele>1449.81</ele>
        <time>2012-03-04T09:51:46Z</time>
      </trkpt>
      <trkpt lat="45.70024" lon="6.57939">
        <ele>1451.73</ele>
        <time>2012-03-04T09:52:02Z</time>
      </trkpt>
      <trkpt lat="45.70022" lon="6.57944">
        <ele>1453.17</ele>
        <time>2012-03-04T09:52:44Z</time>
      </trkpt>
      <trkpt lat="45.70019" lon="6.57951">
        <ele>1455.09</ele>
        <time>2012-03-04T09:53:01Z</time>
      </trkpt>
      <trkpt lat="45.70016" lon="6.57957">
        <ele>1456.53</ele>
        <time>2012-03-04T09:53:20Z</time>
      </trkpt>
      <trkpt lat="45.70012" lon="6.57962">
        <ele>1457.5</ele>
        <time>2012-03-04T09:53:34Z</time>
      </trkpt>
      <trkpt lat="45.70009" lon="6.57964">
        <ele>1458.46</ele>
        <time>2012-03-04T09:53:56Z</time>
      </trkpt>
      <trkpt lat="45.70004" lon="6.57973">
        <ele>1460.38</ele>
        <time>2012-03-04T09:54:21Z</time>
      </trkpt>
      <trkpt lat="45.70001" lon="6.57988">
        <ele>1462.78</ele>
        <time>2012-03-04T09:54:40Z</time>
      </trkpt>
      <trkpt lat="45.69998" lon="6.57992">
        <ele>1463.26</ele>
        <time>2012-03-04T09:54:59Z</time>
      </trkpt>
      <trkpt lat="45.69995" lon="6.57974">
        <ele>1465.67</ele>
        <time>2012-03-04T09:55:18Z</time>
      </trkpt>
      <trkpt lat="45.69997" lon="6.5797">
        <ele>1468.07</ele>
        <time>2012-03-04T09:55:42Z</time>
      </trkpt>
      <trkpt lat="45.69993" lon="6.57972">
        <ele>1468.55</ele>
        <time>2012-03-04T09:56:53Z</time>
      </trkpt>
      <trkpt lat="45.69989" lon="6.57974">
        <ele>1469.03</ele>
        <time>2012-03-04T09:57:17Z</time>
      </trkpt>
      <trkpt lat="45.69979" lon="6.57978">
        <ele>1469.03</ele>
        <time>2012-03-04T09:57:52Z</time>
      </trkpt>
      <trkpt lat="45.69968" lon="6.57987">
        <ele>1470.95</ele>
        <time>2012-03-04T09:58:10Z</time>
      </trkpt>
      <trkpt lat="45.69963" lon="6.57979">
        <ele>1471.92</ele>
        <time>2012-03-04T09:58:27Z</time>
      </trkpt>
      <trkpt lat="45.69963" lon="6.57966">
        <ele>1474.32</ele>
        <time>2012-03-04T09:58:46Z</time>
      </trkpt>
      <trkpt lat="45.69961" lon="6.57956">
        <ele>1475.76</ele>
        <time>2012-03-04T09:58:59Z</time>
      </trkpt>
      <trkpt lat="45.69961" lon="6.57956">
        <ele>1472.88</ele>
        <time>2012-03-04T09:59:17Z</time>
      </trkpt>
      <trkpt lat="45.69961" lon="6.57956">
        <ele>1476.24</ele>
        <time>2012-03-04T09:59:18Z</time>
      </trkpt>
      <trkpt lat="45.69967" lon="6.5795">
        <ele>1477.2</ele>
        <time>2012-03-04T09:59:49Z</time>
      </trkpt>
      <trkpt lat="45.69968" lon="6.5795">
        <ele>1476.24</ele>
        <time>2012-03-04T09:59:55Z</time>
      </trkpt>
      <trkpt lat="45.69968" lon="6.5795">
        <ele>1472.88</ele>
        <time>2012-03-04T09:59:59Z</time>
      </trkpt>
      <trkpt lat="45.69968" lon="6.5795">
        <ele>1476.72</ele>
        <time>2012-03-04T10:00:01Z</time>
      </trkpt>
      <trkpt lat="45.69968" lon="6.5795">
        <ele>1476.72</ele>
        <time>2012-03-04T10:00:02Z</time>
      </trkpt>
      <trkpt lat="45.69969" lon="6.5795">
        <ele>1477.2</ele>
        <time>2012-03-04T10:00:47Z</time>
      </trkpt>
      <trkpt lat="45.69969" lon="6.5795">
        <ele>1477.2</ele>
        <time>2012-03-04T10:01:28Z</time>
      </trkpt>
      <trkpt lat="45.69964" lon="6.57953">
        <ele>1478.65</ele>
        <time>2012-03-04T10:01:57Z</time>
      </trkpt>
      <trkpt lat="45.69955" lon="6.5795">
        <ele>1480.57</ele>
        <time>2012-03-04T10:02:12Z</time>
      </trkpt>
      <trkpt lat="45.69955" lon="6.57943">
        <ele>1482.49</ele>
        <time>2012-03-04T10:02:32Z</time>
      </trkpt>
      <trkpt lat="45.69956" lon="6.5794">
        <ele>1484.89</ele>
        <time>2012-03-04T10:02:55Z</time>
      </trkpt>
      <trkpt lat="45.69956" lon="6.5794">
        <ele>1486.34</ele>
        <time>2012-03-04T10:03:15Z</time>
      </trkpt>
      <trkpt lat="45.69961" lon="6.57931">
        <ele>1487.78</ele>
        <time>2012-03-04T10:03:33Z</time>
      </trkpt>
      <trkpt lat="45.69964" lon="6.57926">
        <ele>1489.22</ele>
        <time>2012-03-04T10:04:18Z</time>
      </trkpt>
      <trkpt lat="45.6996" lon="6.57919">
        <ele>1490.18</ele>
        <time>2012-03-04T10:04:51Z</time>
      </trkpt>
      <trkpt lat="45.69953" lon="6.57916">
        <ele>1491.14</ele>
        <time>2012-03-04T10:05:12Z</time>
      </trkpt>
      <trkpt lat="45.69947" lon="6.57916">
        <ele>1492.58</ele>
        <time>2012-03-04T10:05:29Z</time>
      </trkpt>
      <trkpt lat="45.6994" lon="6.57917">
        <ele>1494.03</ele>
        <time>2012-03-04T10:05:49Z</time>
      </trkpt>
      <trkpt lat="45.69941" lon="6.57911">
        <ele>1495.47</ele>
        <time>2012-03-04T10:06:08Z</time>
      </trkpt>
      <trkpt lat="45.69943" lon="6.57909">
        <ele>1497.39</ele>
        <time>2012-03-04T10:06:28Z</time>
      </trkpt>
      <trkpt lat="45.69951" lon="6.57896">
        <ele>1498.35</ele>
        <time>2012-03-04T10:06:47Z</time>
      </trkpt>
      <trkpt lat="45.69959" lon="6.57887">
        <ele>1500.76</ele>
        <time>2012-03-04T10:07:08Z</time>
      </trkpt>
      <trkpt lat="45.6996" lon="6.57884">
        <ele>1500.27</ele>
        <time>2012-03-04T10:07:51Z</time>
      </trkpt>
      <trkpt lat="45.69959" lon="6.57886">
        <ele>1503.16</ele>
        <time>2012-03-04T10:08:30Z</time>
      </trkpt>
      <trkpt lat="45.69957" lon="6.57885">
        <ele>1504.12</ele>
        <time>2012-03-04T10:08:51Z</time>
      </trkpt>
      <trkpt lat="45.69951" lon="6.57886">
        <ele>1504.6</ele>
        <time>2012-03-04T10:09:06Z</time>
      </trkpt>
      <trkpt lat="45.69949" lon="6.57884">
        <ele>1506.52</ele>
        <time>2012-03-04T10:09:21Z</time>
      </trkpt>
      <trkpt lat="45.6995" lon="6.57881">
        <ele>1507</ele>
        <time>2012-03-04T10:09:38Z</time>
      </trkpt>
      <trkpt lat="45.69958" lon="6.57868">
        <ele>1508.93</ele>
        <time>2012-03-04T10:10:11Z</time>
      </trkpt>
      <trkpt lat="45.69957" lon="6.57866">
        <ele>1510.85</ele>
        <time>2012-03-04T10:10:37Z</time>
      </trkpt>
      <trkpt lat="45.69952" lon="6.57866">
        <ele>1511.33</ele>
        <time>2012-03-04T10:10:47Z</time>
      </trkpt>
      <trkpt lat="45.69945" lon="6.57867">
        <ele>1512.29</ele>
        <time>2012-03-04T10:11:04Z</time>
      </trkpt>
      <trkpt lat="45.69946" lon="6.57867">
        <ele>1512.77</ele>
        <time>2012-03-04T10:11:30Z</time>
      </trkpt>
      <trkpt lat="45.69944" lon="6.57863">
        <ele>1512.29</ele>
        <time>2012-03-04T10:12:43Z</time>
      </trkpt>
      <trkpt lat="45.69937" lon="6.57871">
        <ele>1513.25</ele>
        <time>2012-03-04T10:13:37Z</time>
      </trkpt>
      <trkpt lat="45.69929" lon="6.57879">
        <ele>1514.69</ele>
        <time>2012-03-04T10:13:52Z</time>
      </trkpt>
      <trkpt lat="45.69924" lon="6.57883">
        <ele>1515.18</ele>
        <time>2012-03-04T10:14:08Z</time>
      </trkpt>
      <trkpt lat="45.69917" lon="6.57889">
        <ele>1516.62</ele>
        <time>2012-03-04T10:14:23Z</time>
      </trkpt>
      <trkpt lat="45.69912" lon="6.57892">
        <ele>1517.58</ele>
        <time>2012-03-04T10:14:38Z</time>
      </trkpt>
      <trkpt lat="45.69909" lon="6.57893">
        <ele>1517.58</ele>
        <time>2012-03-04T10:14:43Z</time>
      </trkpt>
      <trkpt lat="45.69903" lon="6.57894">
        <ele>1518.54</ele>
        <time>2012-03-04T10:14:51Z</time>
      </trkpt>
      <trkpt lat="45.69895" lon="6.57903">
        <ele>1519.98</ele>
        <time>2012-03-04T10:15:07Z</time>
      </trkpt>
      <trkpt lat="45.69888" lon="6.57912">
        <ele>1520.46</ele>
        <time>2012-03-04T10:15:21Z</time>
      </trkpt>
      <trkpt lat="45.69885" lon="6.5792">
        <ele>1521.42</ele>
        <time>2012-03-04T10:15:29Z</time>
      </trkpt>
      <trkpt lat="45.69882" lon="6.57937">
        <ele>1522.87</ele>
        <time>2012-03-04T10:15:46Z</time>
      </trkpt>
      <trkpt lat="45.6988" lon="6.57947">
        <ele>1524.79</ele>
        <time>2012-03-04T10:16:03Z</time>
      </trkpt>
      <trkpt lat="45.69872" lon="6.57954">
        <ele>1526.23</ele>
        <time>2012-03-04T10:16:20Z</time>
      </trkpt>
      <trkpt lat="45.6987" lon="6.57942">
        <ele>1527.19</ele>
        <time>2012-03-04T10:16:33Z</time>
      </trkpt>
      <trkpt lat="45.69865" lon="6.57931">
        <ele>1528.15</ele>
        <time>2012-03-04T10:16:51Z</time>
      </trkpt>
      <trkpt lat="45.69861" lon="6.57932">
        <ele>1530.08</ele>
        <time>2012-03-04T10:17:03Z</time>
      </trkpt>
      <trkpt lat="45.69859" lon="6.57936">
        <ele>1531.04</ele>
        <time>2012-03-04T10:17:20Z</time>
      </trkpt>
      <trkpt lat="45.69855" lon="6.57932">
        <ele>1532.48</ele>
        <time>2012-03-04T10:17:40Z</time>
      </trkpt>
      <trkpt lat="45.69855" lon="6.57932">
        <ele>1535.84</ele>
        <time>2012-03-04T10:18:03Z</time>
      </trkpt>
      <trkpt lat="45.69855" lon="6.57931">
        <ele>1536.8</ele>
        <time>2012-03-04T10:18:24Z</time>
      </trkpt>
      <trkpt lat="45.69855" lon="6.57931">
        <ele>1538.73</ele>
        <time>2012-03-04T10:18:46Z</time>
      </trkpt>
      <trkpt lat="45.69853" lon="6.57932">
        <ele>1541.13</ele>
        <time>2012-03-04T10:19:07Z</time>
      </trkpt>
      <trkpt lat="45.6985" lon="6.57934">
        <ele>1542.57</ele>
        <time>2012-03-04T10:19:28Z</time>
      </trkpt>
      <trkpt lat="45.69849" lon="6.57934">
        <ele>1544.98</ele>
        <time>2012-03-04T10:20:02Z</time>
      </trkpt>
      <trkpt lat="45.69846" lon="6.57936">
        <ele>1546.9</ele>
        <time>2012-03-04T10:20:21Z</time>
      </trkpt>
      <trkpt lat="45.69846" lon="6.57936">
        <ele>1548.34</ele>
        <time>2012-03-04T10:20:45Z</time>
      </trkpt>
      <trkpt lat="45.69835" lon="6.57949">
        <ele>1548.34</ele>
        <time>2012-03-04T10:21:26Z</time>
      </trkpt>
      <trkpt lat="45.69824" lon="6.57955">
        <ele>1549.3</ele>
        <time>2012-03-04T10:22:17Z</time>
      </trkpt>
      <trkpt lat="45.69814" lon="6.5796">
        <ele>1550.74</ele>
        <time>2012-03-04T10:22:37Z</time>
      </trkpt>
      <trkpt lat="45.69808" lon="6.57962">
        <ele>1553.15</ele>
        <time>2012-03-04T10:22:59Z</time>
      </trkpt>
      <trkpt lat="45.69801" lon="6.57966">
        <ele>1554.11</ele>
        <time>2012-03-04T10:23:15Z</time>
      </trkpt>
      <trkpt lat="45.69803" lon="6.57969">
        <ele>1555.55</ele>
        <time>2012-03-04T10:23:36Z</time>
      </trkpt>
      <trkpt lat="45.6981" lon="6.57974">
        <ele>1557.95</ele>
        <time>2012-03-04T10:23:54Z</time>
      </trkpt>
      <trkpt lat="45.69807" lon="6.5798">
        <ele>1558.43</ele>
        <time>2012-03-04T10:24:20Z</time>
      </trkpt>
      <trkpt lat="45.69805" lon="6.57986">
        <ele>1560.84</ele>
        <time>2012-03-04T10:24:42Z</time>
      </trkpt>
      <trkpt lat="45.69805" lon="6.57986">
        <ele>1557.95</ele>
        <time>2012-03-04T10:25:12Z</time>
      </trkpt>
      <trkpt lat="45.69805" lon="6.57986">
        <ele>1562.28</ele>
        <time>2012-03-04T10:25:13Z</time>
      </trkpt>
      <trkpt lat="45.69803" lon="6.57998">
        <ele>1564.2</ele>
        <time>2012-03-04T10:25:36Z</time>
      </trkpt>
      <trkpt lat="45.69795" lon="6.58014">
        <ele>1566.61</ele>
        <time>2012-03-04T10:25:54Z</time>
      </trkpt>
      <trkpt lat="45.6979" lon="6.58021">
        <ele>1568.05</ele>
        <time>2012-03-04T10:26:09Z</time>
      </trkpt>
      <trkpt lat="45.69786" lon="6.58029">
        <ele>1570.45</ele>
        <time>2012-03-04T10:26:49Z</time>
      </trkpt>
      <trkpt lat="45.69781" lon="6.58022">
        <ele>1571.41</ele>
        <time>2012-03-04T10:27:05Z</time>
      </trkpt>
      <trkpt lat="45.69779" lon="6.58029">
        <ele>1573.33</ele>
        <time>2012-03-04T10:28:15Z</time>
      </trkpt>
      <trkpt lat="45.69778" lon="6.58037">
        <ele>1574.3</ele>
        <time>2012-03-04T10:28:35Z</time>
      </trkpt>
      <trkpt lat="45.69774" lon="6.58047">
        <ele>1575.74</ele>
        <time>2012-03-04T10:28:51Z</time>
      </trkpt>
      <trkpt lat="45.69771" lon="6.5805">
        <ele>1578.62</ele>
        <time>2012-03-04T10:29:14Z</time>
      </trkpt>
      <trkpt lat="45.69767" lon="6.58059">
        <ele>1579.58</ele>
        <time>2012-03-04T10:29:40Z</time>
      </trkpt>
      <trkpt lat="45.69762" lon="6.58072">
        <ele>1579.58</ele>
        <time>2012-03-04T10:29:57Z</time>
      </trkpt>
      <trkpt lat="45.69755" lon="6.58088">
        <ele>1580.54</ele>
        <time>2012-03-04T10:30:16Z</time>
      </trkpt>
      <trkpt lat="45.69752" lon="6.58093">
        <ele>1577.66</ele>
        <time>2012-03-04T10:30:28Z</time>
      </trkpt>
      <trkpt lat="45.69752" lon="6.58094">
        <ele>1581.03</ele>
        <time>2012-03-04T10:30:29Z</time>
      </trkpt>
      <trkpt lat="45.69752" lon="6.581">
        <ele>1580.54</ele>
        <time>2012-03-04T10:30:50Z</time>
      </trkpt>
      <trkpt lat="45.69745" lon="6.58114">
        <ele>1582.95</ele>
        <time>2012-03-04T10:31:11Z</time>
      </trkpt>
      <trkpt lat="45.69746" lon="6.58117">
        <ele>1581.03</ele>
        <time>2012-03-04T10:31:14Z</time>
      </trkpt>
      <trkpt lat="45.69746" lon="6.58118">
        <ele>1583.43</ele>
        <time>2012-03-04T10:31:16Z</time>
      </trkpt>
      <trkpt lat="45.69748" lon="6.58121">
        <ele>1585.35</ele>
        <time>2012-03-04T10:31:39Z</time>
      </trkpt>
      <trkpt lat="45.69748" lon="6.58121">
        <ele>1584.39</ele>
        <time>2012-03-04T10:32:26Z</time>
      </trkpt>
      <trkpt lat="45.69748" lon="6.58121">
        <ele>1584.87</ele>
        <time>2012-03-04T10:34:12Z</time>
      </trkpt>
      <trkpt lat="45.69748" lon="6.5812">
        <ele>1586.31</ele>
        <time>2012-03-04T10:34:33Z</time>
      </trkpt>
      <trkpt lat="45.69751" lon="6.58126">
        <ele>1586.79</ele>
        <time>2012-03-04T10:35:18Z</time>
      </trkpt>
      <trkpt lat="45.69748" lon="6.58141">
        <ele>1588.24</ele>
        <time>2012-03-04T10:35:34Z</time>
      </trkpt>
      <trkpt lat="45.69745" lon="6.58144">
        <ele>1588.72</ele>
        <time>2012-03-04T10:35:40Z</time>
      </trkpt>
      <trkpt lat="45.69736" lon="6.58151">
        <ele>1590.16</ele>
        <time>2012-03-04T10:35:58Z</time>
      </trkpt>
      <trkpt lat="45.6973" lon="6.58156">
        <ele>1591.6</ele>
        <time>2012-03-04T10:36:15Z</time>
      </trkpt>
      <trkpt lat="45.69722" lon="6.58164">
        <ele>1593.04</ele>
        <time>2012-03-04T10:36:33Z</time>
      </trkpt>
      <trkpt lat="45.6972" lon="6.58171">
        <ele>1594.96</ele>
        <time>2012-03-04T10:36:54Z</time>
      </trkpt>
      <trkpt lat="45.69716" lon="6.58177">
        <ele>1596.41</ele>
        <time>2012-03-04T10:37:12Z</time>
      </trkpt>
      <trkpt lat="45.6971" lon="6.58188">
        <ele>1597.85</ele>
        <time>2012-03-04T10:37:31Z</time>
      </trkpt>
      <trkpt lat="45.69709" lon="6.58189">
        <ele>1598.33</ele>
        <time>2012-03-04T10:37:57Z</time>
      </trkpt>
      <trkpt lat="45.69707" lon="6.58193">
        <ele>1598.81</ele>
        <time>2012-03-04T10:38:18Z</time>
      </trkpt>
      <trkpt lat="45.69707" lon="6.58197">
        <ele>1600.73</ele>
        <time>2012-03-04T10:38:32Z</time>
      </trkpt>
      <trkpt lat="45.69705" lon="6.58214">
        <ele>1603.62</ele>
        <time>2012-03-04T10:38:53Z</time>
      </trkpt>
      <trkpt lat="45.69703" lon="6.58221">
        <ele>1606.98</ele>
        <time>2012-03-04T10:39:15Z</time>
      </trkpt>
      <trkpt lat="45.69705" lon="6.58234">
        <ele>1608.42</ele>
        <time>2012-03-04T10:39:53Z</time>
      </trkpt>
      <trkpt lat="45.69711" lon="6.58241">
        <ele>1609.86</ele>
        <time>2012-03-04T10:40:08Z</time>
      </trkpt>
      <trkpt lat="45.69714" lon="6.58252">
        <ele>1611.79</ele>
        <time>2012-03-04T10:40:26Z</time>
      </trkpt>
      <trkpt lat="45.69711" lon="6.58254">
        <ele>1612.27</ele>
        <time>2012-03-04T10:40:56Z</time>
      </trkpt>
      <trkpt lat="45.69699" lon="6.5826">
        <ele>1614.19</ele>
        <time>2012-03-04T10:41:55Z</time>
      </trkpt>
      <trkpt lat="45.69692" lon="6.58268">
        <ele>1615.63</ele>
        <time>2012-03-04T10:42:11Z</time>
      </trkpt>
      <trkpt lat="45.6969" lon="6.58273">
        <ele>1616.59</ele>
        <time>2012-03-04T10:42:29Z</time>
      </trkpt>
      <trkpt lat="45.69687" lon="6.58279">
        <ele>1617.56</ele>
        <time>2012-03-04T10:42:44Z</time>
      </trkpt>
      <trkpt lat="45.69686" lon="6.58284">
        <ele>1619.48</ele>
        <time>2012-03-04T10:42:59Z</time>
      </trkpt>
      <trkpt lat="45.69681" lon="6.58297">
        <ele>1620.44</ele>
        <time>2012-03-04T10:43:17Z</time>
      </trkpt>
      <trkpt lat="45.69677" lon="6.5831">
        <ele>1622.36</ele>
        <time>2012-03-04T10:43:34Z</time>
      </trkpt>
      <trkpt lat="45.69676" lon="6.58315">
        <ele>1623.32</ele>
        <time>2012-03-04T10:43:48Z</time>
      </trkpt>
      <trkpt lat="45.69675" lon="6.58322">
        <ele>1625.25</ele>
        <time>2012-03-04T10:44:10Z</time>
      </trkpt>
      <trkpt lat="45.69671" lon="6.58325">
        <ele>1627.17</ele>
        <time>2012-03-04T10:44:28Z</time>
      </trkpt>
      <trkpt lat="45.69666" lon="6.58333">
        <ele>1628.13</ele>
        <time>2012-03-04T10:44:45Z</time>
      </trkpt>
      <trkpt lat="45.69664" lon="6.58334">
        <ele>1629.57</ele>
        <time>2012-03-04T10:45:04Z</time>
      </trkpt>
      <trkpt lat="45.69663" lon="6.58334">
        <ele>1630.53</ele>
        <time>2012-03-04T10:45:36Z</time>
      </trkpt>
      <trkpt lat="45.69659" lon="6.58344">
        <ele>1632.46</ele>
        <time>2012-03-04T10:45:57Z</time>
      </trkpt>
      <trkpt lat="45.69656" lon="6.58347">
        <ele>1633.9</ele>
        <time>2012-03-04T10:46:28Z</time>
      </trkpt>
      <trkpt lat="45.6965" lon="6.58352">
        <ele>1635.82</ele>
        <time>2012-03-04T10:46:46Z</time>
      </trkpt>
      <trkpt lat="45.69643" lon="6.58359">
        <ele>1636.78</ele>
        <time>2012-03-04T10:47:04Z</time>
      </trkpt>
      <trkpt lat="45.6964" lon="6.58361">
        <ele>1638.22</ele>
        <time>2012-03-04T10:47:28Z</time>
      </trkpt>
      <trkpt lat="45.6964" lon="6.58362">
        <ele>1638.7</ele>
        <time>2012-03-04T10:48:38Z</time>
      </trkpt>
      <trkpt lat="45.6964" lon="6.58362">
        <ele>1638.7</ele>
        <time>2012-03-04T10:49:30Z</time>
      </trkpt>
      <trkpt lat="45.6964" lon="6.58362">
        <ele>1639.67</ele>
        <time>2012-03-04T10:49:47Z</time>
      </trkpt>
      <trkpt lat="45.69631" lon="6.58373">
        <ele>1640.15</ele>
        <time>2012-03-04T10:50:04Z</time>
      </trkpt>
      <trkpt lat="45.69627" lon="6.58378">
        <ele>1641.11</ele>
        <time>2012-03-04T10:50:24Z</time>
      </trkpt>
      <trkpt lat="45.69623" lon="6.58389">
        <ele>1642.55</ele>
        <time>2012-03-04T10:50:42Z</time>
      </trkpt>
      <trkpt lat="45.69621" lon="6.58395">
        <ele>1644.47</ele>
        <time>2012-03-04T10:51:00Z</time>
      </trkpt>
      <trkpt lat="45.69617" lon="6.58417">
        <ele>1645.43</ele>
        <time>2012-03-04T10:51:16Z</time>
      </trkpt>
      <trkpt lat="45.69618" lon="6.58426">
        <ele>1646.88</ele>
        <time>2012-03-04T10:51:37Z</time>
      </trkpt>
      <trkpt lat="45.69618" lon="6.58429">
        <ele>1647.84</ele>
        <time>2012-03-04T10:51:55Z</time>
      </trkpt>
      <trkpt lat="45.69616" lon="6.58439">
        <ele>1648.32</ele>
        <time>2012-03-04T10:52:06Z</time>
      </trkpt>
      <trkpt lat="45.69614" lon="6.58445">
        <ele>1649.76</ele>
        <time>2012-03-04T10:52:24Z</time>
      </trkpt>
      <trkpt lat="45.6961" lon="6.58455">
        <ele>1652.16</ele>
        <time>2012-03-04T10:52:43Z</time>
      </trkpt>
      <trkpt lat="45.69606" lon="6.58467">
        <ele>1653.12</ele>
        <time>2012-03-04T10:52:57Z</time>
      </trkpt>
      <trkpt lat="45.69603" lon="6.58474">
        <ele>1655.53</ele>
        <time>2012-03-04T10:53:19Z</time>
      </trkpt>
      <trkpt lat="45.696" lon="6.58475">
        <ele>1656.49</ele>
        <time>2012-03-04T10:53:43Z</time>
      </trkpt>
      <trkpt lat="45.696" lon="6.58476">
        <ele>1656.49</ele>
        <time>2012-03-04T10:54:54Z</time>
      </trkpt>
      <trkpt lat="45.69597" lon="6.58485">
        <ele>1656.97</ele>
        <time>2012-03-04T10:55:53Z</time>
      </trkpt>
      <trkpt lat="45.69593" lon="6.58489">
        <ele>1659.85</ele>
        <time>2012-03-04T10:56:16Z</time>
      </trkpt>
      <trkpt lat="45.69589" lon="6.58492">
        <ele>1661.3</ele>
        <time>2012-03-04T10:56:42Z</time>
      </trkpt>
      <trkpt lat="45.69587" lon="6.58497">
        <ele>1662.26</ele>
        <time>2012-03-04T10:57:04Z</time>
      </trkpt>
      <trkpt lat="45.69583" lon="6.58495">
        <ele>1663.7</ele>
        <time>2012-03-04T10:57:22Z</time>
      </trkpt>
      <trkpt lat="45.69578" lon="6.58493">
        <ele>1665.14</ele>
        <time>2012-03-04T10:57:43Z</time>
      </trkpt>
      <trkpt lat="45.69574" lon="6.58497">
        <ele>1665.62</ele>
        <time>2012-03-04T10:57:52Z</time>
      </trkpt>
      <trkpt lat="45.69572" lon="6.58499">
        <ele>1667.06</ele>
        <time>2012-03-04T10:58:13Z</time>
      </trkpt>
      <trkpt lat="45.69571" lon="6.58499">
        <ele>1668.51</ele>
        <time>2012-03-04T10:58:37Z</time>
      </trkpt>
      <trkpt lat="45.69571" lon="6.58499">
        <ele>1669.95</ele>
        <time>2012-03-04T10:59:02Z</time>
      </trkpt>
      <trkpt lat="45.69562" lon="6.58508">
        <ele>1670.91</ele>
        <time>2012-03-04T10:59:19Z</time>
      </trkpt>
      <trkpt lat="45.69562" lon="6.58508">
        <ele>1672.35</ele>
        <time>2012-03-04T11:00:19Z</time>
      </trkpt>
      <trkpt lat="45.69559" lon="6.58511">
        <ele>1673.31</ele>
        <time>2012-03-04T11:00:35Z</time>
      </trkpt>
      <trkpt lat="45.69556" lon="6.58518">
        <ele>1675.72</ele>
        <time>2012-03-04T11:00:51Z</time>
      </trkpt>
      <trkpt lat="45.69545" lon="6.58516">
        <ele>1677.16</ele>
        <time>2012-03-04T11:01:10Z</time>
      </trkpt>
      <trkpt lat="45.69545" lon="6.58505">
        <ele>1678.12</ele>
        <time>2012-03-04T11:01:27Z</time>
      </trkpt>
      <trkpt lat="45.69545" lon="6.58505">
        <ele>1679.08</ele>
        <time>2012-03-04T11:01:56Z</time>
      </trkpt>
      <trkpt lat="45.69544" lon="6.58502">
        <ele>1679.56</ele>
        <time>2012-03-04T11:02:22Z</time>
      </trkpt>
      <trkpt lat="45.69542" lon="6.58495">
        <ele>1681.48</ele>
        <time>2012-03-04T11:02:35Z</time>
      </trkpt>
      <trkpt lat="45.69542" lon="6.58489">
        <ele>1682.93</ele>
        <time>2012-03-04T11:02:51Z</time>
      </trkpt>
      <trkpt lat="45.69543" lon="6.58474">
        <ele>1684.85</ele>
        <time>2012-03-04T11:03:12Z</time>
      </trkpt>
      <trkpt lat="45.69544" lon="6.58473">
        <ele>1685.33</ele>
        <time>2012-03-04T11:03:41Z</time>
      </trkpt>
      <trkpt lat="45.69546" lon="6.58474">
        <ele>1685.33</ele>
        <time>2012-03-04T11:04:38Z</time>
      </trkpt>
      <trkpt lat="45.69545" lon="6.58473">
        <ele>1687.73</ele>
        <time>2012-03-04T11:05:03Z</time>
      </trkpt>
      <trkpt lat="45.69544" lon="6.58472">
        <ele>1689.65</ele>
        <time>2012-03-04T11:05:37Z</time>
      </trkpt>
      <trkpt lat="45.69542" lon="6.58466">
        <ele>1689.65</ele>
        <time>2012-03-04T11:06:24Z</time>
      </trkpt>
      <trkpt lat="45.69541" lon="6.58464">
        <ele>1690.62</ele>
        <time>2012-03-04T11:06:45Z</time>
      </trkpt>
      <trkpt lat="45.6954" lon="6.58464">
        <ele>1692.06</ele>
        <time>2012-03-04T11:07:07Z</time>
      </trkpt>
      <trkpt lat="45.69539" lon="6.58464">
        <ele>1692.54</ele>
        <time>2012-03-04T11:07:51Z</time>
      </trkpt>
      <trkpt lat="45.69533" lon="6.58471">
        <ele>1694.46</ele>
        <time>2012-03-04T11:08:07Z</time>
      </trkpt>
      <trkpt lat="45.69531" lon="6.58474">
        <ele>1694.94</ele>
        <time>2012-03-04T11:08:20Z</time>
      </trkpt>
      <trkpt lat="45.69528" lon="6.58476">
        <ele>1696.86</ele>
        <time>2012-03-04T11:08:38Z</time>
      </trkpt>
      <trkpt lat="45.69527" lon="6.58477">
        <ele>1697.83</ele>
        <time>2012-03-04T11:08:49Z</time>
      </trkpt>
      <trkpt lat="45.69526" lon="6.5848">
        <ele>1699.27</ele>
        <time>2012-03-04T11:09:09Z</time>
      </trkpt>
      <trkpt lat="45.69521" lon="6.58476">
        <ele>1701.19</ele>
        <time>2012-03-04T11:09:27Z</time>
      </trkpt>
      <trkpt lat="45.69518" lon="6.58475">
        <ele>1703.59</ele>
        <time>2012-03-04T11:10:09Z</time>
      </trkpt>
      <trkpt lat="45.69512" lon="6.58484">
        <ele>1705.52</ele>
        <time>2012-03-04T11:10:51Z</time>
      </trkpt>
      <trkpt lat="45.69511" lon="6.58494">
        <ele>1706.96</ele>
        <time>2012-03-04T11:11:09Z</time>
      </trkpt>
      <trkpt lat="45.69509" lon="6.58498">
        <ele>1707.92</ele>
        <time>2012-03-04T11:11:21Z</time>
      </trkpt>
      <trkpt lat="45.69509" lon="6.585">
        <ele>1706.96</ele>
        <time>2012-03-04T11:12:04Z</time>
      </trkpt>
      <trkpt lat="45.69507" lon="6.58502">
        <ele>1706.96</ele>
        <time>2012-03-04T11:12:21Z</time>
      </trkpt>
      <trkpt lat="45.69507" lon="6.58502">
        <ele>1706.48</ele>
        <time>2012-03-04T11:12:58Z</time>
      </trkpt>
      <trkpt lat="45.69507" lon="6.58502">
        <ele>1705.52</ele>
        <time>2012-03-04T11:13:12Z</time>
      </trkpt>
      <trkpt lat="45.69508" lon="6.58502">
        <ele>1702.15</ele>
        <time>2012-03-04T11:14:05Z</time>
      </trkpt>
      <trkpt lat="45.69508" lon="6.58502">
        <ele>1706.48</ele>
        <time>2012-03-04T11:14:06Z</time>
      </trkpt>
      <trkpt lat="45.69508" lon="6.58502">
        <ele>1701.67</ele>
        <time>2012-03-04T11:14:09Z</time>
      </trkpt>
      <trkpt lat="45.69508" lon="6.58502">
        <ele>1706.96</ele>
        <time>2012-03-04T11:14:10Z</time>
      </trkpt>
      <trkpt lat="45.69508" lon="6.58502">
        <ele>1702.15</ele>
        <time>2012-03-04T11:14:19Z</time>
      </trkpt>
      <trkpt lat="45.69508" lon="6.58502">
        <ele>1706.48</ele>
        <time>2012-03-04T11:14:20Z</time>
      </trkpt>
      <trkpt lat="45.69508" lon="6.58502">
        <ele>1702.63</ele>
        <time>2012-03-04T11:14:30Z</time>
      </trkpt>
      <trkpt lat="45.69508" lon="6.58501">
        <ele>1706.48</ele>
        <time>2012-03-04T11:14:31Z</time>
      </trkpt>
      <trkpt lat="45.69508" lon="6.58501">
        <ele>1701.19</ele>
        <time>2012-03-04T11:14:33Z</time>
      </trkpt>
      <trkpt lat="45.69508" lon="6.58501">
        <ele>1706.48</ele>
        <time>2012-03-04T11:14:34Z</time>
      </trkpt>
      <trkpt lat="45.69507" lon="6.58502">
        <ele>1706</ele>
        <time>2012-03-04T11:15:17Z</time>
      </trkpt>
      <trkpt lat="45.69506" lon="6.58501">
        <ele>1706.96</ele>
        <time>2012-03-04T11:17:13Z</time>
      </trkpt>
      <trkpt lat="45.69503" lon="6.58512">
        <ele>1706.96</ele>
        <time>2012-03-04T11:17:44Z</time>
      </trkpt>
      <trkpt lat="45.69498" lon="6.58527">
        <ele>1705.52</ele>
        <time>2012-03-04T11:18:02Z</time>
      </trkpt>
      <trkpt lat="45.69494" lon="6.58535">
        <ele>1706.96</ele>
        <time>2012-03-04T11:18:18Z</time>
      </trkpt>
      <trkpt lat="45.69493" lon="6.58537">
        <ele>1707.44</ele>
        <time>2012-03-04T11:18:19Z</time>
      </trkpt>
      <trkpt lat="45.69489" lon="6.58555">
        <ele>1707.92</ele>
        <time>2012-03-04T11:18:35Z</time>
      </trkpt>
      <trkpt lat="45.69485" lon="6.58573">
        <ele>1708.88</ele>
        <time>2012-03-04T11:18:52Z</time>
      </trkpt>
      <trkpt lat="45.69484" lon="6.58576">
        <ele>1709.36</ele>
        <time>2012-03-04T11:18:55Z</time>
      </trkpt>
      <trkpt lat="45.6948" lon="6.58591">
        <ele>1710.32</ele>
        <time>2012-03-04T11:19:14Z</time>
      </trkpt>
      <trkpt lat="45.6948" lon="6.58607">
        <ele>1710.8</ele>
        <time>2012-03-04T11:19:32Z</time>
      </trkpt>
      <trkpt lat="45.69476" lon="6.5862">
        <ele>1712.73</ele>
        <time>2012-03-04T11:19:49Z</time>
      </trkpt>
      <trkpt lat="45.69471" lon="6.5863">
        <ele>1714.17</ele>
        <time>2012-03-04T11:20:15Z</time>
      </trkpt>
      <trkpt lat="45.69464" lon="6.58639">
        <ele>1716.09</ele>
        <time>2012-03-04T11:20:32Z</time>
      </trkpt>
      <trkpt lat="45.69463" lon="6.58652">
        <ele>1718.01</ele>
        <time>2012-03-04T11:21:01Z</time>
      </trkpt>
      <trkpt lat="45.69461" lon="6.58663">
        <ele>1718.97</ele>
        <time>2012-03-04T11:21:17Z</time>
      </trkpt>
      <trkpt lat="45.69466" lon="6.58677">
        <ele>1720.9</ele>
        <time>2012-03-04T11:21:32Z</time>
      </trkpt>
      <trkpt lat="45.69467" lon="6.58695">
        <ele>1722.34</ele>
        <time>2012-03-04T11:21:55Z</time>
      </trkpt>
      <trkpt lat="45.69462" lon="6.5871">
        <ele>1722.82</ele>
        <time>2012-03-04T11:22:13Z</time>
      </trkpt>
      <trkpt lat="45.69456" lon="6.58725">
        <ele>1724.74</ele>
        <time>2012-03-04T11:22:32Z</time>
      </trkpt>
      <trkpt lat="45.69455" lon="6.58735">
        <ele>1726.67</ele>
        <time>2012-03-04T11:22:52Z</time>
      </trkpt>
      <trkpt lat="45.69448" lon="6.5874">
        <ele>1727.63</ele>
        <time>2012-03-04T11:23:21Z</time>
      </trkpt>
      <trkpt lat="45.69448" lon="6.58741">
        <ele>1728.59</ele>
        <time>2012-03-04T11:24:18Z</time>
      </trkpt>
      <trkpt lat="45.6944" lon="6.58756">
        <ele>1730.99</ele>
        <time>2012-03-04T11:24:36Z</time>
      </trkpt>
      <trkpt lat="45.69435" lon="6.58767">
        <ele>1731.47</ele>
        <time>2012-03-04T11:24:51Z</time>
      </trkpt>
      <trkpt lat="45.69432" lon="6.58775">
        <ele>1731.47</ele>
        <time>2012-03-04T11:25:08Z</time>
      </trkpt>
      <trkpt lat="45.69431" lon="6.58777">
        <ele>1733.39</ele>
        <time>2012-03-04T11:25:28Z</time>
      </trkpt>
      <trkpt lat="45.6943" lon="6.58783">
        <ele>1734.36</ele>
        <time>2012-03-04T11:25:34Z</time>
      </trkpt>
      <trkpt lat="45.69425" lon="6.58793">
        <ele>1734.84</ele>
        <time>2012-03-04T11:25:49Z</time>
      </trkpt>
      <trkpt lat="45.69421" lon="6.58801">
        <ele>1736.76</ele>
        <time>2012-03-04T11:26:07Z</time>
      </trkpt>
      <trkpt lat="45.69415" lon="6.5881">
        <ele>1736.76</ele>
        <time>2012-03-04T11:26:14Z</time>
      </trkpt>
      <trkpt lat="45.69407" lon="6.5881">
        <ele>1736.28</ele>
        <time>2012-03-04T11:26:34Z</time>
      </trkpt>
      <trkpt lat="45.69407" lon="6.5881">
        <ele>1737.24</ele>
        <time>2012-03-04T11:26:58Z</time>
      </trkpt>
      <trkpt lat="45.69409" lon="6.58812">
        <ele>1736.76</ele>
        <time>2012-03-04T11:27:13Z</time>
      </trkpt>
      <trkpt lat="45.69409" lon="6.58829">
        <ele>1737.72</ele>
        <time>2012-03-04T11:27:30Z</time>
      </trkpt>
      <trkpt lat="45.69408" lon="6.58832">
        <ele>1737.24</ele>
        <time>2012-03-04T11:27:32Z</time>
      </trkpt>
      <trkpt lat="45.69405" lon="6.58839">
        <ele>1737.24</ele>
        <time>2012-03-04T11:27:39Z</time>
      </trkpt>
      <trkpt lat="45.69398" lon="6.58852">
        <ele>1737.24</ele>
        <time>2012-03-04T11:27:58Z</time>
      </trkpt>
      <trkpt lat="45.69398" lon="6.58852">
        <ele>1734.36</ele>
        <time>2012-03-04T11:28:00Z</time>
      </trkpt>
      <trkpt lat="45.69398" lon="6.58852">
        <ele>1737.72</ele>
        <time>2012-03-04T11:28:01Z</time>
      </trkpt>
      <trkpt lat="45.69397" lon="6.58857">
        <ele>1737.72</ele>
        <time>2012-03-04T11:28:22Z</time>
      </trkpt>
      <trkpt lat="45.69395" lon="6.5886">
        <ele>1738.68</ele>
        <time>2012-03-04T11:28:29Z</time>
      </trkpt>
      <trkpt lat="45.69386" lon="6.58865">
        <ele>1738.68</ele>
        <time>2012-03-04T11:28:38Z</time>
      </trkpt>
      <trkpt lat="45.69365" lon="6.58871">
        <ele>1738.68</ele>
        <time>2012-03-04T11:28:57Z</time>
      </trkpt>
      <trkpt lat="45.69358" lon="6.58872">
        <ele>1740.12</ele>
        <time>2012-03-04T11:29:16Z</time>
      </trkpt>
      <trkpt lat="45.69347" lon="6.58883">
        <ele>1741.57</ele>
        <time>2012-03-04T11:29:36Z</time>
      </trkpt>
      <trkpt lat="45.69336" lon="6.589">
        <ele>1739.16</ele>
        <time>2012-03-04T11:29:54Z</time>
      </trkpt>
      <trkpt lat="45.69323" lon="6.58911">
        <ele>1738.2</ele>
        <time>2012-03-04T11:30:16Z</time>
      </trkpt>
      <trkpt lat="45.69319" lon="6.58913">
        <ele>1738.68</ele>
        <time>2012-03-04T11:30:20Z</time>
      </trkpt>
      <trkpt lat="45.69312" lon="6.58919">
        <ele>1738.68</ele>
        <time>2012-03-04T11:30:35Z</time>
      </trkpt>
      <trkpt lat="45.69302" lon="6.58925">
        <ele>1738.68</ele>
        <time>2012-03-04T11:30:54Z</time>
      </trkpt>
      <trkpt lat="45.69301" lon="6.58926">
        <ele>1739.16</ele>
        <time>2012-03-04T11:30:55Z</time>
      </trkpt>
      <trkpt lat="45.69294" lon="6.58932">
        <ele>1739.64</ele>
        <time>2012-03-04T11:31:12Z</time>
      </trkpt>
      <trkpt lat="45.69283" lon="6.58949">
        <ele>1739.64</ele>
        <time>2012-03-04T11:31:30Z</time>
      </trkpt>
      <trkpt lat="45.69282" lon="6.58949">
        <ele>1740.12</ele>
        <time>2012-03-04T11:31:33Z</time>
      </trkpt>
      <trkpt lat="45.69274" lon="6.58955">
        <ele>1741.57</ele>
        <time>2012-03-04T11:31:44Z</time>
      </trkpt>
      <trkpt lat="45.69253" lon="6.58971">
        <ele>1741.08</ele>
        <time>2012-03-04T11:32:02Z</time>
      </trkpt>
      <trkpt lat="45.69241" lon="6.58979">
        <ele>1740.6</ele>
        <time>2012-03-04T11:32:15Z</time>
      </trkpt>
      <trkpt lat="45.69235" lon="6.58985">
        <ele>1741.08</ele>
        <time>2012-03-04T11:32:23Z</time>
      </trkpt>
      <trkpt lat="45.69225" lon="6.59">
        <ele>1740.6</ele>
        <time>2012-03-04T11:32:42Z</time>
      </trkpt>
      <trkpt lat="45.69217" lon="6.59012">
        <ele>1740.6</ele>
        <time>2012-03-04T11:32:55Z</time>
      </trkpt>
      <trkpt lat="45.69202" lon="6.59028">
        <ele>1740.6</ele>
        <time>2012-03-04T11:33:15Z</time>
      </trkpt>
      <trkpt lat="45.69193" lon="6.59038">
        <ele>1740.6</ele>
        <time>2012-03-04T11:33:31Z</time>
      </trkpt>
      <trkpt lat="45.6918" lon="6.5905">
        <ele>1741.08</ele>
        <time>2012-03-04T11:33:49Z</time>
      </trkpt>
      <trkpt lat="45.69169" lon="6.59048">
        <ele>1743.01</ele>
        <time>2012-03-04T11:34:05Z</time>
      </trkpt>
      <trkpt lat="45.69158" lon="6.59053">
        <ele>1743.97</ele>
        <time>2012-03-04T11:34:21Z</time>
      </trkpt>
      <trkpt lat="45.69155" lon="6.59053">
        <ele>1744.93</ele>
        <time>2012-03-04T11:34:26Z</time>
      </trkpt>
      <trkpt lat="45.69141" lon="6.59067">
        <ele>1744.45</ele>
        <time>2012-03-04T11:34:43Z</time>
      </trkpt>
      <trkpt lat="45.69139" lon="6.59074">
        <ele>1744.93</ele>
        <time>2012-03-04T11:34:49Z</time>
      </trkpt>
      <trkpt lat="45.69132" lon="6.59093">
        <ele>1744.93</ele>
        <time>2012-03-04T11:35:08Z</time>
      </trkpt>
      <trkpt lat="45.69127" lon="6.59113">
        <ele>1745.41</ele>
        <time>2012-03-04T11:35:27Z</time>
      </trkpt>
      <trkpt lat="45.69122" lon="6.59117">
        <ele>1745.89</ele>
        <time>2012-03-04T11:35:35Z</time>
      </trkpt>
      <trkpt lat="45.69119" lon="6.5912">
        <ele>1745.41</ele>
        <time>2012-03-04T11:35:39Z</time>
      </trkpt>
      <trkpt lat="45.6911" lon="6.59136">
        <ele>1745.41</ele>
        <time>2012-03-04T11:36:00Z</time>
      </trkpt>
      <trkpt lat="45.69109" lon="6.59137">
        <ele>1745.89</ele>
        <time>2012-03-04T11:36:06Z</time>
      </trkpt>
      <trkpt lat="45.69101" lon="6.59159">
        <ele>1745.41</ele>
        <time>2012-03-04T11:36:32Z</time>
      </trkpt>
      <trkpt lat="45.69091" lon="6.59176">
        <ele>1745.89</ele>
        <time>2012-03-04T11:36:52Z</time>
      </trkpt>
      <trkpt lat="45.69079" lon="6.5919">
        <ele>1746.85</ele>
        <time>2012-03-04T11:37:09Z</time>
      </trkpt>
      <trkpt lat="45.69061" lon="6.59196">
        <ele>1747.33</ele>
        <time>2012-03-04T11:37:28Z</time>
      </trkpt>
      <trkpt lat="45.69044" lon="6.59209">
        <ele>1745.89</ele>
        <time>2012-03-04T11:37:52Z</time>
      </trkpt>
      <trkpt lat="45.69037" lon="6.59226">
        <ele>1745.41</ele>
        <time>2012-03-04T11:38:05Z</time>
      </trkpt>
      <trkpt lat="45.69035" lon="6.5923">
        <ele>1745.41</ele>
        <time>2012-03-04T11:38:07Z</time>
      </trkpt>
      <trkpt lat="45.69029" lon="6.59245">
        <ele>1743.49</ele>
        <time>2012-03-04T11:38:26Z</time>
      </trkpt>
      <trkpt lat="45.69026" lon="6.59254">
        <ele>1744.93</ele>
        <time>2012-03-04T11:38:34Z</time>
      </trkpt>
      <trkpt lat="45.69025" lon="6.59257">
        <ele>1744.45</ele>
        <time>2012-03-04T11:38:37Z</time>
      </trkpt>
      <trkpt lat="45.69021" lon="6.59267">
        <ele>1743.97</ele>
        <time>2012-03-04T11:38:47Z</time>
      </trkpt>
      <trkpt lat="45.69021" lon="6.5927">
        <ele>1744.45</ele>
        <time>2012-03-04T11:38:50Z</time>
      </trkpt>
      <trkpt lat="45.69016" lon="6.59291">
        <ele>1742.05</ele>
        <time>2012-03-04T11:39:08Z</time>
      </trkpt>
      <trkpt lat="45.69016" lon="6.59293">
        <ele>1742.53</ele>
        <time>2012-03-04T11:39:10Z</time>
      </trkpt>
      <trkpt lat="45.69017" lon="6.593">
        <ele>1741.57</ele>
        <time>2012-03-04T11:39:15Z</time>
      </trkpt>
      <trkpt lat="45.69017" lon="6.59304">
        <ele>1741.08</ele>
        <time>2012-03-04T11:39:18Z</time>
      </trkpt>
      <trkpt lat="45.69023" lon="6.59323">
        <ele>1739.64</ele>
        <time>2012-03-04T11:39:36Z</time>
      </trkpt>
      <trkpt lat="45.69023" lon="6.59332">
        <ele>1739.16</ele>
        <time>2012-03-04T11:39:43Z</time>
      </trkpt>
      <trkpt lat="45.6902" lon="6.59345">
        <ele>1739.16</ele>
        <time>2012-03-04T11:39:52Z</time>
      </trkpt>
      <trkpt lat="45.69024" lon="6.59363">
        <ele>1739.16</ele>
        <time>2012-03-04T11:40:04Z</time>
      </trkpt>
      <trkpt lat="45.69026" lon="6.59367">
        <ele>1740.12</ele>
        <time>2012-03-04T11:40:08Z</time>
      </trkpt>
      <trkpt lat="45.69026" lon="6.59388">
        <ele>1738.68</ele>
        <time>2012-03-04T11:40:26Z</time>
      </trkpt>
      <trkpt lat="45.6903" lon="6.59404">
        <ele>1737.72</ele>
        <time>2012-03-04T11:40:39Z</time>
      </trkpt>
      <trkpt lat="45.69031" lon="6.59409">
        <ele>1737.24</ele>
        <time>2012-03-04T11:40:43Z</time>
      </trkpt>
      <trkpt lat="45.69035" lon="6.59428">
        <ele>1735.32</ele>
        <time>2012-03-04T11:40:58Z</time>
      </trkpt>
      <trkpt lat="45.69039" lon="6.59437">
        <ele>1733.88</ele>
        <time>2012-03-04T11:41:15Z</time>
      </trkpt>
      <trkpt lat="45.69039" lon="6.59437">
        <ele>1733.88</ele>
        <time>2012-03-04T11:41:16Z</time>
      </trkpt>
      <trkpt lat="45.69039" lon="6.59439">
        <ele>1735.32</ele>
        <time>2012-03-04T11:41:20Z</time>
      </trkpt>
      <trkpt lat="45.69039" lon="6.59458">
        <ele>1733.39</ele>
        <time>2012-03-04T11:41:37Z</time>
      </trkpt>
      <trkpt lat="45.69039" lon="6.59476">
        <ele>1730.03</ele>
        <time>2012-03-04T11:41:52Z</time>
      </trkpt>
      <trkpt lat="45.6904" lon="6.5949">
        <ele>1729.07</ele>
        <time>2012-03-04T11:42:07Z</time>
      </trkpt>
      <trkpt lat="45.69041" lon="6.59491">
        <ele>1729.55</ele>
        <time>2012-03-04T11:42:49Z</time>
      </trkpt>
      <trkpt lat="45.69041" lon="6.59491">
        <ele>1726.18</ele>
        <time>2012-03-04T11:43:26Z</time>
      </trkpt>
      <trkpt lat="45.69042" lon="6.59492">
        <ele>1730.99</ele>
        <time>2012-03-04T11:43:35Z</time>
      </trkpt>
      <trkpt lat="45.69043" lon="6.59493">
        <ele>1729.55</ele>
        <time>2012-03-04T11:44:56Z</time>
      </trkpt>
      <trkpt lat="45.69044" lon="6.59494">
        <ele>1730.03</ele>
        <time>2012-03-04T11:46:16Z</time>
      </trkpt>
      <trkpt lat="45.69045" lon="6.59494">
        <ele>1729.07</ele>
        <time>2012-03-04T11:47:02Z</time>
      </trkpt>
      <trkpt lat="45.69044" lon="6.59493">
        <ele>1730.51</ele>
        <time>2012-03-04T11:51:23Z</time>
      </trkpt>
      <trkpt lat="45.69044" lon="6.59493">
        <ele>1730.51</ele>
        <time>2012-03-04T11:53:08Z</time>
      </trkpt>
      <trkpt lat="45.69044" lon="6.59493">
        <ele>1730.99</ele>
        <time>2012-03-04T11:56:22Z</time>
      </trkpt>
      <trkpt lat="45.69045" lon="6.59493">
        <ele>1730.99</ele>
        <time>2012-03-04T11:57:39Z</time>
      </trkpt>
      <trkpt lat="45.69043" lon="6.59495">
        <ele>1731.95</ele>
        <time>2012-03-04T12:13:08Z</time>
      </trkpt>
      <trkpt lat="45.69043" lon="6.59496">
        <ele>1732.43</ele>
        <time>2012-03-04T12:21:01Z</time>
      </trkpt>
      <trkpt lat="45.69044" lon="6.59495">
        <ele>1732.91</ele>
        <time>2012-03-04T12:24:45Z</time>
      </trkpt>
      <trkpt lat="45.69044" lon="6.59496">
        <ele>1731.47</ele>
        <time>2012-03-04T12:26:08Z</time>
      </trkpt>
      <trkpt lat="45.69044" lon="6.59496">
        <ele>1732.43</ele>
        <time>2012-03-04T12:26:21Z</time>
      </trkpt>
      <trkpt lat="45.69042" lon="6.59496">
        <ele>1732.43</ele>
        <time>2012-03-04T12:28:37Z</time>
      </trkpt>
      <trkpt lat="45.69042" lon="6.59496">
        <ele>1732.43</ele>
        <time>2012-03-04T12:29:07Z</time>
      </trkpt>
      <trkpt lat="45.69042" lon="6.59495">
        <ele>1732.91</ele>
        <time>2012-03-04T12:31:05Z</time>
      </trkpt>
      <trkpt lat="45.69042" lon="6.59495">
        <ele>1733.88</ele>
        <time>2012-03-04T12:31:36Z</time>
      </trkpt>
      <trkpt lat="45.69042" lon="6.59495">
        <ele>1732.43</ele>
        <time>2012-03-04T12:31:43Z</time>
      </trkpt>
      <trkpt lat="45.69042" lon="6.59495">
        <ele>1733.88</ele>
        <time>2012-03-04T12:31:45Z</time>
      </trkpt>
      <trkpt lat="45.69042" lon="6.59496">
        <ele>1733.39</ele>
        <time>2012-03-04T12:32:04Z</time>
      </trkpt>
      <trkpt lat="45.69043" lon="6.59506">
        <ele>1733.39</ele>
        <time>2012-03-04T12:32:20Z</time>
      </trkpt>
      <trkpt lat="45.69044" lon="6.59508">
        <ele>1733.39</ele>
        <time>2012-03-04T12:32:47Z</time>
      </trkpt>
      <trkpt lat="45.69051" lon="6.59527">
        <ele>1731.47</ele>
        <time>2012-03-04T12:33:06Z</time>
      </trkpt>
      <trkpt lat="45.69052" lon="6.59534">
        <ele>1730.99</ele>
        <time>2012-03-04T12:33:19Z</time>
      </trkpt>
      <trkpt lat="45.69049" lon="6.59544">
        <ele>1729.07</ele>
        <time>2012-03-04T12:33:34Z</time>
      </trkpt>
      <trkpt lat="45.69047" lon="6.59552">
        <ele>1727.15</ele>
        <time>2012-03-04T12:33:44Z</time>
      </trkpt>
      <trkpt lat="45.69043" lon="6.59568">
        <ele>1724.26</ele>
        <time>2012-03-04T12:34:02Z</time>
      </trkpt>
      <trkpt lat="45.69041" lon="6.59584">
        <ele>1721.86</ele>
        <time>2012-03-04T12:34:19Z</time>
      </trkpt>
      <trkpt lat="45.69039" lon="6.59599">
        <ele>1718.49</ele>
        <time>2012-03-04T12:34:33Z</time>
      </trkpt>
      <trkpt lat="45.69035" lon="6.5961">
        <ele>1716.09</ele>
        <time>2012-03-04T12:34:47Z</time>
      </trkpt>
      <trkpt lat="45.69033" lon="6.59623">
        <ele>1711.76</ele>
        <time>2012-03-04T12:34:58Z</time>
      </trkpt>
      <trkpt lat="45.69032" lon="6.59626">
        <ele>1711.76</ele>
        <time>2012-03-04T12:35:00Z</time>
      </trkpt>
      <trkpt lat="45.69033" lon="6.59629">
        <ele>1711.76</ele>
        <time>2012-03-04T12:35:02Z</time>
      </trkpt>
      <trkpt lat="45.6903" lon="6.59644">
        <ele>1707.92</ele>
        <time>2012-03-04T12:35:14Z</time>
      </trkpt>
      <trkpt lat="45.6903" lon="6.5965">
        <ele>1707.44</ele>
        <time>2012-03-04T12:35:18Z</time>
      </trkpt>
      <trkpt lat="45.6903" lon="6.59653">
        <ele>1707.44</ele>
        <time>2012-03-04T12:35:20Z</time>
      </trkpt>
      <trkpt lat="45.69031" lon="6.59664">
        <ele>1706</ele>
        <time>2012-03-04T12:35:29Z</time>
      </trkpt>
      <trkpt lat="45.6903" lon="6.59666">
        <ele>1706</ele>
        <time>2012-03-04T12:35:31Z</time>
      </trkpt>
      <trkpt lat="45.69031" lon="6.59669">
        <ele>1705.52</ele>
        <time>2012-03-04T12:35:33Z</time>
      </trkpt>
      <trkpt lat="45.6903" lon="6.59672">
        <ele>1705.52</ele>
        <time>2012-03-04T12:35:35Z</time>
      </trkpt>
      <trkpt lat="45.69029" lon="6.59676">
        <ele>1705.52</ele>
        <time>2012-03-04T12:35:43Z</time>
      </trkpt>
      <trkpt lat="45.69029" lon="6.59681">
        <ele>1705.04</ele>
        <time>2012-03-04T12:35:47Z</time>
      </trkpt>
      <trkpt lat="45.69028" lon="6.59686">
        <ele>1704.55</ele>
        <time>2012-03-04T12:35:51Z</time>
      </trkpt>
      <trkpt lat="45.69028" lon="6.59696">
        <ele>1705.04</ele>
        <time>2012-03-04T12:35:58Z</time>
      </trkpt>
      <trkpt lat="45.69029" lon="6.59699">
        <ele>1705.04</ele>
        <time>2012-03-04T12:36:16Z</time>
      </trkpt>
      <trkpt lat="45.69029" lon="6.59702">
        <ele>1705.52</ele>
        <time>2012-03-04T12:36:18Z</time>
      </trkpt>
      <trkpt lat="45.69026" lon="6.59717">
        <ele>1706.48</ele>
        <time>2012-03-04T12:36:32Z</time>
      </trkpt>
      <trkpt lat="45.69025" lon="6.59732">
        <ele>1707.92</ele>
        <time>2012-03-04T12:36:48Z</time>
      </trkpt>
      <trkpt lat="45.69026" lon="6.59739">
        <ele>1708.4</ele>
        <time>2012-03-04T12:36:54Z</time>
      </trkpt>
      <trkpt lat="45.69029" lon="6.59746">
        <ele>1708.88</ele>
        <time>2012-03-04T12:37:00Z</time>
      </trkpt>
      <trkpt lat="45.69029" lon="6.59751">
        <ele>1708.88</ele>
        <time>2012-03-04T12:37:04Z</time>
      </trkpt>
      <trkpt lat="45.69034" lon="6.5977">
        <ele>1710.8</ele>
        <time>2012-03-04T12:37:19Z</time>
      </trkpt>
      <trkpt lat="45.69034" lon="6.59777">
        <ele>1710.8</ele>
        <time>2012-03-04T12:37:25Z</time>
      </trkpt>
      <trkpt lat="45.69035" lon="6.5978">
        <ele>1711.76</ele>
        <time>2012-03-04T12:37:27Z</time>
      </trkpt>
      <trkpt lat="45.69034" lon="6.59792">
        <ele>1711.76</ele>
        <time>2012-03-04T12:37:36Z</time>
      </trkpt>
      <trkpt lat="45.69032" lon="6.59797">
        <ele>1712.73</ele>
        <time>2012-03-04T12:37:41Z</time>
      </trkpt>
      <trkpt lat="45.69027" lon="6.59806">
        <ele>1714.17</ele>
        <time>2012-03-04T12:37:51Z</time>
      </trkpt>
      <trkpt lat="45.69013" lon="6.59805">
        <ele>1715.61</ele>
        <time>2012-03-04T12:38:07Z</time>
      </trkpt>
      <trkpt lat="45.69011" lon="6.59804">
        <ele>1716.57</ele>
        <time>2012-03-04T12:38:10Z</time>
      </trkpt>
      <trkpt lat="45.69009" lon="6.59803">
        <ele>1716.09</ele>
        <time>2012-03-04T12:38:12Z</time>
      </trkpt>
      <trkpt lat="45.69005" lon="6.59807">
        <ele>1717.53</ele>
        <time>2012-03-04T12:38:18Z</time>
      </trkpt>
      <trkpt lat="45.69001" lon="6.59805">
        <ele>1718.49</ele>
        <time>2012-03-04T12:38:38Z</time>
      </trkpt>
      <trkpt lat="45.69002" lon="6.59812">
        <ele>1718.01</ele>
        <time>2012-03-04T12:38:46Z</time>
      </trkpt>
      <trkpt lat="45.69004" lon="6.59817">
        <ele>1718.49</ele>
        <time>2012-03-04T12:38:51Z</time>
      </trkpt>
      <trkpt lat="45.69006" lon="6.59829">
        <ele>1718.49</ele>
        <time>2012-03-04T12:39:04Z</time>
      </trkpt>
      <trkpt lat="45.69006" lon="6.59835">
        <ele>1717.53</ele>
        <time>2012-03-04T12:39:09Z</time>
      </trkpt>
      <trkpt lat="45.69005" lon="6.59837">
        <ele>1718.01</ele>
        <time>2012-03-04T12:39:11Z</time>
      </trkpt>
      <trkpt lat="45.69001" lon="6.59861">
        <ele>1718.01</ele>
        <time>2012-03-04T12:39:30Z</time>
      </trkpt>
      <trkpt lat="45.69001" lon="6.59864">
        <ele>1718.49</ele>
        <time>2012-03-04T12:39:33Z</time>
      </trkpt>
      <trkpt lat="45.69002" lon="6.59872">
        <ele>1719.46</ele>
        <time>2012-03-04T12:39:39Z</time>
      </trkpt>
      <trkpt lat="45.69002" lon="6.59876">
        <ele>1720.42</ele>
        <time>2012-03-04T12:39:42Z</time>
      </trkpt>
      <trkpt lat="45.69003" lon="6.5989">
        <ele>1720.9</ele>
        <time>2012-03-04T12:39:53Z</time>
      </trkpt>
      <trkpt lat="45.69002" lon="6.59911">
        <ele>1722.34</ele>
        <time>2012-03-04T12:40:09Z</time>
      </trkpt>
      <trkpt lat="45.69002" lon="6.59914">
        <ele>1722.34</ele>
        <time>2012-03-04T12:40:11Z</time>
      </trkpt>
      <trkpt lat="45.69001" lon="6.59922">
        <ele>1722.82</ele>
        <time>2012-03-04T12:40:16Z</time>
      </trkpt>
      <trkpt lat="45.68999" lon="6.59929">
        <ele>1723.3</ele>
        <time>2012-03-04T12:40:21Z</time>
      </trkpt>
      <trkpt lat="45.68994" lon="6.59949">
        <ele>1724.74</ele>
        <time>2012-03-04T12:40:35Z</time>
      </trkpt>
      <trkpt lat="45.68993" lon="6.59955">
        <ele>1724.26</ele>
        <time>2012-03-04T12:40:39Z</time>
      </trkpt>
      <trkpt lat="45.68993" lon="6.59958">
        <ele>1724.26</ele>
        <time>2012-03-04T12:40:41Z</time>
      </trkpt>
      <trkpt lat="45.68991" lon="6.59968">
        <ele>1725.22</ele>
        <time>2012-03-04T12:40:47Z</time>
      </trkpt>
      <trkpt lat="45.68989" lon="6.59973">
        <ele>1725.7</ele>
        <time>2012-03-04T12:40:51Z</time>
      </trkpt>
      <trkpt lat="45.68986" lon="6.59982">
        <ele>1726.18</ele>
        <time>2012-03-04T12:40:57Z</time>
      </trkpt>
      <trkpt lat="45.68982" lon="6.5999">
        <ele>1727.15</ele>
        <time>2012-03-04T12:41:04Z</time>
      </trkpt>
      <trkpt lat="45.6898" lon="6.59996">
        <ele>1727.15</ele>
        <time>2012-03-04T12:41:08Z</time>
      </trkpt>
      <trkpt lat="45.68977" lon="6.60002">
        <ele>1727.63</ele>
        <time>2012-03-04T12:41:13Z</time>
      </trkpt>
      <trkpt lat="45.68966" lon="6.60028">
        <ele>1730.51</ele>
        <time>2012-03-04T12:41:32Z</time>
      </trkpt>
      <trkpt lat="45.68965" lon="6.6003">
        <ele>1730.51</ele>
        <time>2012-03-04T12:41:33Z</time>
      </trkpt>
      <trkpt lat="45.68954" lon="6.6005">
        <ele>1731.47</ele>
        <time>2012-03-04T12:41:50Z</time>
      </trkpt>
      <trkpt lat="45.68953" lon="6.60052">
        <ele>1731.47</ele>
        <time>2012-03-04T12:41:52Z</time>
      </trkpt>
      <trkpt lat="45.68946" lon="6.60057">
        <ele>1732.43</ele>
        <time>2012-03-04T12:42:02Z</time>
      </trkpt>
      <trkpt lat="45.6893" lon="6.60066">
        <ele>1733.88</ele>
        <time>2012-03-04T12:42:18Z</time>
      </trkpt>
      <trkpt lat="45.68927" lon="6.60069">
        <ele>1734.84</ele>
        <time>2012-03-04T12:42:25Z</time>
      </trkpt>
      <trkpt lat="45.68927" lon="6.60069">
        <ele>1733.39</ele>
        <time>2012-03-04T12:42:28Z</time>
      </trkpt>
      <trkpt lat="45.68922" lon="6.60073">
        <ele>1733.88</ele>
        <time>2012-03-04T12:42:33Z</time>
      </trkpt>
      <trkpt lat="45.6892" lon="6.60074">
        <ele>1734.36</ele>
        <time>2012-03-04T12:42:35Z</time>
      </trkpt>
      <trkpt lat="45.68917" lon="6.60077">
        <ele>1734.84</ele>
        <time>2012-03-04T12:42:38Z</time>
      </trkpt>
      <trkpt lat="45.68913" lon="6.6008">
        <ele>1734.36</ele>
        <time>2012-03-04T12:42:42Z</time>
      </trkpt>
      <trkpt lat="45.6891" lon="6.6008">
        <ele>1734.84</ele>
        <time>2012-03-04T12:42:44Z</time>
      </trkpt>
      <trkpt lat="45.68909" lon="6.60082">
        <ele>1734.84</ele>
        <time>2012-03-04T12:42:46Z</time>
      </trkpt>
      <trkpt lat="45.68904" lon="6.60086">
        <ele>1735.32</ele>
        <time>2012-03-04T12:42:51Z</time>
      </trkpt>
      <trkpt lat="45.68901" lon="6.6009">
        <ele>1735.8</ele>
        <time>2012-03-04T12:42:55Z</time>
      </trkpt>
      <trkpt lat="45.68897" lon="6.601">
        <ele>1736.28</ele>
        <time>2012-03-04T12:43:02Z</time>
      </trkpt>
      <trkpt lat="45.68896" lon="6.60104">
        <ele>1737.24</ele>
        <time>2012-03-04T12:43:05Z</time>
      </trkpt>
      <trkpt lat="45.68895" lon="6.6011">
        <ele>1736.76</ele>
        <time>2012-03-04T12:43:09Z</time>
      </trkpt>
      <trkpt lat="45.68894" lon="6.60119">
        <ele>1737.24</ele>
        <time>2012-03-04T12:43:15Z</time>
      </trkpt>
      <trkpt lat="45.68894" lon="6.60124">
        <ele>1737.72</ele>
        <time>2012-03-04T12:43:18Z</time>
      </trkpt>
      <trkpt lat="45.68894" lon="6.60146">
        <ele>1737.72</ele>
        <time>2012-03-04T12:43:32Z</time>
      </trkpt>
      <trkpt lat="45.68893" lon="6.60153">
        <ele>1737.24</ele>
        <time>2012-03-04T12:43:36Z</time>
      </trkpt>
      <trkpt lat="45.68892" lon="6.60162">
        <ele>1736.76</ele>
        <time>2012-03-04T12:43:42Z</time>
      </trkpt>
      <trkpt lat="45.68888" lon="6.60192">
        <ele>1738.2</ele>
        <time>2012-03-04T12:44:01Z</time>
      </trkpt>
      <trkpt lat="45.68888" lon="6.60193">
        <ele>1737.24</ele>
        <time>2012-03-04T12:44:20Z</time>
      </trkpt>
      <trkpt lat="45.68888" lon="6.60194">
        <ele>1737.24</ele>
        <time>2012-03-04T12:44:41Z</time>
      </trkpt>
      <trkpt lat="45.68888" lon="6.60201">
        <ele>1737.72</ele>
        <time>2012-03-04T12:44:45Z</time>
      </trkpt>
      <trkpt lat="45.68887" lon="6.60214">
        <ele>1738.2</ele>
        <time>2012-03-04T12:44:53Z</time>
      </trkpt>
      <trkpt lat="45.68882" lon="6.60238">
        <ele>1739.16</ele>
        <time>2012-03-04T12:45:11Z</time>
      </trkpt>
      <trkpt lat="45.68881" lon="6.60241">
        <ele>1739.16</ele>
        <time>2012-03-04T12:45:13Z</time>
      </trkpt>
      <trkpt lat="45.68874" lon="6.60263">
        <ele>1739.64</ele>
        <time>2012-03-04T12:45:30Z</time>
      </trkpt>
      <trkpt lat="45.68873" lon="6.60265">
        <ele>1739.16</ele>
        <time>2012-03-04T12:45:32Z</time>
      </trkpt>
      <trkpt lat="45.6886" lon="6.60279">
        <ele>1738.68</ele>
        <time>2012-03-04T12:45:47Z</time>
      </trkpt>
      <trkpt lat="45.68858" lon="6.6028">
        <ele>1739.16</ele>
        <time>2012-03-04T12:45:49Z</time>
      </trkpt>
      <trkpt lat="45.68854" lon="6.60283">
        <ele>1738.68</ele>
        <time>2012-03-04T12:45:53Z</time>
      </trkpt>
      <trkpt lat="45.68846" lon="6.6029">
        <ele>1738.2</ele>
        <time>2012-03-04T12:46:01Z</time>
      </trkpt>
      <trkpt lat="45.68844" lon="6.60291">
        <ele>1738.2</ele>
        <time>2012-03-04T12:46:03Z</time>
      </trkpt>
      <trkpt lat="45.68835" lon="6.60303">
        <ele>1738.2</ele>
        <time>2012-03-04T12:46:14Z</time>
      </trkpt>
      <trkpt lat="45.6883" lon="6.6031">
        <ele>1738.2</ele>
        <time>2012-03-04T12:46:20Z</time>
      </trkpt>
      <trkpt lat="45.68826" lon="6.60315">
        <ele>1738.2</ele>
        <time>2012-03-04T12:46:25Z</time>
      </trkpt>
      <trkpt lat="45.68823" lon="6.6032">
        <ele>1738.2</ele>
        <time>2012-03-04T12:46:29Z</time>
      </trkpt>
      <trkpt lat="45.68818" lon="6.60342">
        <ele>1738.2</ele>
        <time>2012-03-04T12:46:47Z</time>
      </trkpt>
      <trkpt lat="45.68814" lon="6.60354">
        <ele>1739.16</ele>
        <time>2012-03-04T12:46:56Z</time>
      </trkpt>
      <trkpt lat="45.68811" lon="6.60364">
        <ele>1739.16</ele>
        <time>2012-03-04T12:47:05Z</time>
      </trkpt>
      <trkpt lat="45.6881" lon="6.60366">
        <ele>1739.64</ele>
        <time>2012-03-04T12:47:07Z</time>
      </trkpt>
      <trkpt lat="45.68808" lon="6.60371">
        <ele>1739.16</ele>
        <time>2012-03-04T12:47:11Z</time>
      </trkpt>
      <trkpt lat="45.68807" lon="6.60373">
        <ele>1739.64</ele>
        <time>2012-03-04T12:47:13Z</time>
      </trkpt>
      <trkpt lat="45.68804" lon="6.60376">
        <ele>1739.64</ele>
        <time>2012-03-04T12:47:16Z</time>
      </trkpt>
      <trkpt lat="45.6879" lon="6.60384">
        <ele>1740.12</ele>
        <time>2012-03-04T12:47:31Z</time>
      </trkpt>
      <trkpt lat="45.68788" lon="6.60386">
        <ele>1740.6</ele>
        <time>2012-03-04T12:47:33Z</time>
      </trkpt>
      <trkpt lat="45.6878" lon="6.60392">
        <ele>1740.12</ele>
        <time>2012-03-04T12:47:41Z</time>
      </trkpt>
      <trkpt lat="45.68759" lon="6.60404">
        <ele>1741.57</ele>
        <time>2012-03-04T12:48:00Z</time>
      </trkpt>
      <trkpt lat="45.68752" lon="6.6041">
        <ele>1740.6</ele>
        <time>2012-03-04T12:48:07Z</time>
      </trkpt>
      <trkpt lat="45.6875" lon="6.60416">
        <ele>1741.08</ele>
        <time>2012-03-04T12:48:11Z</time>
      </trkpt>
      <trkpt lat="45.68748" lon="6.60422">
        <ele>1741.57</ele>
        <time>2012-03-04T12:48:16Z</time>
      </trkpt>
      <trkpt lat="45.68746" lon="6.60427">
        <ele>1741.57</ele>
        <time>2012-03-04T12:48:20Z</time>
      </trkpt>
      <trkpt lat="45.68744" lon="6.60434">
        <ele>1742.53</ele>
        <time>2012-03-04T12:48:26Z</time>
      </trkpt>
      <trkpt lat="45.6874" lon="6.60445">
        <ele>1743.01</ele>
        <time>2012-03-04T12:48:35Z</time>
      </trkpt>
      <trkpt lat="45.68738" lon="6.6045">
        <ele>1742.53</ele>
        <time>2012-03-04T12:48:39Z</time>
      </trkpt>
      <trkpt lat="45.68734" lon="6.60464">
        <ele>1743.01</ele>
        <time>2012-03-04T12:48:50Z</time>
      </trkpt>
      <trkpt lat="45.68733" lon="6.6047">
        <ele>1743.01</ele>
        <time>2012-03-04T12:48:53Z</time>
      </trkpt>
      <trkpt lat="45.68731" lon="6.60478">
        <ele>1743.49</ele>
        <time>2012-03-04T12:49:08Z</time>
      </trkpt>
      <trkpt lat="45.68731" lon="6.60478">
        <ele>1743.01</ele>
        <time>2012-03-04T12:49:11Z</time>
      </trkpt>
      <trkpt lat="45.68733" lon="6.60471">
        <ele>1742.53</ele>
        <time>2012-03-04T12:49:16Z</time>
      </trkpt>
      <trkpt lat="45.68735" lon="6.60457">
        <ele>1743.01</ele>
        <time>2012-03-04T12:49:34Z</time>
      </trkpt>
      <trkpt lat="45.68734" lon="6.60458">
        <ele>1743.01</ele>
        <time>2012-03-04T12:50:20Z</time>
      </trkpt>
      <trkpt lat="45.68732" lon="6.60467">
        <ele>1742.05</ele>
        <time>2012-03-04T12:50:26Z</time>
      </trkpt>
      <trkpt lat="45.68731" lon="6.60472">
        <ele>1743.01</ele>
        <time>2012-03-04T12:50:30Z</time>
      </trkpt>
      <trkpt lat="45.68731" lon="6.60477">
        <ele>1742.53</ele>
        <time>2012-03-04T12:50:43Z</time>
      </trkpt>
      <trkpt lat="45.68729" lon="6.60492">
        <ele>1743.01</ele>
        <time>2012-03-04T12:50:52Z</time>
      </trkpt>
      <trkpt lat="45.68729" lon="6.60496">
        <ele>1743.01</ele>
        <time>2012-03-04T12:50:55Z</time>
      </trkpt>
      <trkpt lat="45.68729" lon="6.60503">
        <ele>1742.53</ele>
        <time>2012-03-04T12:50:59Z</time>
      </trkpt>
      <trkpt lat="45.68727" lon="6.60516">
        <ele>1743.01</ele>
        <time>2012-03-04T12:51:07Z</time>
      </trkpt>
      <trkpt lat="45.68726" lon="6.60522">
        <ele>1742.53</ele>
        <time>2012-03-04T12:51:11Z</time>
      </trkpt>
      <trkpt lat="45.6872" lon="6.60541">
        <ele>1743.01</ele>
        <time>2012-03-04T12:51:27Z</time>
      </trkpt>
      <trkpt lat="45.68719" lon="6.60544">
        <ele>1743.01</ele>
        <time>2012-03-04T12:51:29Z</time>
      </trkpt>
      <trkpt lat="45.68717" lon="6.60545">
        <ele>1743.49</ele>
        <time>2012-03-04T12:51:59Z</time>
      </trkpt>
      <trkpt lat="45.68713" lon="6.60552">
        <ele>1743.49</ele>
        <time>2012-03-04T12:52:14Z</time>
      </trkpt>
      <trkpt lat="45.6871" lon="6.60558">
        <ele>1743.97</ele>
        <time>2012-03-04T12:52:19Z</time>
      </trkpt>
      <trkpt lat="45.68708" lon="6.6056">
        <ele>1744.45</ele>
        <time>2012-03-04T12:52:21Z</time>
      </trkpt>
      <trkpt lat="45.68705" lon="6.60566">
        <ele>1744.93</ele>
        <time>2012-03-04T12:52:35Z</time>
      </trkpt>
      <trkpt lat="45.68701" lon="6.60571">
        <ele>1745.41</ele>
        <time>2012-03-04T12:52:57Z</time>
      </trkpt>
      <trkpt lat="45.68698" lon="6.60579">
        <ele>1745.89</ele>
        <time>2012-03-04T12:53:10Z</time>
      </trkpt>
      <trkpt lat="45.68693" lon="6.60585">
        <ele>1745.41</ele>
        <time>2012-03-04T12:53:16Z</time>
      </trkpt>
      <trkpt lat="45.68686" lon="6.60592">
        <ele>1745.41</ele>
        <time>2012-03-04T12:53:24Z</time>
      </trkpt>
      <trkpt lat="45.68683" lon="6.60598">
        <ele>1745.41</ele>
        <time>2012-03-04T12:53:29Z</time>
      </trkpt>
      <trkpt lat="45.68673" lon="6.60611">
        <ele>1746.37</ele>
        <time>2012-03-04T12:53:42Z</time>
      </trkpt>
      <trkpt lat="45.68672" lon="6.60613">
        <ele>1745.89</ele>
        <time>2012-03-04T12:53:44Z</time>
      </trkpt>
      <trkpt lat="45.68659" lon="6.60621">
        <ele>1746.85</ele>
        <time>2012-03-04T12:53:58Z</time>
      </trkpt>
      <trkpt lat="45.68655" lon="6.60623">
        <ele>1746.85</ele>
        <time>2012-03-04T12:54:02Z</time>
      </trkpt>
      <trkpt lat="45.68652" lon="6.6063">
        <ele>1746.85</ele>
        <time>2012-03-04T12:54:08Z</time>
      </trkpt>
      <trkpt lat="45.68651" lon="6.60636">
        <ele>1747.81</ele>
        <time>2012-03-04T12:54:13Z</time>
      </trkpt>
      <trkpt lat="45.6865" lon="6.60641">
        <ele>1748.29</ele>
        <time>2012-03-04T12:54:17Z</time>
      </trkpt>
      <trkpt lat="45.68647" lon="6.60646">
        <ele>1748.29</ele>
        <time>2012-03-04T12:54:22Z</time>
      </trkpt>
      <trkpt lat="45.68638" lon="6.60657">
        <ele>1748.29</ele>
        <time>2012-03-04T12:54:33Z</time>
      </trkpt>
      <trkpt lat="45.68633" lon="6.60663">
        <ele>1748.78</ele>
        <time>2012-03-04T12:54:39Z</time>
      </trkpt>
      <trkpt lat="45.68631" lon="6.60665">
        <ele>1748.78</ele>
        <time>2012-03-04T12:54:41Z</time>
      </trkpt>
      <trkpt lat="45.68629" lon="6.60667">
        <ele>1748.29</ele>
        <time>2012-03-04T12:54:44Z</time>
      </trkpt>
      <trkpt lat="45.6862" lon="6.6068">
        <ele>1748.78</ele>
        <time>2012-03-04T12:55:01Z</time>
      </trkpt>
      <trkpt lat="45.68618" lon="6.60686">
        <ele>1749.26</ele>
        <time>2012-03-04T12:55:09Z</time>
      </trkpt>
      <trkpt lat="45.68615" lon="6.60692">
        <ele>1749.74</ele>
        <time>2012-03-04T12:55:14Z</time>
      </trkpt>
      <trkpt lat="45.68608" lon="6.607">
        <ele>1749.26</ele>
        <time>2012-03-04T12:55:23Z</time>
      </trkpt>
      <trkpt lat="45.68607" lon="6.60703">
        <ele>1750.22</ele>
        <time>2012-03-04T12:55:25Z</time>
      </trkpt>
      <trkpt lat="45.68603" lon="6.60706">
        <ele>1750.7</ele>
        <time>2012-03-04T12:55:30Z</time>
      </trkpt>
      <trkpt lat="45.68599" lon="6.6071">
        <ele>1749.74</ele>
        <time>2012-03-04T12:55:34Z</time>
      </trkpt>
      <trkpt lat="45.68597" lon="6.60712">
        <ele>1750.7</ele>
        <time>2012-03-04T12:55:37Z</time>
      </trkpt>
      <trkpt lat="45.68595" lon="6.60715">
        <ele>1750.7</ele>
        <time>2012-03-04T12:55:40Z</time>
      </trkpt>
      <trkpt lat="45.68588" lon="6.60726">
        <ele>1750.22</ele>
        <time>2012-03-04T12:55:54Z</time>
      </trkpt>
      <trkpt lat="45.68586" lon="6.60731">
        <ele>1750.22</ele>
        <time>2012-03-04T12:55:59Z</time>
      </trkpt>
      <trkpt lat="45.68581" lon="6.6074">
        <ele>1749.26</ele>
        <time>2012-03-04T12:56:19Z</time>
      </trkpt>
      <trkpt lat="45.68581" lon="6.60739">
        <ele>1749.26</ele>
        <time>2012-03-04T12:57:33Z</time>
      </trkpt>
      <trkpt lat="45.68582" lon="6.60735">
        <ele>1748.78</ele>
        <time>2012-03-04T12:59:38Z</time>
      </trkpt>
      <trkpt lat="45.68586" lon="6.60728">
        <ele>1749.74</ele>
        <time>2012-03-04T13:01:46Z</time>
      </trkpt>
      <trkpt lat="45.68588" lon="6.60722">
        <ele>1749.74</ele>
        <time>2012-03-04T13:02:02Z</time>
      </trkpt>
      <trkpt lat="45.68589" lon="6.60719">
        <ele>1750.7</ele>
        <time>2012-03-04T13:02:10Z</time>
      </trkpt>
      <trkpt lat="45.68594" lon="6.60714">
        <ele>1751.66</ele>
        <time>2012-03-04T13:02:16Z</time>
      </trkpt>
      <trkpt lat="45.68598" lon="6.60709">
        <ele>1752.14</ele>
        <time>2012-03-04T13:02:21Z</time>
      </trkpt>
      <trkpt lat="45.686" lon="6.60709">
        <ele>1751.66</ele>
        <time>2012-03-04T13:02:23Z</time>
      </trkpt>
      <trkpt lat="45.68612" lon="6.60696">
        <ele>1750.22</ele>
        <time>2012-03-04T13:02:38Z</time>
      </trkpt>
      <trkpt lat="45.68615" lon="6.60692">
        <ele>1749.74</ele>
        <time>2012-03-04T13:02:42Z</time>
      </trkpt>
      <trkpt lat="45.68616" lon="6.6069">
        <ele>1749.74</ele>
        <time>2012-03-04T13:02:44Z</time>
      </trkpt>
      <trkpt lat="45.68617" lon="6.60688">
        <ele>1749.26</ele>
        <time>2012-03-04T13:02:46Z</time>
      </trkpt>
      <trkpt lat="45.68621" lon="6.60678">
        <ele>1749.74</ele>
        <time>2012-03-04T13:02:54Z</time>
      </trkpt>
      <trkpt lat="45.68624" lon="6.60671">
        <ele>1749.26</ele>
        <time>2012-03-04T13:03:00Z</time>
      </trkpt>
      <trkpt lat="45.68626" lon="6.60667">
        <ele>1748.29</ele>
        <time>2012-03-04T13:03:03Z</time>
      </trkpt>
      <trkpt lat="45.68629" lon="6.60663">
        <ele>1749.74</ele>
        <time>2012-03-04T13:03:07Z</time>
      </trkpt>
      <trkpt lat="45.68631" lon="6.60661">
        <ele>1748.78</ele>
        <time>2012-03-04T13:03:09Z</time>
      </trkpt>
      <trkpt lat="45.68633" lon="6.60658">
        <ele>1747.81</ele>
        <time>2012-03-04T13:03:12Z</time>
      </trkpt>
      <trkpt lat="45.68639" lon="6.60652">
        <ele>1748.29</ele>
        <time>2012-03-04T13:03:19Z</time>
      </trkpt>
      <trkpt lat="45.68649" lon="6.60636">
        <ele>1748.29</ele>
        <time>2012-03-04T13:03:35Z</time>
      </trkpt>
      <trkpt lat="45.6865" lon="6.60634">
        <ele>1748.29</ele>
        <time>2012-03-04T13:03:37Z</time>
      </trkpt>
      <trkpt lat="45.6865" lon="6.6063">
        <ele>1748.29</ele>
        <time>2012-03-04T13:03:39Z</time>
      </trkpt>
      <trkpt lat="45.68652" lon="6.60625">
        <ele>1747.81</ele>
        <time>2012-03-04T13:03:44Z</time>
      </trkpt>
      <trkpt lat="45.68655" lon="6.60621">
        <ele>1746.85</ele>
        <time>2012-03-04T13:03:48Z</time>
      </trkpt>
      <trkpt lat="45.68659" lon="6.60619">
        <ele>1747.33</ele>
        <time>2012-03-04T13:03:53Z</time>
      </trkpt>
      <trkpt lat="45.68672" lon="6.60608">
        <ele>1746.85</ele>
        <time>2012-03-04T13:04:07Z</time>
      </trkpt>
      <trkpt lat="45.68676" lon="6.60604">
        <ele>1746.85</ele>
        <time>2012-03-04T13:04:12Z</time>
      </trkpt>
      <trkpt lat="45.68678" lon="6.60597">
        <ele>1745.41</ele>
        <time>2012-03-04T13:04:16Z</time>
      </trkpt>
      <trkpt lat="45.68683" lon="6.60589">
        <ele>1745.89</ele>
        <time>2012-03-04T13:04:23Z</time>
      </trkpt>
      <trkpt lat="45.68685" lon="6.60587">
        <ele>1746.85</ele>
        <time>2012-03-04T13:04:26Z</time>
      </trkpt>
      <trkpt lat="45.68687" lon="6.60586">
        <ele>1745.41</ele>
        <time>2012-03-04T13:04:28Z</time>
      </trkpt>
      <trkpt lat="45.68691" lon="6.60582">
        <ele>1746.37</ele>
        <time>2012-03-04T13:04:33Z</time>
      </trkpt>
      <trkpt lat="45.68696" lon="6.60574">
        <ele>1745.89</ele>
        <time>2012-03-04T13:04:39Z</time>
      </trkpt>
      <trkpt lat="45.68699" lon="6.6057">
        <ele>1745.41</ele>
        <time>2012-03-04T13:04:43Z</time>
      </trkpt>
      <trkpt lat="45.687" lon="6.60568">
        <ele>1746.37</ele>
        <time>2012-03-04T13:04:45Z</time>
      </trkpt>
      <trkpt lat="45.68703" lon="6.60565">
        <ele>1745.41</ele>
        <time>2012-03-04T13:04:48Z</time>
      </trkpt>
      <trkpt lat="45.68706" lon="6.6056">
        <ele>1745.89</ele>
        <time>2012-03-04T13:04:52Z</time>
      </trkpt>
      <trkpt lat="45.68708" lon="6.60553">
        <ele>1744.93</ele>
        <time>2012-03-04T13:04:57Z</time>
      </trkpt>
      <trkpt lat="45.6871" lon="6.60551">
        <ele>1744.93</ele>
        <time>2012-03-04T13:04:59Z</time>
      </trkpt>
      <trkpt lat="45.68715" lon="6.60544">
        <ele>1744.45</ele>
        <time>2012-03-04T13:05:05Z</time>
      </trkpt>
      <trkpt lat="45.68722" lon="6.60531">
        <ele>1743.97</ele>
        <time>2012-03-04T13:05:24Z</time>
      </trkpt>
      <trkpt lat="45.68724" lon="6.60525">
        <ele>1743.97</ele>
        <time>2012-03-04T13:05:28Z</time>
      </trkpt>
      <trkpt lat="45.68727" lon="6.60497">
        <ele>1743.49</ele>
        <time>2012-03-04T13:05:45Z</time>
      </trkpt>
      <trkpt lat="45.68728" lon="6.60489">
        <ele>1743.97</ele>
        <time>2012-03-04T13:05:51Z</time>
      </trkpt>
      <trkpt lat="45.68729" lon="6.60484">
        <ele>1743.49</ele>
        <time>2012-03-04T13:05:54Z</time>
      </trkpt>
      <trkpt lat="45.68732" lon="6.60459">
        <ele>1743.97</ele>
        <time>2012-03-04T13:06:10Z</time>
      </trkpt>
      <trkpt lat="45.68733" lon="6.60454">
        <ele>1743.97</ele>
        <time>2012-03-04T13:06:14Z</time>
      </trkpt>
      <trkpt lat="45.68741" lon="6.60433">
        <ele>1743.01</ele>
        <time>2012-03-04T13:06:28Z</time>
      </trkpt>
      <trkpt lat="45.68742" lon="6.60431">
        <ele>1742.53</ele>
        <time>2012-03-04T13:06:30Z</time>
      </trkpt>
      <trkpt lat="45.68743" lon="6.60428">
        <ele>1742.53</ele>
        <time>2012-03-04T13:06:32Z</time>
      </trkpt>
      <trkpt lat="45.68745" lon="6.60418">
        <ele>1742.05</ele>
        <time>2012-03-04T13:06:38Z</time>
      </trkpt>
      <trkpt lat="45.68747" lon="6.60413">
        <ele>1741.08</ele>
        <time>2012-03-04T13:06:42Z</time>
      </trkpt>
      <trkpt lat="45.6875" lon="6.60407">
        <ele>1740.6</ele>
        <time>2012-03-04T13:06:46Z</time>
      </trkpt>
      <trkpt lat="45.68752" lon="6.60403">
        <ele>1740.12</ele>
        <time>2012-03-04T13:06:49Z</time>
      </trkpt>
      <trkpt lat="45.68764" lon="6.60393">
        <ele>1741.57</ele>
        <time>2012-03-04T13:07:01Z</time>
      </trkpt>
      <trkpt lat="45.68773" lon="6.60389">
        <ele>1741.08</ele>
        <time>2012-03-04T13:07:09Z</time>
      </trkpt>
      <trkpt lat="45.6879" lon="6.6038">
        <ele>1741.08</ele>
        <time>2012-03-04T13:07:27Z</time>
      </trkpt>
      <trkpt lat="45.68792" lon="6.60379">
        <ele>1740.6</ele>
        <time>2012-03-04T13:07:29Z</time>
      </trkpt>
      <trkpt lat="45.68794" lon="6.60379">
        <ele>1741.08</ele>
        <time>2012-03-04T13:07:31Z</time>
      </trkpt>
      <trkpt lat="45.68795" lon="6.60377">
        <ele>1740.6</ele>
        <time>2012-03-04T13:07:33Z</time>
      </trkpt>
      <trkpt lat="45.68808" lon="6.60365">
        <ele>1738.68</ele>
        <time>2012-03-04T13:07:47Z</time>
      </trkpt>
      <trkpt lat="45.68811" lon="6.60356">
        <ele>1739.64</ele>
        <time>2012-03-04T13:08:08Z</time>
      </trkpt>
      <trkpt lat="45.68811" lon="6.60355">
        <ele>1740.12</ele>
        <time>2012-03-04T13:08:41Z</time>
      </trkpt>
      <trkpt lat="45.68812" lon="6.60355">
        <ele>1740.12</ele>
        <time>2012-03-04T13:09:23Z</time>
      </trkpt>
      <trkpt lat="45.68816" lon="6.60343">
        <ele>1739.16</ele>
        <time>2012-03-04T13:09:48Z</time>
      </trkpt>
      <trkpt lat="45.6882" lon="6.60327">
        <ele>1738.68</ele>
        <time>2012-03-04T13:10:04Z</time>
      </trkpt>
      <trkpt lat="45.68823" lon="6.60316">
        <ele>1738.68</ele>
        <time>2012-03-04T13:10:13Z</time>
      </trkpt>
      <trkpt lat="45.68823" lon="6.60313">
        <ele>1738.68</ele>
        <time>2012-03-04T13:10:15Z</time>
      </trkpt>
      <trkpt lat="45.68825" lon="6.60311">
        <ele>1738.68</ele>
        <time>2012-03-04T13:10:17Z</time>
      </trkpt>
      <trkpt lat="45.68828" lon="6.60304">
        <ele>1738.2</ele>
        <time>2012-03-04T13:10:22Z</time>
      </trkpt>
      <trkpt lat="45.68835" lon="6.60296">
        <ele>1738.68</ele>
        <time>2012-03-04T13:10:33Z</time>
      </trkpt>
      <trkpt lat="45.68844" lon="6.60287">
        <ele>1738.68</ele>
        <time>2012-03-04T13:10:44Z</time>
      </trkpt>
      <trkpt lat="45.68846" lon="6.60285">
        <ele>1738.68</ele>
        <time>2012-03-04T13:10:46Z</time>
      </trkpt>
      <trkpt lat="45.6885" lon="6.6028">
        <ele>1739.16</ele>
        <time>2012-03-04T13:10:51Z</time>
      </trkpt>
      <trkpt lat="45.68862" lon="6.60271">
        <ele>1739.16</ele>
        <time>2012-03-04T13:11:05Z</time>
      </trkpt>
      <trkpt lat="45.68869" lon="6.60265">
        <ele>1738.68</ele>
        <time>2012-03-04T13:11:13Z</time>
      </trkpt>
      <trkpt lat="45.68873" lon="6.60258">
        <ele>1739.64</ele>
        <time>2012-03-04T13:11:20Z</time>
      </trkpt>
      <trkpt lat="45.68877" lon="6.60245">
        <ele>1738.2</ele>
        <time>2012-03-04T13:11:30Z</time>
      </trkpt>
      <trkpt lat="45.68877" lon="6.60242">
        <ele>1740.12</ele>
        <time>2012-03-04T13:11:32Z</time>
      </trkpt>
      <trkpt lat="45.68878" lon="6.60239">
        <ele>1738.68</ele>
        <time>2012-03-04T13:11:34Z</time>
      </trkpt>
      <trkpt lat="45.68883" lon="6.60214">
        <ele>1738.68</ele>
        <time>2012-03-04T13:11:51Z</time>
      </trkpt>
      <trkpt lat="45.68884" lon="6.60206">
        <ele>1738.68</ele>
        <time>2012-03-04T13:11:56Z</time>
      </trkpt>
      <trkpt lat="45.68885" lon="6.60198">
        <ele>1738.2</ele>
        <time>2012-03-04T13:12:01Z</time>
      </trkpt>
      <trkpt lat="45.68887" lon="6.60193">
        <ele>1738.68</ele>
        <time>2012-03-04T13:12:04Z</time>
      </trkpt>
      <trkpt lat="45.68887" lon="6.60182">
        <ele>1737.24</ele>
        <time>2012-03-04T13:12:11Z</time>
      </trkpt>
      <trkpt lat="45.68889" lon="6.60167">
        <ele>1738.2</ele>
        <time>2012-03-04T13:12:22Z</time>
      </trkpt>
      <trkpt lat="45.68889" lon="6.60164">
        <ele>1737.72</ele>
        <time>2012-03-04T13:12:24Z</time>
      </trkpt>
      <trkpt lat="45.68889" lon="6.60161">
        <ele>1737.72</ele>
        <time>2012-03-04T13:12:26Z</time>
      </trkpt>
      <trkpt lat="45.6889" lon="6.60154">
        <ele>1737.72</ele>
        <time>2012-03-04T13:12:30Z</time>
      </trkpt>
      <trkpt lat="45.6889" lon="6.60151">
        <ele>1737.72</ele>
        <time>2012-03-04T13:12:32Z</time>
      </trkpt>
      <trkpt lat="45.68892" lon="6.60142">
        <ele>1737.72</ele>
        <time>2012-03-04T13:12:38Z</time>
      </trkpt>
      <trkpt lat="45.68891" lon="6.60135">
        <ele>1737.24</ele>
        <time>2012-03-04T13:12:43Z</time>
      </trkpt>
      <trkpt lat="45.68892" lon="6.60108">
        <ele>1737.24</ele>
        <time>2012-03-04T13:13:00Z</time>
      </trkpt>
      <trkpt lat="45.68894" lon="6.60093">
        <ele>1737.24</ele>
        <time>2012-03-04T13:13:09Z</time>
      </trkpt>
      <trkpt lat="45.689" lon="6.60084">
        <ele>1735.32</ele>
        <time>2012-03-04T13:13:17Z</time>
      </trkpt>
      <trkpt lat="45.68905" lon="6.60078">
        <ele>1735.32</ele>
        <time>2012-03-04T13:13:23Z</time>
      </trkpt>
      <trkpt lat="45.68907" lon="6.60076">
        <ele>1734.36</ele>
        <time>2012-03-04T13:13:25Z</time>
      </trkpt>
      <trkpt lat="45.68908" lon="6.60074">
        <ele>1735.8</ele>
        <time>2012-03-04T13:13:27Z</time>
      </trkpt>
      <trkpt lat="45.68919" lon="6.60067">
        <ele>1734.36</ele>
        <time>2012-03-04T13:13:37Z</time>
      </trkpt>
      <trkpt lat="45.68922" lon="6.60065">
        <ele>1734.36</ele>
        <time>2012-03-04T13:13:40Z</time>
      </trkpt>
      <trkpt lat="45.68929" lon="6.6006">
        <ele>1733.88</ele>
        <time>2012-03-04T13:13:47Z</time>
      </trkpt>
      <trkpt lat="45.68943" lon="6.6005">
        <ele>1733.39</ele>
        <time>2012-03-04T13:14:01Z</time>
      </trkpt>
      <trkpt lat="45.68949" lon="6.60046">
        <ele>1731.47</ele>
        <time>2012-03-04T13:14:06Z</time>
      </trkpt>
      <trkpt lat="45.68953" lon="6.60041">
        <ele>1730.51</ele>
        <time>2012-03-04T13:14:10Z</time>
      </trkpt>
      <trkpt lat="45.68955" lon="6.60037">
        <ele>1731.95</ele>
        <time>2012-03-04T13:14:13Z</time>
      </trkpt>
      <trkpt lat="45.68964" lon="6.6002">
        <ele>1730.99</ele>
        <time>2012-03-04T13:14:26Z</time>
      </trkpt>
      <trkpt lat="45.68974" lon="6.59997">
        <ele>1729.55</ele>
        <time>2012-03-04T13:14:43Z</time>
      </trkpt>
      <trkpt lat="45.68974" lon="6.59996">
        <ele>1728.59</ele>
        <time>2012-03-04T13:14:44Z</time>
      </trkpt>
      <trkpt lat="45.68979" lon="6.59985">
        <ele>1728.11</ele>
        <time>2012-03-04T13:14:52Z</time>
      </trkpt>
      <trkpt lat="45.68987" lon="6.59964">
        <ele>1726.18</ele>
        <time>2012-03-04T13:15:07Z</time>
      </trkpt>
      <trkpt lat="45.68989" lon="6.59954">
        <ele>1725.22</ele>
        <time>2012-03-04T13:15:14Z</time>
      </trkpt>
      <trkpt lat="45.68993" lon="6.59938">
        <ele>1724.26</ele>
        <time>2012-03-04T13:15:25Z</time>
      </trkpt>
      <trkpt lat="45.68995" lon="6.5993">
        <ele>1723.78</ele>
        <time>2012-03-04T13:15:30Z</time>
      </trkpt>
      <trkpt lat="45.68997" lon="6.59922">
        <ele>1723.3</ele>
        <time>2012-03-04T13:15:35Z</time>
      </trkpt>
      <trkpt lat="45.69" lon="6.59894">
        <ele>1721.38</ele>
        <time>2012-03-04T13:15:54Z</time>
      </trkpt>
      <trkpt lat="45.68998" lon="6.59883">
        <ele>1720.9</ele>
        <time>2012-03-04T13:16:01Z</time>
      </trkpt>
      <trkpt lat="45.68998" lon="6.59879">
        <ele>1720.42</ele>
        <time>2012-03-04T13:16:03Z</time>
      </trkpt>
      <trkpt lat="45.68999" lon="6.59871">
        <ele>1720.42</ele>
        <time>2012-03-04T13:16:09Z</time>
      </trkpt>
      <trkpt lat="45.68999" lon="6.59867">
        <ele>1719.46</ele>
        <time>2012-03-04T13:16:11Z</time>
      </trkpt>
      <trkpt lat="45.68998" lon="6.59852">
        <ele>1717.53</ele>
        <time>2012-03-04T13:16:21Z</time>
      </trkpt>
      <trkpt lat="45.68999" lon="6.59844">
        <ele>1717.53</ele>
        <time>2012-03-04T13:16:26Z</time>
      </trkpt>
      <trkpt lat="45.68999" lon="6.5984">
        <ele>1718.01</ele>
        <time>2012-03-04T13:16:38Z</time>
      </trkpt>
      <trkpt lat="45.69008" lon="6.59827">
        <ele>1717.05</ele>
        <time>2012-03-04T13:16:53Z</time>
      </trkpt>
      <trkpt lat="45.69009" lon="6.59825">
        <ele>1717.05</ele>
        <time>2012-03-04T13:17:39Z</time>
      </trkpt>
      <trkpt lat="45.6901" lon="6.59824">
        <ele>1715.61</ele>
        <time>2012-03-04T13:18:01Z</time>
      </trkpt>
      <trkpt lat="45.6901" lon="6.59825">
        <ele>1716.57</ele>
        <time>2012-03-04T13:19:04Z</time>
      </trkpt>
      <trkpt lat="45.6901" lon="6.59825">
        <ele>1715.61</ele>
        <time>2012-03-04T13:19:22Z</time>
      </trkpt>
      <trkpt lat="45.6901" lon="6.59826">
        <ele>1717.05</ele>
        <time>2012-03-04T13:19:33Z</time>
      </trkpt>
      <trkpt lat="45.6901" lon="6.59826">
        <ele>1717.05</ele>
        <time>2012-03-04T13:19:54Z</time>
      </trkpt>
      <trkpt lat="45.6901" lon="6.59825">
        <ele>1716.57</ele>
        <time>2012-03-04T13:20:00Z</time>
      </trkpt>
      <trkpt lat="45.69018" lon="6.59814">
        <ele>1716.09</ele>
        <time>2012-03-04T13:20:09Z</time>
      </trkpt>
      <trkpt lat="45.69026" lon="6.59813">
        <ele>1713.21</ele>
        <time>2012-03-04T13:20:17Z</time>
      </trkpt>
      <trkpt lat="45.6903" lon="6.59812">
        <ele>1714.17</ele>
        <time>2012-03-04T13:20:20Z</time>
      </trkpt>
      <trkpt lat="45.69034" lon="6.59811">
        <ele>1714.17</ele>
        <time>2012-03-04T13:20:24Z</time>
      </trkpt>
      <trkpt lat="45.69048" lon="6.59801">
        <ele>1713.21</ele>
        <time>2012-03-04T13:20:42Z</time>
      </trkpt>
      <trkpt lat="45.69051" lon="6.59802">
        <ele>1711.76</ele>
        <time>2012-03-04T13:20:50Z</time>
      </trkpt>
      <trkpt lat="45.69057" lon="6.59802">
        <ele>1711.28</ele>
        <time>2012-03-04T13:20:58Z</time>
      </trkpt>
      <trkpt lat="45.69064" lon="6.59788">
        <ele>1710.8</ele>
        <time>2012-03-04T13:21:13Z</time>
      </trkpt>
      <trkpt lat="45.69065" lon="6.59782">
        <ele>1711.28</ele>
        <time>2012-03-04T13:21:17Z</time>
      </trkpt>
      <trkpt lat="45.69068" lon="6.5977">
        <ele>1710.8</ele>
        <time>2012-03-04T13:21:25Z</time>
      </trkpt>
      <trkpt lat="45.6907" lon="6.59765">
        <ele>1710.32</ele>
        <time>2012-03-04T13:21:30Z</time>
      </trkpt>
      <trkpt lat="45.69073" lon="6.59748">
        <ele>1709.84</ele>
        <time>2012-03-04T13:21:41Z</time>
      </trkpt>
      <trkpt lat="45.69075" lon="6.59745">
        <ele>1709.84</ele>
        <time>2012-03-04T13:21:44Z</time>
      </trkpt>
      <trkpt lat="45.69076" lon="6.59741">
        <ele>1710.32</ele>
        <time>2012-03-04T13:21:47Z</time>
      </trkpt>
      <trkpt lat="45.69078" lon="6.59739">
        <ele>1710.32</ele>
        <time>2012-03-04T13:21:49Z</time>
      </trkpt>
      <trkpt lat="45.6908" lon="6.59734">
        <ele>1711.28</ele>
        <time>2012-03-04T13:21:54Z</time>
      </trkpt>
      <trkpt lat="45.69081" lon="6.59729">
        <ele>1710.32</ele>
        <time>2012-03-04T13:21:58Z</time>
      </trkpt>
      <trkpt lat="45.69084" lon="6.59721">
        <ele>1712.25</ele>
        <time>2012-03-04T13:22:07Z</time>
      </trkpt>
      <trkpt lat="45.69086" lon="6.59717">
        <ele>1712.25</ele>
        <time>2012-03-04T13:22:11Z</time>
      </trkpt>
      <trkpt lat="45.69088" lon="6.59709">
        <ele>1713.69</ele>
        <time>2012-03-04T13:22:19Z</time>
      </trkpt>
      <trkpt lat="45.69092" lon="6.59699">
        <ele>1715.13</ele>
        <time>2012-03-04T13:22:30Z</time>
      </trkpt>
      <trkpt lat="45.69092" lon="6.59696">
        <ele>1715.61</ele>
        <time>2012-03-04T13:22:32Z</time>
      </trkpt>
      <trkpt lat="45.69092" lon="6.59686">
        <ele>1716.57</ele>
        <time>2012-03-04T13:22:42Z</time>
      </trkpt>
      <trkpt lat="45.69089" lon="6.59678">
        <ele>1717.05</ele>
        <time>2012-03-04T13:22:50Z</time>
      </trkpt>
      <trkpt lat="45.69085" lon="6.59665">
        <ele>1718.01</ele>
        <time>2012-03-04T13:23:02Z</time>
      </trkpt>
      <trkpt lat="45.69085" lon="6.59662">
        <ele>1718.01</ele>
        <time>2012-03-04T13:23:04Z</time>
      </trkpt>
      <trkpt lat="45.69082" lon="6.59654">
        <ele>1719.46</ele>
        <time>2012-03-04T13:23:12Z</time>
      </trkpt>
      <trkpt lat="45.69081" lon="6.5965">
        <ele>1719.46</ele>
        <time>2012-03-04T13:23:17Z</time>
      </trkpt>
      <trkpt lat="45.69077" lon="6.59637">
        <ele>1719.94</ele>
        <time>2012-03-04T13:23:34Z</time>
      </trkpt>
      <trkpt lat="45.6907" lon="6.59626">
        <ele>1722.82</ele>
        <time>2012-03-04T13:23:51Z</time>
      </trkpt>
      <trkpt lat="45.69067" lon="6.59615">
        <ele>1723.78</ele>
        <time>2012-03-04T13:24:05Z</time>
      </trkpt>
      <trkpt lat="45.69064" lon="6.59604">
        <ele>1724.74</ele>
        <time>2012-03-04T13:24:14Z</time>
      </trkpt>
      <trkpt lat="45.69062" lon="6.59601">
        <ele>1725.7</ele>
        <time>2012-03-04T13:24:18Z</time>
      </trkpt>
      <trkpt lat="45.69059" lon="6.59593">
        <ele>1725.7</ele>
        <time>2012-03-04T13:24:26Z</time>
      </trkpt>
      <trkpt lat="45.69059" lon="6.59589">
        <ele>1725.7</ele>
        <time>2012-03-04T13:24:30Z</time>
      </trkpt>
      <trkpt lat="45.69056" lon="6.59572">
        <ele>1727.15</ele>
        <time>2012-03-04T13:24:47Z</time>
      </trkpt>
      <trkpt lat="45.69052" lon="6.59557">
        <ele>1729.07</ele>
        <time>2012-03-04T13:25:00Z</time>
      </trkpt>
      <trkpt lat="45.6905" lon="6.59547">
        <ele>1729.55</ele>
        <time>2012-03-04T13:25:09Z</time>
      </trkpt>
      <trkpt lat="45.69049" lon="6.59543">
        <ele>1729.07</ele>
        <time>2012-03-04T13:25:13Z</time>
      </trkpt>
      <trkpt lat="45.69048" lon="6.59536">
        <ele>1730.51</ele>
        <time>2012-03-04T13:25:21Z</time>
      </trkpt>
      <trkpt lat="45.69048" lon="6.5953">
        <ele>1730.99</ele>
        <time>2012-03-04T13:25:30Z</time>
      </trkpt>
      <trkpt lat="45.69045" lon="6.59516">
        <ele>1731.47</ele>
        <time>2012-03-04T13:25:48Z</time>
      </trkpt>
      <trkpt lat="45.69045" lon="6.59514">
        <ele>1731.95</ele>
        <time>2012-03-04T13:25:51Z</time>
      </trkpt>
      <trkpt lat="45.69042" lon="6.59501">
        <ele>1733.39</ele>
        <time>2012-03-04T13:26:08Z</time>
      </trkpt>
      <trkpt lat="45.69042" lon="6.59493">
        <ele>1733.88</ele>
        <time>2012-03-04T13:26:26Z</time>
      </trkpt>
      <trkpt lat="45.69041" lon="6.59485">
        <ele>1734.36</ele>
        <time>2012-03-04T13:27:01Z</time>
      </trkpt>
      <trkpt lat="45.69038" lon="6.5947">
        <ele>1735.8</ele>
        <time>2012-03-04T13:27:16Z</time>
      </trkpt>
      <trkpt lat="45.69038" lon="6.59455">
        <ele>1736.76</ele>
        <time>2012-03-04T13:27:33Z</time>
      </trkpt>
      <trkpt lat="45.69036" lon="6.59438">
        <ele>1738.68</ele>
        <time>2012-03-04T13:27:51Z</time>
      </trkpt>
      <trkpt lat="45.69034" lon="6.59433">
        <ele>1739.16</ele>
        <time>2012-03-04T13:27:58Z</time>
      </trkpt>
      <trkpt lat="45.69033" lon="6.5942">
        <ele>1740.12</ele>
        <time>2012-03-04T13:28:09Z</time>
      </trkpt>
      <trkpt lat="45.6903" lon="6.59404">
        <ele>1741.57</ele>
        <time>2012-03-04T13:28:24Z</time>
      </trkpt>
      <trkpt lat="45.6903" lon="6.59397">
        <ele>1741.57</ele>
        <time>2012-03-04T13:28:38Z</time>
      </trkpt>
      <trkpt lat="45.6903" lon="6.59393">
        <ele>1742.05</ele>
        <time>2012-03-04T13:28:41Z</time>
      </trkpt>
      <trkpt lat="45.69027" lon="6.59373">
        <ele>1743.01</ele>
        <time>2012-03-04T13:28:59Z</time>
      </trkpt>
      <trkpt lat="45.69026" lon="6.59369">
        <ele>1743.01</ele>
        <time>2012-03-04T13:29:02Z</time>
      </trkpt>
      <trkpt lat="45.69023" lon="6.59348">
        <ele>1743.49</ele>
        <time>2012-03-04T13:29:19Z</time>
      </trkpt>
      <trkpt lat="45.69023" lon="6.59345">
        <ele>1743.49</ele>
        <time>2012-03-04T13:29:21Z</time>
      </trkpt>
      <trkpt lat="45.69021" lon="6.59326">
        <ele>1743.01</ele>
        <time>2012-03-04T13:29:38Z</time>
      </trkpt>
      <trkpt lat="45.69018" lon="6.59307">
        <ele>1744.93</ele>
        <time>2012-03-04T13:29:55Z</time>
      </trkpt>
      <trkpt lat="45.69017" lon="6.59296">
        <ele>1745.89</ele>
        <time>2012-03-04T13:30:10Z</time>
      </trkpt>
      <trkpt lat="45.69017" lon="6.59287">
        <ele>1746.37</ele>
        <time>2012-03-04T13:30:18Z</time>
      </trkpt>
      <trkpt lat="45.69017" lon="6.59279">
        <ele>1746.85</ele>
        <time>2012-03-04T13:30:26Z</time>
      </trkpt>
      <trkpt lat="45.69019" lon="6.59265">
        <ele>1746.37</ele>
        <time>2012-03-04T13:30:38Z</time>
      </trkpt>
      <trkpt lat="45.69024" lon="6.59251">
        <ele>1748.29</ele>
        <time>2012-03-04T13:30:54Z</time>
      </trkpt>
      <trkpt lat="45.69029" lon="6.59233">
        <ele>1748.78</ele>
        <time>2012-03-04T13:31:09Z</time>
      </trkpt>
      <trkpt lat="45.69032" lon="6.59229">
        <ele>1748.29</ele>
        <time>2012-03-04T13:31:14Z</time>
      </trkpt>
      <trkpt lat="45.69039" lon="6.59218">
        <ele>1749.26</ele>
        <time>2012-03-04T13:31:29Z</time>
      </trkpt>
      <trkpt lat="45.69047" lon="6.59204">
        <ele>1749.74</ele>
        <time>2012-03-04T13:31:51Z</time>
      </trkpt>
      <trkpt lat="45.69056" lon="6.59192">
        <ele>1750.7</ele>
        <time>2012-03-04T13:32:08Z</time>
      </trkpt>
      <trkpt lat="45.69059" lon="6.59187">
        <ele>1749.74</ele>
        <time>2012-03-04T13:32:12Z</time>
      </trkpt>
      <trkpt lat="45.69062" lon="6.59184">
        <ele>1750.22</ele>
        <time>2012-03-04T13:32:16Z</time>
      </trkpt>
      <trkpt lat="45.69078" lon="6.59166">
        <ele>1749.26</ele>
        <time>2012-03-04T13:32:37Z</time>
      </trkpt>
      <trkpt lat="45.69091" lon="6.59149">
        <ele>1748.78</ele>
        <time>2012-03-04T13:32:53Z</time>
      </trkpt>
      <trkpt lat="45.69099" lon="6.5913">
        <ele>1748.29</ele>
        <time>2012-03-04T13:33:13Z</time>
      </trkpt>
      <trkpt lat="45.69104" lon="6.59115">
        <ele>1749.26</ele>
        <time>2012-03-04T13:33:28Z</time>
      </trkpt>
      <trkpt lat="45.69107" lon="6.5911">
        <ele>1748.78</ele>
        <time>2012-03-04T13:33:34Z</time>
      </trkpt>
      <trkpt lat="45.69121" lon="6.59096">
        <ele>1748.78</ele>
        <time>2012-03-04T13:33:52Z</time>
      </trkpt>
      <trkpt lat="45.69121" lon="6.59095">
        <ele>1748.78</ele>
        <time>2012-03-04T13:33:53Z</time>
      </trkpt>
      <trkpt lat="45.69132" lon="6.59074">
        <ele>1748.29</ele>
        <time>2012-03-04T13:34:11Z</time>
      </trkpt>
      <trkpt lat="45.69139" lon="6.5906">
        <ele>1748.29</ele>
        <time>2012-03-04T13:34:25Z</time>
      </trkpt>
      <trkpt lat="45.69153" lon="6.59047">
        <ele>1746.85</ele>
        <time>2012-03-04T13:34:44Z</time>
      </trkpt>
      <trkpt lat="45.69155" lon="6.59046">
        <ele>1747.33</ele>
        <time>2012-03-04T13:34:46Z</time>
      </trkpt>
      <trkpt lat="45.69157" lon="6.59046">
        <ele>1746.85</ele>
        <time>2012-03-04T13:34:48Z</time>
      </trkpt>
      <trkpt lat="45.69172" lon="6.59044">
        <ele>1744.93</ele>
        <time>2012-03-04T13:35:06Z</time>
      </trkpt>
      <trkpt lat="45.69182" lon="6.59037">
        <ele>1743.97</ele>
        <time>2012-03-04T13:35:17Z</time>
      </trkpt>
      <trkpt lat="45.69196" lon="6.59023">
        <ele>1743.49</ele>
        <time>2012-03-04T13:35:35Z</time>
      </trkpt>
      <trkpt lat="45.69196" lon="6.59023">
        <ele>1743.49</ele>
        <time>2012-03-04T13:35:36Z</time>
      </trkpt>
      <trkpt lat="45.69208" lon="6.59014">
        <ele>1743.97</ele>
        <time>2012-03-04T13:35:52Z</time>
      </trkpt>
      <trkpt lat="45.69215" lon="6.59004">
        <ele>1743.49</ele>
        <time>2012-03-04T13:36:02Z</time>
      </trkpt>
      <trkpt lat="45.69223" lon="6.58996">
        <ele>1743.97</ele>
        <time>2012-03-04T13:36:15Z</time>
      </trkpt>
      <trkpt lat="45.69238" lon="6.5898">
        <ele>1743.49</ele>
        <time>2012-03-04T13:36:35Z</time>
      </trkpt>
      <trkpt lat="45.6925" lon="6.58965">
        <ele>1743.97</ele>
        <time>2012-03-04T13:36:55Z</time>
      </trkpt>
      <trkpt lat="45.69251" lon="6.58965">
        <ele>1743.97</ele>
        <time>2012-03-04T13:36:56Z</time>
      </trkpt>
      <trkpt lat="45.69266" lon="6.58954">
        <ele>1744.45</ele>
        <time>2012-03-04T13:37:12Z</time>
      </trkpt>
      <trkpt lat="45.69278" lon="6.58943">
        <ele>1742.53</ele>
        <time>2012-03-04T13:37:29Z</time>
      </trkpt>
      <trkpt lat="45.69288" lon="6.58929">
        <ele>1742.05</ele>
        <time>2012-03-04T13:37:43Z</time>
      </trkpt>
      <trkpt lat="45.69292" lon="6.58924">
        <ele>1741.57</ele>
        <time>2012-03-04T13:37:48Z</time>
      </trkpt>
      <trkpt lat="45.69309" lon="6.58911">
        <ele>1741.08</ele>
        <time>2012-03-04T13:38:07Z</time>
      </trkpt>
      <trkpt lat="45.6931" lon="6.58911">
        <ele>1741.57</ele>
        <time>2012-03-04T13:38:09Z</time>
      </trkpt>
      <trkpt lat="45.69326" lon="6.589">
        <ele>1741.08</ele>
        <time>2012-03-04T13:38:27Z</time>
      </trkpt>
      <trkpt lat="45.69335" lon="6.58888">
        <ele>1742.53</ele>
        <time>2012-03-04T13:38:44Z</time>
      </trkpt>
      <trkpt lat="45.6935" lon="6.58874">
        <ele>1743.01</ele>
        <time>2012-03-04T13:39:05Z</time>
      </trkpt>
      <trkpt lat="45.69352" lon="6.58873">
        <ele>1743.01</ele>
        <time>2012-03-04T13:39:07Z</time>
      </trkpt>
      <trkpt lat="45.69365" lon="6.58869">
        <ele>1742.05</ele>
        <time>2012-03-04T13:39:23Z</time>
      </trkpt>
      <trkpt lat="45.6938" lon="6.58869">
        <ele>1741.57</ele>
        <time>2012-03-04T13:39:43Z</time>
      </trkpt>
      <trkpt lat="45.69384" lon="6.58865">
        <ele>1740.12</ele>
        <time>2012-03-04T13:39:48Z</time>
      </trkpt>
      <trkpt lat="45.69398" lon="6.5885">
        <ele>1740.12</ele>
        <time>2012-03-04T13:40:07Z</time>
      </trkpt>
      <trkpt lat="45.69402" lon="6.58843">
        <ele>1739.64</ele>
        <time>2012-03-04T13:40:15Z</time>
      </trkpt>
      <trkpt lat="45.69403" lon="6.58838">
        <ele>1740.12</ele>
        <time>2012-03-04T13:40:19Z</time>
      </trkpt>
      <trkpt lat="45.69405" lon="6.58831">
        <ele>1740.12</ele>
        <time>2012-03-04T13:40:26Z</time>
      </trkpt>
      <trkpt lat="45.69411" lon="6.58814">
        <ele>1739.16</ele>
        <time>2012-03-04T13:40:43Z</time>
      </trkpt>
      <trkpt lat="45.69412" lon="6.58811">
        <ele>1738.68</ele>
        <time>2012-03-04T13:40:45Z</time>
      </trkpt>
      <trkpt lat="45.69422" lon="6.58789">
        <ele>1736.76</ele>
        <time>2012-03-04T13:41:05Z</time>
      </trkpt>
      <trkpt lat="45.69427" lon="6.58776">
        <ele>1733.88</ele>
        <time>2012-03-04T13:41:20Z</time>
      </trkpt>
      <trkpt lat="45.69431" lon="6.58765">
        <ele>1733.39</ele>
        <time>2012-03-04T13:41:31Z</time>
      </trkpt>
      <trkpt lat="45.69432" lon="6.58762">
        <ele>1732.91</ele>
        <time>2012-03-04T13:41:33Z</time>
      </trkpt>
      <trkpt lat="45.69433" lon="6.5876">
        <ele>1733.39</ele>
        <time>2012-03-04T13:41:35Z</time>
      </trkpt>
      <trkpt lat="45.69434" lon="6.58757">
        <ele>1733.39</ele>
        <time>2012-03-04T13:41:37Z</time>
      </trkpt>
      <trkpt lat="45.69443" lon="6.58742">
        <ele>1729.55</ele>
        <time>2012-03-04T13:41:55Z</time>
      </trkpt>
      <trkpt lat="45.69448" lon="6.58731">
        <ele>1728.11</ele>
        <time>2012-03-04T13:42:07Z</time>
      </trkpt>
      <trkpt lat="45.69449" lon="6.58724">
        <ele>1726.67</ele>
        <time>2012-03-04T13:42:14Z</time>
      </trkpt>
      <trkpt lat="45.69456" lon="6.58701">
        <ele>1724.74</ele>
        <time>2012-03-04T13:42:32Z</time>
      </trkpt>
      <trkpt lat="45.69458" lon="6.5869">
        <ele>1724.26</ele>
        <time>2012-03-04T13:42:40Z</time>
      </trkpt>
      <trkpt lat="45.69457" lon="6.58665">
        <ele>1721.86</ele>
        <time>2012-03-04T13:42:59Z</time>
      </trkpt>
      <trkpt lat="45.69456" lon="6.58661">
        <ele>1720.9</ele>
        <time>2012-03-04T13:43:01Z</time>
      </trkpt>
      <trkpt lat="45.69456" lon="6.58657">
        <ele>1720.9</ele>
        <time>2012-03-04T13:43:04Z</time>
      </trkpt>
      <trkpt lat="45.69458" lon="6.58641">
        <ele>1718.49</ele>
        <time>2012-03-04T13:43:21Z</time>
      </trkpt>
      <trkpt lat="45.69463" lon="6.58631">
        <ele>1716.57</ele>
        <time>2012-03-04T13:43:29Z</time>
      </trkpt>
      <trkpt lat="45.69468" lon="6.58619">
        <ele>1715.13</ele>
        <time>2012-03-04T13:43:42Z</time>
      </trkpt>
      <trkpt lat="45.69475" lon="6.5861">
        <ele>1713.21</ele>
        <time>2012-03-04T13:43:51Z</time>
      </trkpt>
      <trkpt lat="45.69475" lon="6.58607">
        <ele>1714.17</ele>
        <time>2012-03-04T13:43:53Z</time>
      </trkpt>
      <trkpt lat="45.69477" lon="6.58588">
        <ele>1712.25</ele>
        <time>2012-03-04T13:44:05Z</time>
      </trkpt>
      <trkpt lat="45.69483" lon="6.5856">
        <ele>1710.32</ele>
        <time>2012-03-04T13:44:25Z</time>
      </trkpt>
      <trkpt lat="45.69487" lon="6.58543">
        <ele>1709.84</ele>
        <time>2012-03-04T13:44:37Z</time>
      </trkpt>
      <trkpt lat="45.69492" lon="6.5852">
        <ele>1707.92</ele>
        <time>2012-03-04T13:44:54Z</time>
      </trkpt>
      <trkpt lat="45.695" lon="6.58509">
        <ele>1708.4</ele>
        <time>2012-03-04T13:45:09Z</time>
      </trkpt>
      <trkpt lat="45.69503" lon="6.58505">
        <ele>1699.75</ele>
        <time>2012-03-04T13:45:19Z</time>
      </trkpt>
      <trkpt lat="45.69503" lon="6.58505">
        <ele>1709.36</ele>
        <time>2012-03-04T13:45:20Z</time>
      </trkpt>
      <trkpt lat="45.69504" lon="6.585">
        <ele>1709.36</ele>
        <time>2012-03-04T13:45:44Z</time>
      </trkpt>
      <trkpt lat="45.69506" lon="6.58498">
        <ele>1708.88</ele>
        <time>2012-03-04T13:46:04Z</time>
      </trkpt>
      <trkpt lat="45.69508" lon="6.58499">
        <ele>1709.84</ele>
        <time>2012-03-04T13:46:38Z</time>
      </trkpt>
      <trkpt lat="45.69508" lon="6.58498">
        <ele>1710.32</ele>
        <time>2012-03-04T13:48:05Z</time>
      </trkpt>
      <trkpt lat="45.69508" lon="6.58499">
        <ele>1710.8</ele>
        <time>2012-03-04T13:48:52Z</time>
      </trkpt>
      <trkpt lat="45.69509" lon="6.58499">
        <ele>1698.79</ele>
        <time>2012-03-04T13:49:33Z</time>
      </trkpt>
      <trkpt lat="45.69509" lon="6.58499">
        <ele>1710.32</ele>
        <time>2012-03-04T13:49:34Z</time>
      </trkpt>
      <trkpt lat="45.69509" lon="6.58499">
        <ele>1704.07</ele>
        <time>2012-03-04T13:49:38Z</time>
      </trkpt>
      <trkpt lat="45.69509" lon="6.58499">
        <ele>1710.32</ele>
        <time>2012-03-04T13:49:39Z</time>
      </trkpt>
      <trkpt lat="45.69509" lon="6.58499">
        <ele>1709.84</ele>
        <time>2012-03-04T13:50:10Z</time>
      </trkpt>
      <trkpt lat="45.69506" lon="6.58497">
        <ele>1710.8</ele>
        <time>2012-03-04T13:50:29Z</time>
      </trkpt>
      <trkpt lat="45.69508" lon="6.58492">
        <ele>1710.32</ele>
        <time>2012-03-04T13:50:56Z</time>
      </trkpt>
      <trkpt lat="45.69508" lon="6.58482">
        <ele>1707.92</ele>
        <time>2012-03-04T13:51:14Z</time>
      </trkpt>
      <trkpt lat="45.69512" lon="6.58473">
        <ele>1704.55</ele>
        <time>2012-03-04T13:51:28Z</time>
      </trkpt>
      <trkpt lat="45.69514" lon="6.58476">
        <ele>1705.04</ele>
        <time>2012-03-04T13:51:53Z</time>
      </trkpt>
      <trkpt lat="45.69515" lon="6.58478">
        <ele>1703.59</ele>
        <time>2012-03-04T13:51:58Z</time>
      </trkpt>
      <trkpt lat="45.69519" lon="6.58486">
        <ele>1701.19</ele>
        <time>2012-03-04T13:52:16Z</time>
      </trkpt>
      <trkpt lat="45.69521" lon="6.58487">
        <ele>1700.71</ele>
        <time>2012-03-04T13:52:53Z</time>
      </trkpt>
      <trkpt lat="45.69524" lon="6.58485">
        <ele>1699.75</ele>
        <time>2012-03-04T13:53:58Z</time>
      </trkpt>
      <trkpt lat="45.69534" lon="6.58468">
        <ele>1694.94</ele>
        <time>2012-03-04T13:54:17Z</time>
      </trkpt>
      <trkpt lat="45.69542" lon="6.58458">
        <ele>1692.06</ele>
        <time>2012-03-04T13:54:33Z</time>
      </trkpt>
      <trkpt lat="45.69543" lon="6.58464">
        <ele>1691.1</ele>
        <time>2012-03-04T13:54:50Z</time>
      </trkpt>
      <trkpt lat="45.69546" lon="6.5847">
        <ele>1688.21</ele>
        <time>2012-03-04T13:55:10Z</time>
      </trkpt>
      <trkpt lat="45.69547" lon="6.58469">
        <ele>1686.29</ele>
        <time>2012-03-04T13:55:43Z</time>
      </trkpt>
      <trkpt lat="45.69549" lon="6.58473">
        <ele>1686.29</ele>
        <time>2012-03-04T13:56:03Z</time>
      </trkpt>
      <trkpt lat="45.6955" lon="6.58473">
        <ele>1685.81</ele>
        <time>2012-03-04T13:57:05Z</time>
      </trkpt>
      <trkpt lat="45.69551" lon="6.58483">
        <ele>1684.85</ele>
        <time>2012-03-04T13:58:20Z</time>
      </trkpt>
      <trkpt lat="45.69548" lon="6.585">
        <ele>1681.48</ele>
        <time>2012-03-04T13:58:35Z</time>
      </trkpt>
      <trkpt lat="45.69546" lon="6.58504">
        <ele>1680.04</ele>
        <time>2012-03-04T13:58:54Z</time>
      </trkpt>
      <trkpt lat="45.69546" lon="6.58509">
        <ele>1678.12</ele>
        <time>2012-03-04T13:59:00Z</time>
      </trkpt>
      <trkpt lat="45.69548" lon="6.58528">
        <ele>1677.64</ele>
        <time>2012-03-04T13:59:14Z</time>
      </trkpt>
      <trkpt lat="45.69553" lon="6.58523">
        <ele>1673.31</ele>
        <time>2012-03-04T13:59:30Z</time>
      </trkpt>
      <trkpt lat="45.69555" lon="6.58517">
        <ele>1672.35</ele>
        <time>2012-03-04T13:59:55Z</time>
      </trkpt>
      <trkpt lat="45.69556" lon="6.58519">
        <ele>1672.35</ele>
        <time>2012-03-04T14:00:58Z</time>
      </trkpt>
      <trkpt lat="45.69557" lon="6.58518">
        <ele>1671.39</ele>
        <time>2012-03-04T14:01:51Z</time>
      </trkpt>
      <trkpt lat="45.69562" lon="6.58506">
        <ele>1668.51</ele>
        <time>2012-03-04T14:02:02Z</time>
      </trkpt>
      <trkpt lat="45.69571" lon="6.58501">
        <ele>1666.1</ele>
        <time>2012-03-04T14:02:17Z</time>
      </trkpt>
      <trkpt lat="45.69574" lon="6.58501">
        <ele>1664.18</ele>
        <time>2012-03-04T14:02:33Z</time>
      </trkpt>
      <trkpt lat="45.6958" lon="6.5851">
        <ele>1662.74</ele>
        <time>2012-03-04T14:02:51Z</time>
      </trkpt>
      <trkpt lat="45.69581" lon="6.58507">
        <ele>1661.3</ele>
        <time>2012-03-04T14:03:12Z</time>
      </trkpt>
      <trkpt lat="45.69581" lon="6.58506">
        <ele>1661.78</ele>
        <time>2012-03-04T14:03:43Z</time>
      </trkpt>
      <trkpt lat="45.69585" lon="6.58501">
        <ele>1661.3</ele>
        <time>2012-03-04T14:03:47Z</time>
      </trkpt>
      <trkpt lat="45.69593" lon="6.58494">
        <ele>1657.93</ele>
        <time>2012-03-04T14:04:02Z</time>
      </trkpt>
      <trkpt lat="45.69596" lon="6.58485">
        <ele>1655.53</ele>
        <time>2012-03-04T14:04:22Z</time>
      </trkpt>
      <trkpt lat="45.69596" lon="6.58484">
        <ele>1656.01</ele>
        <time>2012-03-04T14:05:13Z</time>
      </trkpt>
      <trkpt lat="45.69599" lon="6.58474">
        <ele>1654.09</ele>
        <time>2012-03-04T14:06:29Z</time>
      </trkpt>
      <trkpt lat="45.69601" lon="6.58469">
        <ele>1652.64</ele>
        <time>2012-03-04T14:06:33Z</time>
      </trkpt>
      <trkpt lat="45.69601" lon="6.58466">
        <ele>1652.16</ele>
        <time>2012-03-04T14:07:01Z</time>
      </trkpt>
      <trkpt lat="45.69607" lon="6.58448">
        <ele>1649.28</ele>
        <time>2012-03-04T14:07:34Z</time>
      </trkpt>
      <trkpt lat="45.69613" lon="6.58429">
        <ele>1647.84</ele>
        <time>2012-03-04T14:07:50Z</time>
      </trkpt>
      <trkpt lat="45.69609" lon="6.58416">
        <ele>1645.43</ele>
        <time>2012-03-04T14:08:05Z</time>
      </trkpt>
      <trkpt lat="45.69611" lon="6.58408">
        <ele>1643.51</ele>
        <time>2012-03-04T14:08:11Z</time>
      </trkpt>
      <trkpt lat="45.69614" lon="6.58395">
        <ele>1642.55</ele>
        <time>2012-03-04T14:08:29Z</time>
      </trkpt>
      <trkpt lat="45.69615" lon="6.58391">
        <ele>1640.15</ele>
        <time>2012-03-04T14:08:32Z</time>
      </trkpt>
      <trkpt lat="45.69617" lon="6.58387">
        <ele>1641.11</ele>
        <time>2012-03-04T14:08:51Z</time>
      </trkpt>
      <trkpt lat="45.69633" lon="6.58369">
        <ele>1637.74</ele>
        <time>2012-03-04T14:09:09Z</time>
      </trkpt>
      <trkpt lat="45.69641" lon="6.58357">
        <ele>1634.38</ele>
        <time>2012-03-04T14:09:24Z</time>
      </trkpt>
      <trkpt lat="45.69654" lon="6.58346">
        <ele>1631.49</ele>
        <time>2012-03-04T14:09:40Z</time>
      </trkpt>
      <trkpt lat="45.6966" lon="6.5834">
        <ele>1626.69</ele>
        <time>2012-03-04T14:09:48Z</time>
      </trkpt>
      <trkpt lat="45.6966" lon="6.5834">
        <ele>1628.13</ele>
        <time>2012-03-04T14:10:40Z</time>
      </trkpt>
      <trkpt lat="45.6966" lon="6.5834">
        <ele>1627.65</ele>
        <time>2012-03-04T14:11:42Z</time>
      </trkpt>
      <trkpt lat="45.69661" lon="6.58355">
        <ele>1626.21</ele>
        <time>2012-03-04T14:11:53Z</time>
      </trkpt>
      <trkpt lat="45.69659" lon="6.58374">
        <ele>1623.8</ele>
        <time>2012-03-04T14:12:06Z</time>
      </trkpt>
      <trkpt lat="45.69662" lon="6.58398">
        <ele>1620.44</ele>
        <time>2012-03-04T14:12:24Z</time>
      </trkpt>
      <trkpt lat="45.69666" lon="6.58404">
        <ele>1619</ele>
        <time>2012-03-04T14:12:30Z</time>
      </trkpt>
      <trkpt lat="45.69674" lon="6.58405">
        <ele>1616.11</ele>
        <time>2012-03-04T14:12:43Z</time>
      </trkpt>
      <trkpt lat="45.69676" lon="6.58406">
        <ele>1615.15</ele>
        <time>2012-03-04T14:12:48Z</time>
      </trkpt>
      <trkpt lat="45.69681" lon="6.58407">
        <ele>1614.19</ele>
        <time>2012-03-04T14:13:08Z</time>
      </trkpt>
      <trkpt lat="45.69689" lon="6.58415">
        <ele>1612.27</ele>
        <time>2012-03-04T14:13:25Z</time>
      </trkpt>
      <trkpt lat="45.69692" lon="6.58419">
        <ele>1610.35</ele>
        <time>2012-03-04T14:13:48Z</time>
      </trkpt>
      <trkpt lat="45.69696" lon="6.58424">
        <ele>1607.46</ele>
        <time>2012-03-04T14:15:03Z</time>
      </trkpt>
      <trkpt lat="45.69701" lon="6.58427">
        <ele>1605.06</ele>
        <time>2012-03-04T14:15:22Z</time>
      </trkpt>
      <trkpt lat="45.69708" lon="6.58433">
        <ele>1602.17</ele>
        <time>2012-03-04T14:16:20Z</time>
      </trkpt>
      <trkpt lat="45.69715" lon="6.58437">
        <ele>1599.29</ele>
        <time>2012-03-04T14:16:30Z</time>
      </trkpt>
      <trkpt lat="45.69725" lon="6.5844">
        <ele>1596.89</ele>
        <time>2012-03-04T14:16:50Z</time>
      </trkpt>
      <trkpt lat="45.69725" lon="6.58437">
        <ele>1596.41</ele>
        <time>2012-03-04T14:17:08Z</time>
      </trkpt>
      <trkpt lat="45.69724" lon="6.58433">
        <ele>1595.93</ele>
        <time>2012-03-04T14:17:14Z</time>
      </trkpt>
      <trkpt lat="45.6973" lon="6.58429">
        <ele>1593.52</ele>
        <time>2012-03-04T14:17:27Z</time>
      </trkpt>
      <trkpt lat="45.69731" lon="6.58426">
        <ele>1592.08</ele>
        <time>2012-03-04T14:17:49Z</time>
      </trkpt>
      <trkpt lat="45.69731" lon="6.58425">
        <ele>1593.52</ele>
        <time>2012-03-04T14:18:59Z</time>
      </trkpt>
      <trkpt lat="45.69731" lon="6.58425">
        <ele>1592.56</ele>
        <time>2012-03-04T14:19:45Z</time>
      </trkpt>
      <trkpt lat="45.69734" lon="6.58422">
        <ele>1592.56</ele>
        <time>2012-03-04T14:20:15Z</time>
      </trkpt>
      <trkpt lat="45.69736" lon="6.58419">
        <ele>1590.64</ele>
        <time>2012-03-04T14:20:38Z</time>
      </trkpt>
      <trkpt lat="45.69743" lon="6.58425">
        <ele>1589.2</ele>
        <time>2012-03-04T14:21:10Z</time>
      </trkpt>
      <trkpt lat="45.69744" lon="6.58427">
        <ele>1588.24</ele>
        <time>2012-03-04T14:21:12Z</time>
      </trkpt>
      <trkpt lat="45.69748" lon="6.58432">
        <ele>1586.79</ele>
        <time>2012-03-04T14:21:37Z</time>
      </trkpt>
      <trkpt lat="45.69753" lon="6.58441">
        <ele>1584.87</ele>
        <time>2012-03-04T14:22:05Z</time>
      </trkpt>
      <trkpt lat="45.6976" lon="6.58454">
        <ele>1584.39</ele>
        <time>2012-03-04T14:22:21Z</time>
      </trkpt>
      <trkpt lat="45.69765" lon="6.58465">
        <ele>1582.47</ele>
        <time>2012-03-04T14:22:33Z</time>
      </trkpt>
      <trkpt lat="45.69775" lon="6.5846">
        <ele>1582.47</ele>
        <time>2012-03-04T14:22:49Z</time>
      </trkpt>
      <trkpt lat="45.69776" lon="6.58473">
        <ele>1581.51</ele>
        <time>2012-03-04T14:23:05Z</time>
      </trkpt>
      <trkpt lat="45.69779" lon="6.58471">
        <ele>1579.1</ele>
        <time>2012-03-04T14:23:26Z</time>
      </trkpt>
      <trkpt lat="45.69778" lon="6.58471">
        <ele>1578.62</ele>
        <time>2012-03-04T14:24:27Z</time>
      </trkpt>
      <trkpt lat="45.69779" lon="6.58468">
        <ele>1576.7</ele>
        <time>2012-03-04T14:24:57Z</time>
      </trkpt>
      <trkpt lat="45.6978" lon="6.58469">
        <ele>1577.18</ele>
        <time>2012-03-04T14:25:42Z</time>
      </trkpt>
      <trkpt lat="45.6978" lon="6.58469">
        <ele>1575.74</ele>
        <time>2012-03-04T14:26:11Z</time>
      </trkpt>
      <trkpt lat="45.69781" lon="6.5847">
        <ele>1575.26</ele>
        <time>2012-03-04T14:27:02Z</time>
      </trkpt>
      <trkpt lat="45.69781" lon="6.58467">
        <ele>1574.3</ele>
        <time>2012-03-04T14:27:54Z</time>
      </trkpt>
      <trkpt lat="45.69782" lon="6.58465">
        <ele>1572.85</ele>
        <time>2012-03-04T14:28:05Z</time>
      </trkpt>
      <trkpt lat="45.69782" lon="6.58465">
        <ele>1572.85</ele>
        <time>2012-03-04T14:28:37Z</time>
      </trkpt>
      <trkpt lat="45.69783" lon="6.58466">
        <ele>1572.37</ele>
        <time>2012-03-04T14:29:08Z</time>
      </trkpt>
      <trkpt lat="45.69788" lon="6.58461">
        <ele>1572.37</ele>
        <time>2012-03-04T14:29:26Z</time>
      </trkpt>
      <trkpt lat="45.69788" lon="6.58461">
        <ele>1572.37</ele>
        <time>2012-03-04T14:29:45Z</time>
      </trkpt>
      <trkpt lat="45.6979" lon="6.58459">
        <ele>1569.49</ele>
        <time>2012-03-04T14:30:02Z</time>
      </trkpt>
      <trkpt lat="45.69792" lon="6.5846">
        <ele>1567.09</ele>
        <time>2012-03-04T14:30:18Z</time>
      </trkpt>
      <trkpt lat="45.69791" lon="6.58454">
        <ele>1567.09</ele>
        <time>2012-03-04T14:30:32Z</time>
      </trkpt>
      <trkpt lat="45.69794" lon="6.5845">
        <ele>1564.68</ele>
        <time>2012-03-04T14:30:42Z</time>
      </trkpt>
      <trkpt lat="45.69797" lon="6.58446">
        <ele>1561.8</ele>
        <time>2012-03-04T14:30:50Z</time>
      </trkpt>
      <trkpt lat="45.69803" lon="6.58437">
        <ele>1559.4</ele>
        <time>2012-03-04T14:31:05Z</time>
      </trkpt>
      <trkpt lat="45.69806" lon="6.58435">
        <ele>1558.43</ele>
        <time>2012-03-04T14:31:22Z</time>
      </trkpt>
      <trkpt lat="45.69809" lon="6.58429">
        <ele>1556.03</ele>
        <time>2012-03-04T14:32:11Z</time>
      </trkpt>
      <trkpt lat="45.69812" lon="6.58427">
        <ele>1553.63</ele>
        <time>2012-03-04T14:32:34Z</time>
      </trkpt>
      <trkpt lat="45.69814" lon="6.58425">
        <ele>1551.71</ele>
        <time>2012-03-04T14:32:38Z</time>
      </trkpt>
      <trkpt lat="45.6982" lon="6.58422">
        <ele>1548.82</ele>
        <time>2012-03-04T14:32:58Z</time>
      </trkpt>
      <trkpt lat="45.69825" lon="6.58424">
        <ele>1545.46</ele>
        <time>2012-03-04T14:33:10Z</time>
      </trkpt>
      <trkpt lat="45.69829" lon="6.58428">
        <ele>1544.98</ele>
        <time>2012-03-04T14:33:32Z</time>
      </trkpt>
      <trkpt lat="45.69831" lon="6.58422">
        <ele>1543.53</ele>
        <time>2012-03-04T14:33:54Z</time>
      </trkpt>
      <trkpt lat="45.69833" lon="6.58411">
        <ele>1542.57</ele>
        <time>2012-03-04T14:34:11Z</time>
      </trkpt>
      <trkpt lat="45.69835" lon="6.58402">
        <ele>1542.09</ele>
        <time>2012-03-04T14:34:28Z</time>
      </trkpt>
      <trkpt lat="45.69837" lon="6.58391">
        <ele>1540.65</ele>
        <time>2012-03-04T14:34:44Z</time>
      </trkpt>
      <trkpt lat="45.69835" lon="6.58382">
        <ele>1540.65</ele>
        <time>2012-03-04T14:34:59Z</time>
      </trkpt>
      <trkpt lat="45.69838" lon="6.5838">
        <ele>1537.29</ele>
        <time>2012-03-04T14:35:20Z</time>
      </trkpt>
      <trkpt lat="45.69841" lon="6.58377">
        <ele>1535.36</ele>
        <time>2012-03-04T14:35:38Z</time>
      </trkpt>
      <trkpt lat="45.69842" lon="6.58371">
        <ele>1532.96</ele>
        <time>2012-03-04T14:35:58Z</time>
      </trkpt>
      <trkpt lat="45.69842" lon="6.5837">
        <ele>1530.08</ele>
        <time>2012-03-04T14:36:28Z</time>
      </trkpt>
      <trkpt lat="45.69842" lon="6.5837">
        <ele>1532.96</ele>
        <time>2012-03-04T14:36:29Z</time>
      </trkpt>
      <trkpt lat="45.69842" lon="6.5837">
        <ele>1532.48</ele>
        <time>2012-03-04T14:37:10Z</time>
      </trkpt>
      <trkpt lat="45.69841" lon="6.5836">
        <ele>1531.04</ele>
        <time>2012-03-04T14:37:29Z</time>
      </trkpt>
      <trkpt lat="45.69841" lon="6.58354">
        <ele>1528.63</ele>
        <time>2012-03-04T14:37:42Z</time>
      </trkpt>
      <trkpt lat="45.69843" lon="6.5835">
        <ele>1527.19</ele>
        <time>2012-03-04T14:37:58Z</time>
      </trkpt>
      <trkpt lat="45.69844" lon="6.58347">
        <ele>1524.79</ele>
        <time>2012-03-04T14:38:03Z</time>
      </trkpt>
      <trkpt lat="45.69845" lon="6.58349">
        <ele>1522.87</ele>
        <time>2012-03-04T14:38:07Z</time>
      </trkpt>
      <trkpt lat="45.69846" lon="6.58347">
        <ele>1521.9</ele>
        <time>2012-03-04T14:38:36Z</time>
      </trkpt>
      <trkpt lat="45.69855" lon="6.58341">
        <ele>1520.46</ele>
        <time>2012-03-04T14:38:56Z</time>
      </trkpt>
      <trkpt lat="45.69859" lon="6.58338">
        <ele>1518.54</ele>
        <time>2012-03-04T14:39:05Z</time>
      </trkpt>
      <trkpt lat="45.69862" lon="6.58336">
        <ele>1517.1</ele>
        <time>2012-03-04T14:39:21Z</time>
      </trkpt>
      <trkpt lat="45.69866" lon="6.58345">
        <ele>1514.21</ele>
        <time>2012-03-04T14:40:08Z</time>
      </trkpt>
      <trkpt lat="45.6987" lon="6.58348">
        <ele>1511.81</ele>
        <time>2012-03-04T14:40:18Z</time>
      </trkpt>
      <trkpt lat="45.69879" lon="6.58358">
        <ele>1508.45</ele>
        <time>2012-03-04T14:40:32Z</time>
      </trkpt>
      <trkpt lat="45.69889" lon="6.58367">
        <ele>1505.08</ele>
        <time>2012-03-04T14:40:46Z</time>
      </trkpt>
      <trkpt lat="45.69889" lon="6.58367">
        <ele>1505.56</ele>
        <time>2012-03-04T14:40:47Z</time>
      </trkpt>
      <trkpt lat="45.69895" lon="6.58375">
        <ele>1502.68</ele>
        <time>2012-03-04T14:41:06Z</time>
      </trkpt>
      <trkpt lat="45.69897" lon="6.5838">
        <ele>1499.79</ele>
        <time>2012-03-04T14:41:16Z</time>
      </trkpt>
      <trkpt lat="45.699" lon="6.58387">
        <ele>1496.91</ele>
        <time>2012-03-04T14:41:28Z</time>
      </trkpt>
      <trkpt lat="45.69902" lon="6.5839">
        <ele>1495.95</ele>
        <time>2012-03-04T14:41:31Z</time>
      </trkpt>
      <trkpt lat="45.69902" lon="6.58408">
        <ele>1494.99</ele>
        <time>2012-03-04T14:41:49Z</time>
      </trkpt>
      <trkpt lat="45.69903" lon="6.58419">
        <ele>1492.1</ele>
        <time>2012-03-04T14:42:07Z</time>
      </trkpt>
      <trkpt lat="45.69904" lon="6.58432">
        <ele>1490.66</ele>
        <time>2012-03-04T14:42:22Z</time>
      </trkpt>
      <trkpt lat="45.69905" lon="6.58439">
        <ele>1490.66</ele>
        <time>2012-03-04T14:42:47Z</time>
      </trkpt>
      <trkpt lat="45.69904" lon="6.58438">
        <ele>1489.7</ele>
        <time>2012-03-04T14:43:36Z</time>
      </trkpt>
      <trkpt lat="45.6991" lon="6.58441">
        <ele>1486.82</ele>
        <time>2012-03-04T14:43:52Z</time>
      </trkpt>
      <trkpt lat="45.69911" lon="6.58441">
        <ele>1483.93</ele>
        <time>2012-03-04T14:44:35Z</time>
      </trkpt>
      <trkpt lat="45.69911" lon="6.58441">
        <ele>1483.45</ele>
        <time>2012-03-04T14:44:39Z</time>
      </trkpt>
      <trkpt lat="45.69911" lon="6.58441">
        <ele>1481.53</ele>
        <time>2012-03-04T14:44:50Z</time>
      </trkpt>
      <trkpt lat="45.69913" lon="6.58438">
        <ele>1480.09</ele>
        <time>2012-03-04T14:45:09Z</time>
      </trkpt>
      <trkpt lat="45.69914" lon="6.58439">
        <ele>1478.65</ele>
        <time>2012-03-04T14:45:27Z</time>
      </trkpt>
      <trkpt lat="45.69919" lon="6.58438">
        <ele>1475.76</ele>
        <time>2012-03-04T14:45:46Z</time>
      </trkpt>
      <trkpt lat="45.69924" lon="6.58444">
        <ele>1472.4</ele>
        <time>2012-03-04T14:45:57Z</time>
      </trkpt>
      <trkpt lat="45.69926" lon="6.58446">
        <ele>1471.44</ele>
        <time>2012-03-04T14:46:01Z</time>
      </trkpt>
      <trkpt lat="45.69932" lon="6.58447">
        <ele>1469.99</ele>
        <time>2012-03-04T14:46:17Z</time>
      </trkpt>
      <trkpt lat="45.69932" lon="6.58447">
        <ele>1469.99</ele>
        <time>2012-03-04T14:47:20Z</time>
      </trkpt>
      <trkpt lat="45.69932" lon="6.58447">
        <ele>1467.59</ele>
        <time>2012-03-04T14:47:51Z</time>
      </trkpt>
      <trkpt lat="45.69936" lon="6.58446">
        <ele>1464.23</ele>
        <time>2012-03-04T14:48:11Z</time>
      </trkpt>
      <trkpt lat="45.69938" lon="6.58446">
        <ele>1462.3</ele>
        <time>2012-03-04T14:48:21Z</time>
      </trkpt>
      <trkpt lat="45.69941" lon="6.58445">
        <ele>1460.38</ele>
        <time>2012-03-04T14:48:38Z</time>
      </trkpt>
      <trkpt lat="45.69945" lon="6.5844">
        <ele>1457.98</ele>
        <time>2012-03-04T14:49:00Z</time>
      </trkpt>
      <trkpt lat="45.69949" lon="6.58436">
        <ele>1454.61</ele>
        <time>2012-03-04T14:49:20Z</time>
      </trkpt>
      <trkpt lat="45.69954" lon="6.58436">
        <ele>1452.69</ele>
        <time>2012-03-04T14:49:35Z</time>
      </trkpt>
      <trkpt lat="45.69955" lon="6.58435">
        <ele>1448.84</ele>
        <time>2012-03-04T14:49:49Z</time>
      </trkpt>
      <trkpt lat="45.69955" lon="6.58435">
        <ele>1454.61</ele>
        <time>2012-03-04T14:49:53Z</time>
      </trkpt>
      <trkpt lat="45.69955" lon="6.58435">
        <ele>1452.21</ele>
        <time>2012-03-04T14:49:54Z</time>
      </trkpt>
      <trkpt lat="45.69955" lon="6.58435">
        <ele>1451.73</ele>
        <time>2012-03-04T14:49:58Z</time>
      </trkpt>
      <trkpt lat="45.69955" lon="6.58435">
        <ele>1453.17</ele>
        <time>2012-03-04T14:50:16Z</time>
      </trkpt>
      <trkpt lat="45.69955" lon="6.58436">
        <ele>1452.69</ele>
        <time>2012-03-04T14:51:27Z</time>
      </trkpt>
      <trkpt lat="45.69956" lon="6.58439">
        <ele>1453.65</ele>
        <time>2012-03-04T14:52:37Z</time>
      </trkpt>
      <trkpt lat="45.69957" lon="6.58435">
        <ele>1453.65</ele>
        <time>2012-03-04T14:53:23Z</time>
      </trkpt>
      <trkpt lat="45.69963" lon="6.58424">
        <ele>1451.73</ele>
        <time>2012-03-04T14:53:48Z</time>
      </trkpt>
      <trkpt lat="45.69967" lon="6.58416">
        <ele>1450.77</ele>
        <time>2012-03-04T14:54:06Z</time>
      </trkpt>
      <trkpt lat="45.69967" lon="6.58416">
        <ele>1451.25</ele>
        <time>2012-03-04T14:54:07Z</time>
      </trkpt>
      <trkpt lat="45.69973" lon="6.5841">
        <ele>1449.32</ele>
        <time>2012-03-04T14:54:26Z</time>
      </trkpt>
      <trkpt lat="45.69971" lon="6.58407">
        <ele>1449.81</ele>
        <time>2012-03-04T14:54:50Z</time>
      </trkpt>
      <trkpt lat="45.69974" lon="6.58402">
        <ele>1450.77</ele>
        <time>2012-03-04T14:55:07Z</time>
      </trkpt>
      <trkpt lat="45.69973" lon="6.58409">
        <ele>1450.29</ele>
        <time>2012-03-04T14:55:12Z</time>
      </trkpt>
      <trkpt lat="45.69975" lon="6.58416">
        <ele>1449.32</ele>
        <time>2012-03-04T14:55:27Z</time>
      </trkpt>
      <trkpt lat="45.69975" lon="6.58415">
        <ele>1449.81</ele>
        <time>2012-03-04T14:55:56Z</time>
      </trkpt>
      <trkpt lat="45.69974" lon="6.58414">
        <ele>1449.81</ele>
        <time>2012-03-04T14:56:34Z</time>
      </trkpt>
      <trkpt lat="45.69976" lon="6.58411">
        <ele>1449.32</ele>
        <time>2012-03-04T14:57:54Z</time>
      </trkpt>
      <trkpt lat="45.69978" lon="6.58408">
        <ele>1446.92</ele>
        <time>2012-03-04T14:58:27Z</time>
      </trkpt>
      <trkpt lat="45.69981" lon="6.58401">
        <ele>1443.56</ele>
        <time>2012-03-04T14:58:47Z</time>
      </trkpt>
      <trkpt lat="45.69984" lon="6.5839">
        <ele>1441.63</ele>
        <time>2012-03-04T14:59:11Z</time>
      </trkpt>
      <trkpt lat="45.69984" lon="6.58388">
        <ele>1441.15</ele>
        <time>2012-03-04T14:59:13Z</time>
      </trkpt>
      <trkpt lat="45.69988" lon="6.5839">
        <ele>1440.19</ele>
        <time>2012-03-04T14:59:57Z</time>
      </trkpt>
      <trkpt lat="45.69986" lon="6.58389">
        <ele>1438.27</ele>
        <time>2012-03-04T15:00:29Z</time>
      </trkpt>
      <trkpt lat="45.6999" lon="6.58382">
        <ele>1434.91</ele>
        <time>2012-03-04T15:00:43Z</time>
      </trkpt>
      <trkpt lat="45.69991" lon="6.58381">
        <ele>1434.42</ele>
        <time>2012-03-04T15:00:44Z</time>
      </trkpt>
      <trkpt lat="45.69991" lon="6.5838">
        <ele>1434.42</ele>
        <time>2012-03-04T15:01:11Z</time>
      </trkpt>
      <trkpt lat="45.69991" lon="6.58377">
        <ele>1433.46</ele>
        <time>2012-03-04T15:01:41Z</time>
      </trkpt>
      <trkpt lat="45.69992" lon="6.58376">
        <ele>1431.54</ele>
        <time>2012-03-04T15:02:07Z</time>
      </trkpt>
      <trkpt lat="45.69998" lon="6.58373">
        <ele>1428.66</ele>
        <time>2012-03-04T15:02:23Z</time>
      </trkpt>
      <trkpt lat="45.70003" lon="6.58365">
        <ele>1426.73</ele>
        <time>2012-03-04T15:02:43Z</time>
      </trkpt>
      <trkpt lat="45.70003" lon="6.5836">
        <ele>1422.89</ele>
        <time>2012-03-04T15:03:00Z</time>
      </trkpt>
      <trkpt lat="45.70005" lon="6.58361">
        <ele>1422.89</ele>
        <time>2012-03-04T15:03:24Z</time>
      </trkpt>
      <trkpt lat="45.70004" lon="6.5836">
        <ele>1422.89</ele>
        <time>2012-03-04T15:03:43Z</time>
      </trkpt>
      <trkpt lat="45.70004" lon="6.58352">
        <ele>1420</ele>
        <time>2012-03-04T15:04:00Z</time>
      </trkpt>
      <trkpt lat="45.70004" lon="6.58351">
        <ele>1420</ele>
        <time>2012-03-04T15:04:01Z</time>
      </trkpt>
      <trkpt lat="45.70006" lon="6.58347">
        <ele>1418.08</ele>
        <time>2012-03-04T15:04:05Z</time>
      </trkpt>
      <trkpt lat="45.70011" lon="6.58343">
        <ele>1415.2</ele>
        <time>2012-03-04T15:04:27Z</time>
      </trkpt>
      <trkpt lat="45.70015" lon="6.58338">
        <ele>1412.79</ele>
        <time>2012-03-04T15:04:45Z</time>
      </trkpt>
      <trkpt lat="45.70015" lon="6.58338">
        <ele>1411.83</ele>
        <time>2012-03-04T15:05:10Z</time>
      </trkpt>
      <trkpt lat="45.70019" lon="6.58333">
        <ele>1411.83</ele>
        <time>2012-03-04T15:05:51Z</time>
      </trkpt>
      <trkpt lat="45.70024" lon="6.58326">
        <ele>1409.43</ele>
        <time>2012-03-04T15:06:09Z</time>
      </trkpt>
      <trkpt lat="45.70023" lon="6.58321">
        <ele>1408.95</ele>
        <time>2012-03-04T15:06:33Z</time>
      </trkpt>
      <trkpt lat="45.70026" lon="6.58322">
        <ele>1408.95</ele>
        <time>2012-03-04T15:07:02Z</time>
      </trkpt>
      <trkpt lat="45.70035" lon="6.58319">
        <ele>1406.07</ele>
        <time>2012-03-04T15:07:24Z</time>
      </trkpt>
      <trkpt lat="45.7004" lon="6.5832">
        <ele>1403.66</ele>
        <time>2012-03-04T15:07:41Z</time>
      </trkpt>
      <trkpt lat="45.70039" lon="6.5832">
        <ele>1403.66</ele>
        <time>2012-03-04T15:08:08Z</time>
      </trkpt>
      <trkpt lat="45.70039" lon="6.58319">
        <ele>1403.18</ele>
        <time>2012-03-04T15:08:28Z</time>
      </trkpt>
      <trkpt lat="45.70039" lon="6.58318">
        <ele>1403.18</ele>
        <time>2012-03-04T15:09:30Z</time>
      </trkpt>
      <trkpt lat="45.70039" lon="6.58317">
        <ele>1403.18</ele>
        <time>2012-03-04T15:11:11Z</time>
      </trkpt>
      <trkpt lat="45.70039" lon="6.58316">
        <ele>1403.18</ele>
        <time>2012-03-04T15:12:22Z</time>
      </trkpt>
      <trkpt lat="45.70039" lon="6.5832">
        <ele>1403.66</ele>
        <time>2012-03-04T15:12:51Z</time>
      </trkpt>
      <trkpt lat="45.70044" lon="6.58325">
        <ele>1403.18</ele>
        <time>2012-03-04T15:13:31Z</time>
      </trkpt>
      <trkpt lat="45.70045" lon="6.5832">
        <ele>1400.78</ele>
        <time>2012-03-04T15:13:47Z</time>
      </trkpt>
      <trkpt lat="45.70045" lon="6.58321">
        <ele>1398.37</ele>
        <time>2012-03-04T15:14:04Z</time>
      </trkpt>
      <trkpt lat="45.70049" lon="6.58314">
        <ele>1395.49</ele>
        <time>2012-03-04T15:14:18Z</time>
      </trkpt>
      <trkpt lat="45.70054" lon="6.58317">
        <ele>1393.09</ele>
        <time>2012-03-04T15:14:27Z</time>
      </trkpt>
      <trkpt lat="45.70057" lon="6.5832">
        <ele>1389.72</ele>
        <time>2012-03-04T15:14:45Z</time>
      </trkpt>
      <trkpt lat="45.70058" lon="6.58315">
        <ele>1389.72</ele>
        <time>2012-03-04T15:14:51Z</time>
      </trkpt>
      <trkpt lat="45.70062" lon="6.58311">
        <ele>1385.88</ele>
        <time>2012-03-04T15:15:12Z</time>
      </trkpt>
      <trkpt lat="45.70067" lon="6.58307">
        <ele>1383.47</ele>
        <time>2012-03-04T15:15:35Z</time>
      </trkpt>
      <trkpt lat="45.70071" lon="6.58307">
        <ele>1381.07</ele>
        <time>2012-03-04T15:15:58Z</time>
      </trkpt>
      <trkpt lat="45.70076" lon="6.58309">
        <ele>1381.07</ele>
        <time>2012-03-04T15:16:01Z</time>
      </trkpt>
      <trkpt lat="45.70085" lon="6.58308">
        <ele>1378.67</ele>
        <time>2012-03-04T15:16:17Z</time>
      </trkpt>
      <trkpt lat="45.70081" lon="6.58304">
        <ele>1378.19</ele>
        <time>2012-03-04T15:16:35Z</time>
      </trkpt>
      <trkpt lat="45.70082" lon="6.58303">
        <ele>1376.26</ele>
        <time>2012-03-04T15:16:58Z</time>
      </trkpt>
      <trkpt lat="45.70093" lon="6.58305">
        <ele>1373.38</ele>
        <time>2012-03-04T15:17:13Z</time>
      </trkpt>
      <trkpt lat="45.70098" lon="6.5831">
        <ele>1371.46</ele>
        <time>2012-03-04T15:17:33Z</time>
      </trkpt>
      <trkpt lat="45.70094" lon="6.58302">
        <ele>1371.46</ele>
        <time>2012-03-04T15:17:47Z</time>
      </trkpt>
      <trkpt lat="45.70091" lon="6.58297">
        <ele>1370.98</ele>
        <time>2012-03-04T15:18:03Z</time>
      </trkpt>
      <trkpt lat="45.70091" lon="6.58291">
        <ele>1370.02</ele>
        <time>2012-03-04T15:18:18Z</time>
      </trkpt>
      <trkpt lat="45.70088" lon="6.58288">
        <ele>1369.54</ele>
        <time>2012-03-04T15:18:38Z</time>
      </trkpt>
      <trkpt lat="45.70086" lon="6.58283">
        <ele>1367.61</ele>
        <time>2012-03-04T15:18:54Z</time>
      </trkpt>
      <trkpt lat="45.70098" lon="6.58276">
        <ele>1364.73</ele>
        <time>2012-03-04T15:19:07Z</time>
      </trkpt>
      <trkpt lat="45.70099" lon="6.58271">
        <ele>1363.29</ele>
        <time>2012-03-04T15:19:22Z</time>
      </trkpt>
      <trkpt lat="45.70106" lon="6.58271">
        <ele>1360.4</ele>
        <time>2012-03-04T15:19:45Z</time>
      </trkpt>
      <trkpt lat="45.70113" lon="6.58277">
        <ele>1357.52</ele>
        <time>2012-03-04T15:20:01Z</time>
      </trkpt>
      <trkpt lat="45.70118" lon="6.58279">
        <ele>1355.12</ele>
        <time>2012-03-04T15:20:15Z</time>
      </trkpt>
      <trkpt lat="45.70119" lon="6.58278">
        <ele>1352.71</ele>
        <time>2012-03-04T15:20:35Z</time>
      </trkpt>
      <trkpt lat="45.70119" lon="6.5828">
        <ele>1353.19</ele>
        <time>2012-03-04T15:20:57Z</time>
      </trkpt>
      <trkpt lat="45.70122" lon="6.58278">
        <ele>1352.71</ele>
        <time>2012-03-04T15:21:55Z</time>
      </trkpt>
      <trkpt lat="45.70129" lon="6.5827">
        <ele>1349.83</ele>
        <time>2012-03-04T15:22:12Z</time>
      </trkpt>
      <trkpt lat="45.70134" lon="6.5827">
        <ele>1347.43</ele>
        <time>2012-03-04T15:22:26Z</time>
      </trkpt>
      <trkpt lat="45.70134" lon="6.5827">
        <ele>1347.91</ele>
        <time>2012-03-04T15:22:31Z</time>
      </trkpt>
      <trkpt lat="45.70131" lon="6.5827">
        <ele>1347.91</ele>
        <time>2012-03-04T15:22:38Z</time>
      </trkpt>
      <trkpt lat="45.70131" lon="6.58267">
        <ele>1347.91</ele>
        <time>2012-03-04T15:23:04Z</time>
      </trkpt>
      <trkpt lat="45.70131" lon="6.58266">
        <ele>1346.94</ele>
        <time>2012-03-04T15:23:29Z</time>
      </trkpt>
      <trkpt lat="45.70131" lon="6.58255">
        <ele>1344.54</ele>
        <time>2012-03-04T15:23:50Z</time>
      </trkpt>
      <trkpt lat="45.70132" lon="6.58252">
        <ele>1340.7</ele>
        <time>2012-03-04T15:24:03Z</time>
      </trkpt>
      <trkpt lat="45.70133" lon="6.58253">
        <ele>1344.06</ele>
        <time>2012-03-04T15:24:06Z</time>
      </trkpt>
      <trkpt lat="45.70133" lon="6.58256">
        <ele>1344.06</ele>
        <time>2012-03-04T15:24:22Z</time>
      </trkpt>
      <trkpt lat="45.70133" lon="6.58256">
        <ele>1340.7</ele>
        <time>2012-03-04T15:24:24Z</time>
      </trkpt>
      <trkpt lat="45.70135" lon="6.58256">
        <ele>1342.62</ele>
        <time>2012-03-04T15:25:11Z</time>
      </trkpt>
      <trkpt lat="45.70139" lon="6.5825">
        <ele>1342.14</ele>
        <time>2012-03-04T15:25:38Z</time>
      </trkpt>
      <trkpt lat="45.7014" lon="6.58243">
        <ele>1341.18</ele>
        <time>2012-03-04T15:26:02Z</time>
      </trkpt>
      <trkpt lat="45.70142" lon="6.5824">
        <ele>1339.25</ele>
        <time>2012-03-04T15:26:28Z</time>
      </trkpt>
      <trkpt lat="45.70141" lon="6.58233">
        <ele>1338.77</ele>
        <time>2012-03-04T15:26:47Z</time>
      </trkpt>
      <trkpt lat="45.7014" lon="6.58233">
        <ele>1337.33</ele>
        <time>2012-03-04T15:27:22Z</time>
      </trkpt>
      <trkpt lat="45.7014" lon="6.58234">
        <ele>1337.33</ele>
        <time>2012-03-04T15:27:55Z</time>
      </trkpt>
      <trkpt lat="45.7014" lon="6.58232">
        <ele>1336.85</ele>
        <time>2012-03-04T15:28:26Z</time>
      </trkpt>
      <trkpt lat="45.70136" lon="6.58228">
        <ele>1335.89</ele>
        <time>2012-03-04T15:28:48Z</time>
      </trkpt>
      <trkpt lat="45.70137" lon="6.58223">
        <ele>1336.85</ele>
        <time>2012-03-04T15:29:06Z</time>
      </trkpt>
      <trkpt lat="45.70143" lon="6.58212">
        <ele>1333.97</ele>
        <time>2012-03-04T15:29:28Z</time>
      </trkpt>
      <trkpt lat="45.70144" lon="6.5821">
        <ele>1333.01</ele>
        <time>2012-03-04T15:29:58Z</time>
      </trkpt>
      <trkpt lat="45.70145" lon="6.5821">
        <ele>1332.04</ele>
        <time>2012-03-04T15:30:19Z</time>
      </trkpt>
      <trkpt lat="45.70152" lon="6.58212">
        <ele>1328.68</ele>
        <time>2012-03-04T15:30:35Z</time>
      </trkpt>
      <trkpt lat="45.70152" lon="6.58211">
        <ele>1326.76</ele>
        <time>2012-03-04T15:30:50Z</time>
      </trkpt>
      <trkpt lat="45.70152" lon="6.58212">
        <ele>1360.88</ele>
        <time>2012-03-04T15:47:23Z</time>
      </trkpt>
      <trkpt lat="45.70152" lon="6.58212">
        <ele>1259.46</ele>
        <time>2012-03-04T15:47:25Z</time>
      </trkpt>
      <trkpt lat="45.70298" lon="6.57956">
        <ele>1260.43</ele>
        <time>2012-03-04T15:47:35Z</time>
      </trkpt>
      <trkpt lat="45.70313" lon="6.57953">
        <ele>1257.06</ele>
        <time>2012-03-04T15:48:09Z</time>
      </trkpt>
      <trkpt lat="45.70315" lon="6.57953">
        <ele>1253.7</ele>
        <time>2012-03-04T15:48:16Z</time>
      </trkpt>
      <trkpt lat="45.70316" lon="6.5795">
        <ele>1250.33</ele>
        <time>2012-03-04T15:48:24Z</time>
      </trkpt>
      <trkpt lat="45.70315" lon="6.57951">
        <ele>1249.85</ele>
        <time>2012-03-04T15:48:26Z</time>
      </trkpt>
      <trkpt lat="45.70314" lon="6.57951">
        <ele>1246.49</ele>
        <time>2012-03-04T15:48:34Z</time>
      </trkpt>
      <trkpt lat="45.70314" lon="6.57951">
        <ele>1246.49</ele>
        <time>2012-03-04T15:48:35Z</time>
      </trkpt>
      <trkpt lat="45.70314" lon="6.57951">
        <ele>1245.04</ele>
        <time>2012-03-04T15:48:37Z</time>
      </trkpt>
      <trkpt lat="45.70315" lon="6.57952">
        <ele>1241.68</ele>
        <time>2012-03-04T15:48:46Z</time>
      </trkpt>
      <trkpt lat="45.70318" lon="6.57948">
        <ele>1238.8</ele>
        <time>2012-03-04T15:48:53Z</time>
      </trkpt>
      <trkpt lat="45.70332" lon="6.57948">
        <ele>1235.43</ele>
        <time>2012-03-04T15:49:48Z</time>
      </trkpt>
      <trkpt lat="45.70342" lon="6.57941">
        <ele>1231.59</ele>
        <time>2012-03-04T15:50:04Z</time>
      </trkpt>
      <trkpt lat="45.70352" lon="6.57939">
        <ele>1229.66</ele>
        <time>2012-03-04T15:50:48Z</time>
      </trkpt>
      <trkpt lat="45.70357" lon="6.57938">
        <ele>1229.66</ele>
        <time>2012-03-04T15:50:50Z</time>
      </trkpt>
      <trkpt lat="45.70356" lon="6.57952">
        <ele>1227.74</ele>
        <time>2012-03-04T15:51:04Z</time>
      </trkpt>
      <trkpt lat="45.70357" lon="6.57955">
        <ele>1223.9</ele>
        <time>2012-03-04T15:51:18Z</time>
      </trkpt>
      <trkpt lat="45.7036" lon="6.57953">
        <ele>1223.9</ele>
        <time>2012-03-04T15:51:21Z</time>
      </trkpt>
      <trkpt lat="45.70373" lon="6.57943">
        <ele>1221.01</ele>
        <time>2012-03-04T15:51:37Z</time>
      </trkpt>
      <trkpt lat="45.7038" lon="6.57928">
        <ele>1218.61</ele>
        <time>2012-03-04T15:51:53Z</time>
      </trkpt>
      <trkpt lat="45.70379" lon="6.57917">
        <ele>1215.24</ele>
        <time>2012-03-04T15:52:06Z</time>
      </trkpt>
      <trkpt lat="45.70393" lon="6.57919">
        <ele>1211.88</ele>
        <time>2012-03-04T15:52:34Z</time>
      </trkpt>
      <trkpt lat="45.70402" lon="6.57927">
        <ele>1209.96</ele>
        <time>2012-03-04T15:52:51Z</time>
      </trkpt>
      <trkpt lat="45.70406" lon="6.57948">
        <ele>1208.03</ele>
        <time>2012-03-04T15:53:06Z</time>
      </trkpt>
      <trkpt lat="45.70403" lon="6.57973">
        <ele>1205.63</ele>
        <time>2012-03-04T15:53:21Z</time>
      </trkpt>
      <trkpt lat="45.70395" lon="6.57988">
        <ele>1203.23</ele>
        <time>2012-03-04T15:53:37Z</time>
      </trkpt>
      <trkpt lat="45.70391" lon="6.57993">
        <ele>1202.27</ele>
        <time>2012-03-04T15:53:41Z</time>
      </trkpt>
      <trkpt lat="45.70379" lon="6.58006">
        <ele>1198.9</ele>
        <time>2012-03-04T15:53:59Z</time>
      </trkpt>
      <trkpt lat="45.70378" lon="6.58025">
        <ele>1196.02</ele>
        <time>2012-03-04T15:54:17Z</time>
      </trkpt>
      <trkpt lat="45.70378" lon="6.58028">
        <ele>1196.02</ele>
        <time>2012-03-04T15:54:19Z</time>
      </trkpt>
      <trkpt lat="45.70375" lon="6.58032">
        <ele>1194.09</ele>
        <time>2012-03-04T15:54:25Z</time>
      </trkpt>
      <trkpt lat="45.70376" lon="6.58036">
        <ele>1192.65</ele>
        <time>2012-03-04T15:54:38Z</time>
      </trkpt>
      <trkpt lat="45.70378" lon="6.58034">
        <ele>1191.21</ele>
        <time>2012-03-04T15:54:44Z</time>
      </trkpt>
      <trkpt lat="45.70389" lon="6.58024">
        <ele>1187.85</ele>
        <time>2012-03-04T15:54:58Z</time>
      </trkpt>
      <trkpt lat="45.70394" lon="6.58044">
        <ele>1184.96</ele>
        <time>2012-03-04T15:55:14Z</time>
      </trkpt>
      <trkpt lat="45.70394" lon="6.5805">
        <ele>1184.96</ele>
        <time>2012-03-04T15:55:19Z</time>
      </trkpt>
      <trkpt lat="45.70394" lon="6.58055">
        <ele>1183.04</ele>
        <time>2012-03-04T15:55:22Z</time>
      </trkpt>
      <trkpt lat="45.70396" lon="6.58068">
        <ele>1182.08</ele>
        <time>2012-03-04T15:55:34Z</time>
      </trkpt>
      <trkpt lat="45.70391" lon="6.58085">
        <ele>1180.16</ele>
        <time>2012-03-04T15:55:46Z</time>
      </trkpt>
      <trkpt lat="45.7039" lon="6.58087">
        <ele>1179.67</ele>
        <time>2012-03-04T15:55:48Z</time>
      </trkpt>
      <trkpt lat="45.70392" lon="6.58091">
        <ele>1177.75</ele>
        <time>2012-03-04T15:55:59Z</time>
      </trkpt>
      <trkpt lat="45.70395" lon="6.58083">
        <ele>1175.35</ele>
        <time>2012-03-04T15:56:11Z</time>
      </trkpt>
      <trkpt lat="45.70397" lon="6.58082">
        <ele>1174.39</ele>
        <time>2012-03-04T15:56:13Z</time>
      </trkpt>
      <trkpt lat="45.70407" lon="6.58076">
        <ele>1171.98</ele>
        <time>2012-03-04T15:56:29Z</time>
      </trkpt>
      <trkpt lat="45.70412" lon="6.58074">
        <ele>1171.02</ele>
        <time>2012-03-04T15:56:37Z</time>
      </trkpt>
      <trkpt lat="45.70417" lon="6.58078">
        <ele>1169.58</ele>
        <time>2012-03-04T15:56:40Z</time>
      </trkpt>
      <trkpt lat="45.70423" lon="6.58086">
        <ele>1169.1</ele>
        <time>2012-03-04T15:56:55Z</time>
      </trkpt>
      <trkpt lat="45.70431" lon="6.58082">
        <ele>1167.18</ele>
        <time>2012-03-04T15:58:11Z</time>
      </trkpt>
      <trkpt lat="45.70434" lon="6.58081">
        <ele>1166.7</ele>
        <time>2012-03-04T15:58:15Z</time>
      </trkpt>
      <trkpt lat="45.70441" lon="6.58079">
        <ele>1166.7</ele>
        <time>2012-03-04T15:58:22Z</time>
      </trkpt>
      <trkpt lat="45.70453" lon="6.58073">
        <ele>1164.77</ele>
        <time>2012-03-04T15:58:36Z</time>
      </trkpt>
      <trkpt lat="45.70458" lon="6.58065">
        <ele>1162.85</ele>
        <time>2012-03-04T15:58:43Z</time>
      </trkpt>
      <trkpt lat="45.70459" lon="6.58047">
        <ele>1161.41</ele>
        <time>2012-03-04T15:58:58Z</time>
      </trkpt>
      <trkpt lat="45.70475" lon="6.58024">
        <ele>1159.49</ele>
        <time>2012-03-04T15:59:19Z</time>
      </trkpt>
      <trkpt lat="45.7048" lon="6.58022">
        <ele>1158.53</ele>
        <time>2012-03-04T15:59:24Z</time>
      </trkpt>
      <trkpt lat="45.70486" lon="6.58004">
        <ele>1157.08</ele>
        <time>2012-03-04T15:59:37Z</time>
      </trkpt>
      <trkpt lat="45.70487" lon="6.58001">
        <ele>1157.08</ele>
        <time>2012-03-04T15:59:39Z</time>
      </trkpt>
      <trkpt lat="45.70488" lon="6.57997">
        <ele>1156.6</ele>
        <time>2012-03-04T15:59:43Z</time>
      </trkpt>
      <trkpt lat="45.70489" lon="6.5799">
        <ele>1155.64</ele>
        <time>2012-03-04T15:59:47Z</time>
      </trkpt>
      <trkpt lat="45.70489" lon="6.57982">
        <ele>1155.16</ele>
        <time>2012-03-04T15:59:51Z</time>
      </trkpt>
      <trkpt lat="45.7049" lon="6.57981">
        <ele>1154.68</ele>
        <time>2012-03-04T15:59:53Z</time>
      </trkpt>
      <trkpt lat="45.70493" lon="6.57969">
        <ele>1153.72</ele>
        <time>2012-03-04T16:00:04Z</time>
      </trkpt>
      <trkpt lat="45.70499" lon="6.57954">
        <ele>1152.28</ele>
        <time>2012-03-04T16:00:22Z</time>
      </trkpt>
      <trkpt lat="45.70503" lon="6.57945">
        <ele>1150.84</ele>
        <time>2012-03-04T16:00:33Z</time>
      </trkpt>
      <trkpt lat="45.70504" lon="6.57941">
        <ele>1149.87</ele>
        <time>2012-03-04T16:00:36Z</time>
      </trkpt>
      <trkpt lat="45.70508" lon="6.57935">
        <ele>1149.87</ele>
        <time>2012-03-04T16:00:40Z</time>
      </trkpt>
      <trkpt lat="45.70519" lon="6.57908">
        <ele>1146.99</ele>
        <time>2012-03-04T16:01:00Z</time>
      </trkpt>
      <trkpt lat="45.70525" lon="6.57903">
        <ele>1146.03</ele>
        <time>2012-03-04T16:01:06Z</time>
      </trkpt>
      <trkpt lat="45.70529" lon="6.57897">
        <ele>1145.55</ele>
        <time>2012-03-04T16:01:11Z</time>
      </trkpt>
      <trkpt lat="45.70542" lon="6.57886">
        <ele>1144.11</ele>
        <time>2012-03-04T16:01:25Z</time>
      </trkpt>
      <trkpt lat="45.70551" lon="6.5787">
        <ele>1142.18</ele>
        <time>2012-03-04T16:01:38Z</time>
      </trkpt>
      <trkpt lat="45.70553" lon="6.57868">
        <ele>1142.18</ele>
        <time>2012-03-04T16:01:40Z</time>
      </trkpt>
      <trkpt lat="45.70556" lon="6.57863">
        <ele>1142.18</ele>
        <time>2012-03-04T16:01:44Z</time>
      </trkpt>
      <trkpt lat="45.70558" lon="6.57858">
        <ele>1141.7</ele>
        <time>2012-03-04T16:01:48Z</time>
      </trkpt>
      <trkpt lat="45.7056" lon="6.57855">
        <ele>1140.74</ele>
        <time>2012-03-04T16:01:50Z</time>
      </trkpt>
      <trkpt lat="45.7056" lon="6.57852">
        <ele>1140.74</ele>
        <time>2012-03-04T16:01:52Z</time>
      </trkpt>
      <trkpt lat="45.70563" lon="6.57849">
        <ele>1140.74</ele>
        <time>2012-03-04T16:01:55Z</time>
      </trkpt>
      <trkpt lat="45.7057" lon="6.57843">
        <ele>1139.3</ele>
        <time>2012-03-04T16:02:05Z</time>
      </trkpt>
      <trkpt lat="45.70575" lon="6.57845">
        <ele>1137.38</ele>
        <time>2012-03-04T16:02:09Z</time>
      </trkpt>
      <trkpt lat="45.70581" lon="6.57847">
        <ele>1135.94</ele>
        <time>2012-03-04T16:02:15Z</time>
      </trkpt>
      <trkpt lat="45.70585" lon="6.57849">
        <ele>1134.49</ele>
        <time>2012-03-04T16:02:20Z</time>
      </trkpt>
      <trkpt lat="45.70594" lon="6.57852">
        <ele>1132.09</ele>
        <time>2012-03-04T16:02:31Z</time>
      </trkpt>
      <trkpt lat="45.70598" lon="6.57854">
        <ele>1130.65</ele>
        <time>2012-03-04T16:02:36Z</time>
      </trkpt>
      <trkpt lat="45.70602" lon="6.57855">
        <ele>1130.17</ele>
        <time>2012-03-04T16:02:40Z</time>
      </trkpt>
      <trkpt lat="45.70612" lon="6.57859">
        <ele>1128.24</ele>
        <time>2012-03-04T16:02:56Z</time>
      </trkpt>
      <trkpt lat="45.70615" lon="6.5786">
        <ele>1128.24</ele>
        <time>2012-03-04T16:02:58Z</time>
      </trkpt>
      <trkpt lat="45.70621" lon="6.57863">
        <ele>1126.8</ele>
        <time>2012-03-04T16:03:04Z</time>
      </trkpt>
      <trkpt lat="45.70632" lon="6.57871">
        <ele>1126.32</ele>
        <time>2012-03-04T16:03:19Z</time>
      </trkpt>
      <trkpt lat="45.70631" lon="6.57881">
        <ele>1125.36</ele>
        <time>2012-03-04T16:03:39Z</time>
      </trkpt>
      <trkpt lat="45.70629" lon="6.5789">
        <ele>1124.4</ele>
        <time>2012-03-04T16:03:49Z</time>
      </trkpt>
      <trkpt lat="45.70627" lon="6.57913">
        <ele>1122.96</ele>
        <time>2012-03-04T16:04:11Z</time>
      </trkpt>
      <trkpt lat="45.70626" lon="6.57912">
        <ele>1122.96</ele>
        <time>2012-03-04T16:05:23Z</time>
      </trkpt>
      <trkpt lat="45.70627" lon="6.57906">
        <ele>1123.44</ele>
        <time>2012-03-04T16:06:24Z</time>
      </trkpt>
      <trkpt lat="45.70629" lon="6.57892">
        <ele>1123.92</ele>
        <time>2012-03-04T16:06:42Z</time>
      </trkpt>
      <trkpt lat="45.70637" lon="6.57885">
        <ele>1124.88</ele>
        <time>2012-03-04T16:06:59Z</time>
      </trkpt>
      <trkpt lat="45.70645" lon="6.57883">
        <ele>1123.92</ele>
        <time>2012-03-04T16:07:12Z</time>
      </trkpt>
      <trkpt lat="45.70652" lon="6.57889">
        <ele>1122.96</ele>
        <time>2012-03-04T16:07:27Z</time>
      </trkpt>
      <trkpt lat="45.70665" lon="6.57891">
        <ele>1121.03</ele>
        <time>2012-03-04T16:07:42Z</time>
      </trkpt>
      <trkpt lat="45.70669" lon="6.5789">
        <ele>1120.07</ele>
        <time>2012-03-04T16:07:47Z</time>
      </trkpt>
      <trkpt lat="45.70677" lon="6.57883">
        <ele>1118.63</ele>
        <time>2012-03-04T16:08:03Z</time>
      </trkpt>
      <trkpt lat="45.70679" lon="6.57884">
        <ele>1118.15</ele>
        <time>2012-03-04T16:08:23Z</time>
      </trkpt>
      <trkpt lat="45.70686" lon="6.57889">
        <ele>1116.23</ele>
        <time>2012-03-04T16:08:37Z</time>
      </trkpt>
      <trkpt lat="45.70694" lon="6.57883">
        <ele>1116.71</ele>
        <time>2012-03-04T16:08:57Z</time>
      </trkpt>
      <trkpt lat="45.70699" lon="6.57884">
        <ele>1117.67</ele>
        <time>2012-03-04T16:09:15Z</time>
      </trkpt>
      <trkpt lat="45.70706" lon="6.57881">
        <ele>1118.63</ele>
        <time>2012-03-04T16:09:37Z</time>
      </trkpt>
      <trkpt lat="45.70708" lon="6.5788">
        <ele>1118.63</ele>
        <time>2012-03-04T16:09:54Z</time>
      </trkpt>
      <trkpt lat="45.70708" lon="6.57878">
        <ele>1119.11</ele>
        <time>2012-03-04T16:10:23Z</time>
      </trkpt>
      <trkpt lat="45.70709" lon="6.57875">
        <ele>1119.11</ele>
        <time>2012-03-04T16:11:31Z</time>
      </trkpt>
      <trkpt lat="45.70709" lon="6.57879">
        <ele>1119.59</ele>
        <time>2012-03-04T16:12:09Z</time>
      </trkpt>
      <trkpt lat="45.70709" lon="6.57879">
        <ele>1120.07</ele>
        <time>2012-03-04T16:12:32Z</time>
      </trkpt>
      <trkpt lat="45.70709" lon="6.57881">
        <ele>1120.07</ele>
        <time>2012-03-04T16:13:03Z</time>
      </trkpt>
      <trkpt lat="45.7071" lon="6.57879">
        <ele>1120.07</ele>
        <time>2012-03-04T16:13:28Z</time>
      </trkpt>
      <trkpt lat="45.70714" lon="6.57875">
        <ele>1121.03</ele>
        <time>2012-03-04T16:13:45Z</time>
      </trkpt>
      <trkpt lat="45.70731" lon="6.57873">
        <ele>1122.48</ele>
        <time>2012-03-04T16:14:04Z</time>
      </trkpt>
      <trkpt lat="45.70738" lon="6.57878">
        <ele>1122.96</ele>
        <time>2012-03-04T16:14:23Z</time>
      </trkpt>
      <trkpt lat="45.70749" lon="6.57877">
        <ele>1124.4</ele>
        <time>2012-03-04T16:14:37Z</time>
      </trkpt>
      <trkpt lat="45.70753" lon="6.57876">
        <ele>1124.88</ele>
        <time>2012-03-04T16:14:46Z</time>
      </trkpt>
      <trkpt lat="45.70755" lon="6.57868">
        <ele>1125.36</ele>
        <time>2012-03-04T16:14:54Z</time>
      </trkpt>
      <trkpt lat="45.70751" lon="6.57849">
        <ele>1124.88</ele>
        <time>2012-03-04T16:15:13Z</time>
      </trkpt>
      <trkpt lat="45.70759" lon="6.57839">
        <ele>1125.36</ele>
        <time>2012-03-04T16:15:30Z</time>
      </trkpt>
      <trkpt lat="45.7076" lon="6.57829">
        <ele>1124.88</ele>
        <time>2012-03-04T16:15:42Z</time>
      </trkpt>
      <trkpt lat="45.70762" lon="6.57823">
        <ele>1124.88</ele>
        <time>2012-03-04T16:16:03Z</time>
      </trkpt>
      <trkpt lat="45.7076" lon="6.57824">
        <ele>1124.88</ele>
        <time>2012-03-04T16:16:40Z</time>
      </trkpt>
      <trkpt lat="45.70763" lon="6.57824">
        <ele>1124.4</ele>
        <time>2012-03-04T16:17:01Z</time>
      </trkpt>
      <trkpt lat="45.7076" lon="6.57823">
        <ele>1125.36</ele>
        <time>2012-03-04T16:17:33Z</time>
      </trkpt>
      <trkpt lat="45.7076" lon="6.5783">
        <ele>1125.36</ele>
        <time>2012-03-04T16:17:44Z</time>
      </trkpt>
      <trkpt lat="45.70746" lon="6.57822">
        <ele>1124.88</ele>
        <time>2012-03-04T16:18:10Z</time>
      </trkpt>
      <trkpt lat="45.7074" lon="6.57827">
        <ele>1124.88</ele>
        <time>2012-03-04T16:18:36Z</time>
      </trkpt>
      <trkpt lat="45.7073" lon="6.57833">
        <ele>1124.4</ele>
        <time>2012-03-04T16:19:06Z</time>
      </trkpt>
      <trkpt lat="45.70743" lon="6.57833">
        <ele>1124.4</ele>
        <time>2012-03-04T16:19:13Z</time>
      </trkpt>
      <trkpt lat="45.70759" lon="6.57839">
        <ele>1124.88</ele>
        <time>2012-03-04T16:19:37Z</time>
      </trkpt>
      <trkpt lat="45.70753" lon="6.57839">
        <ele>1125.36</ele>
        <time>2012-03-04T16:20:43Z</time>
      </trkpt>
      <trkpt lat="45.70754" lon="6.57839">
        <ele>1126.32</ele>
        <time>2012-03-04T16:20:55Z</time>
      </trkpt>
      <trkpt lat="45.70753" lon="6.57842">
        <ele>1122.48</ele>
        <time>2012-03-04T16:21:21Z</time>
      </trkpt>
      <trkpt lat="45.70753" lon="6.57842">
        <ele>1125.36</ele>
        <time>2012-03-04T16:21:22Z</time>
      </trkpt>
      <trkpt lat="45.70753" lon="6.57843">
        <ele>1126.32</ele>
        <time>2012-03-04T16:21:39Z</time>
      </trkpt>
    </trkseg>
  </trk>
</gpx>